Temperatur und Luftfeuchte

Nummer Datum Zeit Sensor Temp Celsius Gef├╝hlte Temp Luftfeuchte in %
6950 2019-04-21 04:42:47 ESP12E-S1 16.20 14.75 33.60
6949 2019-04-21 04:14:29 ESP12E-S1 16.50 15.07 33.00
6948 2019-04-21 03:46:08 ESP12E-S1 16.80 15.36 31.70
6947 2019-04-21 03:17:48 ESP12E-S1 17.00 15.59 32.10
6946 2019-04-21 02:49:29 ESP12E-S1 17.30 15.93 32.30
6945 2019-04-21 02:21:09 ESP12E-S1 17.50 16.14 32.10
6944 2019-04-21 01:52:50 ESP12E-S1 17.70 16.38 32.60
6943 2019-04-21 01:24:31 ESP12E-S1 18.10 16.79 31.60
6942 2019-04-21 00:56:12 ESP12E-S1 18.30 17.02 32.10
6941 2019-04-21 00:27:53 ESP12E-S1 18.70 17.43 30.80
6940 2019-04-20 23:59:33 ESP12E-S1 18.90 17.63 30.00
6939 2019-04-20 23:31:14 ESP12E-S1 19.20 17.96 30.00
6938 2019-04-20 23:02:56 ESP12E-S1 19.60 18.39 29.60
6937 2019-04-20 22:34:37 ESP12E-S1 20.00 18.84 29.90
6936 2019-04-20 22:06:19 ESP12E-S1 20.50 19.38 29.50
6935 2019-04-20 21:38:02 ESP12E-S1 21.00 19.90 28.40
6934 2019-04-20 21:09:46 ESP12E-S1 21.50 20.45 28.50
6933 2019-04-20 20:41:35 ESP12E-S1 22.70 21.73 27.00
6932 2019-04-20 20:13:42 ESP12E-S1 28.20 27.00 24.00
6931 2019-04-20 19:45:36 ESP12E-S1 30.70 28.92 22.30
6930 2019-04-20 19:17:22 ESP12E-S1 31.30 29.42 21.70
6929 2019-04-20 18:48:55 ESP12E-S1 30.50 28.71 21.60
6928 2019-04-20 18:20:44 ESP12E-S1 30.50 28.70 21.30
6927 2019-04-20 17:52:24 ESP12E-S1 30.90 29.04 21.20
6926 2019-04-20 17:24:04 ESP12E-S1 31.10 29.22 21.20
6925 2019-04-20 16:55:42 ESP12E-S1 31.10 29.19 20.50
6924 2019-04-20 16:27:21 ESP12E-S1 31.30 29.38 20.90
6923 2019-04-20 15:58:59 ESP12E-S1 30.80 28.93 20.70
6922 2019-04-20 15:30:38 ESP12E-S1 31.30 29.45 22.20
6921 2019-04-20 15:02:16 ESP12E-S1 31.30 29.51 23.20
6920 2019-04-20 14:33:50 ESP12E-S1 30.50 28.80 23.50
6919 2019-04-20 14:05:29 ESP12E-S1 30.10 28.49 24.30
6918 2019-04-20 13:37:25 ESP12E-S1 30.40 28.74 24.00
6917 2019-04-20 13:08:55 ESP12E-S1 31.40 29.87 26.90
6916 2019-04-20 12:39:53 ESP12E-S1 26.40 26.43 39.40
6915 2019-04-20 12:11:30 ESP12E-S1 25.30 24.79 34.50
6914 2019-04-20 11:43:05 ESP12E-S1 24.00 23.41 36.70
6913 2019-04-20 11:14:38 ESP12E-S1 22.70 21.80 29.80
6912 2019-04-20 10:46:09 ESP12E-S1 21.40 20.36 29.30
6911 2019-04-20 10:17:41 ESP12E-S1 20.10 19.00 31.90
6910 2019-04-20 09:49:13 ESP12E-S1 18.80 17.61 33.50
6909 2019-04-20 09:20:45 ESP12E-S1 17.70 16.40 33.40
6908 2019-04-20 08:52:18 ESP12E-S1 16.70 15.33 34.60
6907 2019-04-20 08:23:50 ESP12E-S1 15.60 14.14 35.30
6906 2019-04-20 07:55:26 ESP12E-S1 14.90 13.38 35.70
6905 2019-04-20 07:27:05 ESP12E-S1 14.60 13.05 35.80
6904 2019-04-20 06:58:43 ESP12E-S1 14.40 12.82 35.30
6903 2019-04-20 06:30:23 ESP12E-S1 14.40 12.83 35.90
6902 2019-04-20 06:02:05 ESP12E-S1 14.60 13.06 36.30
6901 2019-04-20 05:33:46 ESP12E-S1 14.80 13.25 35.20
6900 2019-04-20 05:05:27 ESP12E-S1 15.10 13.58 34.90
6899 2019-04-20 04:37:08 ESP12E-S1 15.30 13.78 34.30
6898 2019-04-20 04:08:49 ESP12E-S1 15.50 14.00 34.20
6897 2019-04-20 03:40:28 ESP12E-S1 15.60 14.11 34.20
6896 2019-04-20 03:12:09 ESP12E-S1 15.80 14.34 34.80
6895 2019-04-20 02:43:50 ESP12E-S1 15.90 14.44 34.40
6894 2019-04-20 02:15:31 ESP12E-S1 16.00 14.55 34.40
6893 2019-04-20 01:47:13 ESP12E-S1 16.20 14.79 35.10
6892 2019-04-20 01:18:53 ESP12E-S1 16.30 14.91 35.40
6891 2019-04-20 00:50:33 ESP12E-S1 16.50 15.13 35.60
6890 2019-04-20 00:22:14 ESP12E-S1 16.50 15.15 36.00
6889 2019-04-19 23:53:55 ESP12E-S1 16.70 15.36 35.80
6888 2019-04-19 23:25:37 ESP12E-S1 16.70 15.38 36.50
6887 2019-04-19 22:57:19 ESP12E-S1 17.30 16.02 35.90
6886 2019-04-19 22:29:03 ESP12E-S1 17.70 16.41 33.80
6885 2019-04-19 22:00:46 ESP12E-S1 18.20 16.92 32.40
6884 2019-04-19 21:32:30 ESP12E-S1 18.80 17.54 30.80
6883 2019-04-19 21:04:14 ESP12E-S1 19.70 18.54 31.10
6882 2019-04-19 20:36:00 ESP12E-S1 20.90 19.82 29.70
6881 2019-04-19 20:07:48 ESP12E-S1 22.20 21.17 26.60
6880 2019-04-19 19:39:34 ESP12E-S1 23.60 22.70 26.20
6879 2019-04-19 19:11:19 ESP12E-S1 24.70 23.87 24.80
6878 2019-04-19 18:43:07 ESP12E-S1 25.80 25.06 24.00
6877 2019-04-19 18:15:04 ESP12E-S1 27.20 26.28 22.40
6876 2019-04-19 17:46:44 ESP12E-S1 28.00 26.77 21.20
6875 2019-04-19 17:19:23 ESP12E-S1 31.00 29.54 27.80
6874 2019-04-19 17:19:07 ESP12E-S1 31.20 29.69 27.10
6873 2019-04-19 17:06:08 ESP12E-S1 33.10 31.09 20.70
6872 2019-04-19 16:37:25 ESP12E-S1 30.90 29.09 22.30
6871 2019-04-19 16:09:13 ESP12E-S1 32.70 30.79 22.10
6870 2019-04-19 15:40:28 ESP12E-S1 31.20 29.48 24.20
6869 2019-04-19 15:12:39 ESP12E-S1 32.00 30.05 21.30
6868 2019-04-19 14:44:10 ESP12E-S1 31.70 29.90 23.40
6867 2019-04-19 14:15:26 ESP12E-S1 30.40 28.84 25.80
6866 2019-04-19 13:47:25 ESP12E-S1 30.00 28.45 25.20
6865 2019-04-19 13:18:59 ESP12E-S1 30.30 28.71 25.10
6864 2019-04-19 12:50:04 ESP12E-S1 27.40 26.65 29.40
6863 2019-04-19 12:21:32 ESP12E-S1 24.00 23.29 31.90
6862 2019-04-19 11:53:12 ESP12E-S1 23.30 22.51 31.70
6861 2019-04-19 11:24:36 ESP12E-S1 21.90 21.05 34.70
6860 2019-04-19 10:56:02 ESP12E-S1 20.10 19.17 38.50
6859 2019-04-19 10:27:30 ESP12E-S1 18.00 16.88 39.20
6858 2019-04-19 09:59:01 ESP12E-S1 16.80 15.58 39.90
6857 2019-04-19 09:30:37 ESP12E-S1 15.90 14.61 40.80
6856 2019-04-19 09:02:16 ESP12E-S1 15.10 13.73 40.60
6855 2019-04-19 08:33:49 ESP12E-S1 14.00 12.54 41.70
6854 2019-04-19 08:05:24 ESP12E-S1 13.20 11.69 42.60
6853 2019-04-19 07:37:02 ESP12E-S1 12.90 11.37 43.00
6852 2019-04-19 07:08:42 ESP12E-S1 12.80 11.24 42.20
6851 2019-04-19 06:40:20 ESP12E-S1 12.80 11.23 42.10
6850 2019-04-19 06:12:01 ESP12E-S1 13.00 11.45 42.10
6849 2019-04-19 05:43:41 ESP12E-S1 13.10 11.55 41.60
6848 2019-04-19 05:15:22 ESP12E-S1 13.20 11.65 41.30
6847 2019-04-19 04:47:03 ESP12E-S1 13.50 11.97 40.90
6846 2019-04-19 04:18:43 ESP12E-S1 13.50 11.97 40.80
6845 2019-04-19 03:50:25 ESP12E-S1 13.80 12.27 39.50
6844 2019-04-19 03:22:05 ESP12E-S1 14.10 12.59 39.30
6843 2019-04-19 02:53:47 ESP12E-S1 14.30 12.78 38.00
6842 2019-04-19 02:25:28 ESP12E-S1 14.50 12.98 37.40
6841 2019-04-19 01:57:09 ESP12E-S1 14.90 13.42 37.50
6840 2019-04-19 01:28:49 ESP12E-S1 15.10 13.62 36.40
6839 2019-04-19 01:00:29 ESP12E-S1 15.50 14.03 35.40
6838 2019-04-19 00:32:10 ESP12E-S1 15.80 14.34 34.70
6837 2019-04-19 00:03:50 ESP12E-S1 16.20 14.78 34.70
6836 2019-04-18 23:35:31 ESP12E-S1 16.60 15.21 34.40
6835 2019-04-18 23:07:13 ESP12E-S1 16.90 15.52 33.60
6834 2019-04-18 22:38:53 ESP12E-S1 17.20 15.85 33.40
6833 2019-04-18 22:10:34 ESP12E-S1 17.60 16.30 33.70
6832 2019-04-18 21:42:17 ESP12E-S1 18.00 16.72 33.20
6831 2019-04-18 21:13:59 ESP12E-S1 18.60 17.36 32.50
6830 2019-04-18 20:45:45 ESP12E-S1 19.60 18.44 31.60
6829 2019-04-18 20:17:32 ESP12E-S1 21.00 19.96 30.90
6828 2019-04-18 19:49:20 ESP12E-S1 22.50 21.59 29.90
6827 2019-04-18 19:20:54 ESP12E-S1 22.40 21.50 30.70
6826 2019-04-18 18:52:41 ESP12E-S1 23.40 22.55 28.90
6825 2019-04-18 18:24:31 ESP12E-S1 25.00 24.28 27.80
6824 2019-04-18 17:56:23 ESP12E-S1 27.00 26.30 26.80
6823 2019-04-18 17:27:41 ESP12E-S1 28.70 27.48 27.00
6822 2019-04-18 16:59:36 ESP12E-S1 30.50 28.97 26.50
6821 2019-04-18 16:31:10 ESP12E-S1 28.90 27.63 26.80
6820 2019-04-18 16:02:47 ESP12E-S1 30.00 28.52 26.50
6819 2019-04-18 15:34:01 ESP12E-S1 28.60 27.44 27.70
6818 2019-04-18 15:06:04 ESP12E-S1 30.00 28.52 26.50
6817 2019-04-18 14:37:29 ESP12E-S1 28.70 27.68 30.90
6816 2019-04-18 14:08:38 ESP12E-S1 25.80 25.34 34.60
6815 2019-04-18 13:40:17 ESP12E-S1 25.60 25.07 32.60
6814 2019-04-18 13:11:53 ESP12E-S1 25.20 24.69 35.10
6813 2019-04-18 12:43:12 ESP12E-S1 22.90 22.19 36.00
6812 2019-04-18 12:14:49 ESP12E-S1 21.50 20.75 40.00
6811 2019-04-18 11:46:25 ESP12E-S1 20.90 20.13 41.50
6810 2019-04-18 11:17:44 ESP12E-S1 19.30 18.39 42.30
6809 2019-04-18 10:49:14 ESP12E-S1 17.70 16.71 45.20
6808 2019-04-18 10:20:51 ESP12E-S1 16.10 15.03 48.30
6807 2019-04-18 09:52:21 ESP12E-S1 14.90 13.72 48.80
6806 2019-04-18 09:23:54 ESP12E-S1 13.80 12.54 49.80
6805 2019-04-18 08:55:28 ESP12E-S1 13.00 11.67 50.30
6804 2019-04-18 08:27:01 ESP12E-S1 11.80 10.40 52.40
6803 2019-04-18 07:58:42 ESP12E-S1 11.30 9.87 52.90
6802 2019-04-18 07:30:21 ESP12E-S1 11.30 9.85 52.20
6801 2019-04-18 07:02:02 ESP12E-S1 11.40 9.94 51.60
6800 2019-04-18 06:33:42 ESP12E-S1 11.40 9.92 50.80
6799 2019-04-18 06:05:25 ESP12E-S1 12.70 11.37 51.40
6798 2019-04-18 05:37:06 ESP12E-S1 11.70 10.23 50.00
6797 2019-04-18 05:08:46 ESP12E-S1 11.90 10.43 49.20
6796 2019-04-18 04:40:26 ESP12E-S1 12.10 10.63 48.30
6795 2019-04-18 04:12:07 ESP12E-S1 12.20 10.71 47.20
6794 2019-04-18 03:43:48 ESP12E-S1 12.30 10.80 46.40
6793 2019-04-18 03:15:32 ESP12E-S1 12.30 10.76 45.00
6792 2019-04-18 02:47:11 ESP12E-S1 12.30 10.73 43.90
6791 2019-04-18 02:18:53 ESP12E-S1 12.40 10.84 43.70
6790 2019-04-18 01:50:34 ESP12E-S1 12.80 11.26 43.00
6789 2019-04-18 01:22:15 ESP12E-S1 13.10 11.59 43.10
6788 2019-04-18 00:54:03 ESP12E-S1 13.40 11.91 42.80
6787 2019-04-18 00:25:43 ESP12E-S1 13.70 12.23 42.30
6786 2019-04-17 23:57:25 ESP12E-S1 13.90 12.44 42.00
6785 2019-04-17 23:29:06 ESP12E-S1 14.10 12.65 41.60
6784 2019-04-17 23:00:49 ESP12E-S1 14.30 12.88 42.10
6783 2019-04-17 22:32:30 ESP12E-S1 14.60 13.22 42.40
6782 2019-04-17 22:04:11 ESP12E-S1 14.80 13.45 42.80
6781 2019-04-17 21:35:54 ESP12E-S1 15.00 13.68 43.00
6780 2019-04-17 21:07:38 ESP12E-S1 15.60 14.33 42.70
6779 2019-04-17 20:39:20 ESP12E-S1 16.30 15.11 43.00
6778 2019-04-17 20:11:03 ESP12E-S1 16.90 15.73 41.70
6777 2019-04-17 19:42:47 ESP12E-S1 17.60 16.48 40.60
6776 2019-04-17 19:14:32 ESP12E-S1 18.70 17.68 40.30
6775 2019-04-17 18:46:18 ESP12E-S1 19.90 18.95 38.60
6774 2019-04-17 18:18:07 ESP12E-S1 21.20 20.34 36.80
6773 2019-04-17 17:50:09 ESP12E-S1 23.80 23.18 36.00
6772 2019-04-17 17:21:32 ESP12E-S1 23.80 23.21 37.50
6771 2019-04-17 16:53:09 ESP12E-S1 24.70 24.21 37.80
6770 2019-04-17 16:24:46 ESP12E-S1 23.20 22.65 41.00
6769 2019-04-17 15:56:21 ESP12E-S1 22.60 22.02 42.20
6768 2019-04-17 15:27:43 ESP12E-S1 21.30 20.73 47.60
6767 2019-04-17 14:59:03 ESP12E-S1 19.10 18.45 53.20
6766 2019-04-17 14:30:36 ESP12E-S1 17.90 17.27 58.30
6765 2019-04-17 14:02:11 ESP12E-S1 17.50 17.00 64.90
6764 2019-04-17 13:33:48 ESP12E-S1 16.80 16.22 64.50
6763 2019-04-17 13:05:31 ESP12E-S1 17.50 17.01 65.40
6762 2019-04-17 12:37:00 ESP12E-S1 16.00 15.56 72.90
6761 2019-04-17 12:08:40 ESP12E-S1 15.90 15.42 71.90
6760 2019-04-17 11:40:17 ESP12E-S1 15.80 15.42 75.90
6759 2019-04-17 11:11:57 ESP12E-S1 14.30 14.08 87.70
6758 2019-04-17 10:43:27 ESP12E-S1 13.60 13.40 91.50
6757 2019-04-17 10:15:03 ESP12E-S1 12.80 12.58 93.70
6756 2019-04-17 09:46:41 ESP12E-S1 12.30 12.04 93.90
6755 2019-04-17 09:18:18 ESP12E-S1 12.00 11.69 93.20
6754 2019-04-17 08:49:54 ESP12E-S1 11.70 11.37 93.70
6753 2019-04-17 08:21:30 ESP12E-S1 11.20 10.81 93.30
6752 2019-04-17 07:53:11 ESP12E-S1 10.80 10.42 95.30
6751 2019-04-17 07:24:50 ESP12E-S1 10.90 10.49 93.60
6750 2019-04-17 06:56:29 ESP12E-S1 10.80 10.38 93.70
6749 2019-04-17 06:28:08 ESP12E-S1 12.00 11.69 93.20
6748 2019-04-17 05:59:49 ESP12E-S1 11.00 10.51 90.00
6747 2019-04-17 05:31:30 ESP12E-S1 11.00 10.54 91.20
6746 2019-04-17 05:03:09 ESP12E-S1 11.30 10.74 86.50
6745 2019-04-17 04:34:49 ESP12E-S1 11.30 10.79 88.10
6744 2019-04-17 04:06:29 ESP12E-S1 11.40 10.69 80.20
6743 2019-04-17 03:38:09 ESP12E-S1 11.60 10.84 77.50
6742 2019-04-17 03:09:49 ESP12E-S1 11.70 10.91 76.10
6741 2019-04-17 02:41:31 ESP12E-S1 12.00 11.11 71.20
6740 2019-04-17 02:13:11 ESP12E-S1 12.20 11.21 66.40
6739 2019-04-17 01:44:51 ESP12E-S1 12.40 11.36 63.70
6738 2019-04-17 01:16:31 ESP12E-S1 12.50 11.37 60.10
6737 2019-04-17 00:48:12 ESP12E-S1 12.70 11.57 59.00
6736 2019-04-17 00:19:54 ESP12E-S1 12.90 11.77 58.50
6735 2019-04-16 23:51:36 ESP12E-S1 13.10 12.02 59.40
6734 2019-04-16 23:23:17 ESP12E-S1 13.40 12.26 55.90
6733 2019-04-16 22:54:58 ESP12E-S1 14.10 12.87 49.90
6732 2019-04-16 22:26:39 ESP12E-S1 14.30 13.06 48.70
6731 2019-04-16 21:58:20 ESP12E-S1 14.50 13.25 47.70
6730 2019-04-16 21:30:03 ESP12E-S1 14.90 13.67 46.80
6729 2019-04-16 21:01:54 ESP12E-S1 15.20 13.97 45.90
6728 2019-04-16 20:33:37 ESP12E-S1 15.80 14.58 44.00
6727 2019-04-16 20:05:28 ESP12E-S1 16.40 15.19 42.10
6726 2019-04-16 19:37:07 ESP12E-S1 17.10 15.91 40.10
6725 2019-04-16 19:08:51 ESP12E-S1 17.80 16.65 39.00
6724 2019-04-16 18:40:34 ESP12E-S1 18.50 17.40 38.10
6723 2019-04-16 18:12:19 ESP12E-S1 19.10 18.03 36.80
6722 2019-04-16 17:44:23 ESP12E-S1 21.60 20.66 32.20
6721 2019-04-16 17:16:01 ESP12E-S1 22.20 21.30 31.70
6720 2019-04-16 16:47:16 ESP12E-S1 20.00 18.93 33.50
6719 2019-04-16 16:19:12 ESP12E-S1 21.70 20.76 31.90
6718 2019-04-16 15:50:59 ESP12E-S1 23.00 22.13 29.60
6717 2019-04-16 15:22:36 ESP12E-S1 22.90 22.03 30.00
6716 2019-04-16 14:54:13 ESP12E-S1 23.20 22.35 29.70
6715 2019-04-16 14:25:56 ESP12E-S1 24.00 23.21 28.90
6714 2019-04-16 13:57:35 ESP12E-S1 23.20 22.35 29.60
6713 2019-04-16 13:29:19 ESP12E-S1 23.30 22.49 31.00
6712 2019-04-16 13:00:51 ESP12E-S1 22.60 21.75 32.00
6711 2019-04-16 12:32:02 ESP12E-S1 19.10 17.96 34.40
6710 2019-04-16 12:03:47 ESP12E-S1 18.90 17.69 32.40
6709 2019-04-16 11:35:19 ESP12E-S1 17.80 16.58 36.10
6708 2019-04-16 11:06:39 ESP12E-S1 14.30 12.72 35.90
6707 2019-04-16 10:38:10 ESP12E-S1 14.50 12.93 35.60
6706 2019-04-16 10:09:41 ESP12E-S1 12.80 11.08 36.30
6705 2019-04-16 09:41:17 ESP12E-S1 12.20 10.47 38.10
6704 2019-04-16 09:12:49 ESP12E-S1 11.00 9.17 38.90
6703 2019-04-16 08:44:23 ESP12E-S1 10.20 8.32 40.00
6702 2019-04-16 08:15:56 ESP12E-S1 9.00 7.05 42.00
6701 2019-04-16 07:47:33 ESP12E-S1 8.50 6.49 41.40
6700 2019-04-16 07:19:12 ESP12E-S1 8.40 6.38 41.70
6699 2019-04-16 06:50:53 ESP12E-S1 8.50 6.50 41.80
6698 2019-04-16 06:22:35 ESP12E-S1 8.60 6.61 41.90
6697 2019-04-16 05:54:15 ESP12E-S1 8.80 6.82 41.60
6696 2019-04-16 05:25:57 ESP12E-S1 9.00 7.04 41.50
6695 2019-04-16 04:57:38 ESP12E-S1 9.20 7.26 41.60
6694 2019-04-16 04:29:19 ESP12E-S1 9.40 7.47 41.30
6693 2019-04-16 04:01:00 ESP12E-S1 9.60 7.70 41.70
6692 2019-04-16 03:32:41 ESP12E-S1 9.70 7.82 41.90
6691 2019-04-16 03:04:23 ESP12E-S1 9.30 7.36 41.20
6690 2019-04-16 02:36:03 ESP12E-S1 10.20 8.36 41.50
6689 2019-04-16 02:07:45 ESP12E-S1 10.40 8.58 41.40
6688 2019-04-16 01:39:26 ESP12E-S1 10.80 9.01 41.10
6687 2019-04-16 01:11:06 ESP12E-S1 11.00 9.22 40.80
6686 2019-04-16 00:42:47 ESP12E-S1 12.80 11.21 41.30
6685 2019-04-16 00:14:29 ESP12E-S1 11.70 9.94 39.00
6684 2019-04-15 23:46:10 ESP12E-S1 12.20 10.48 38.50
6683 2019-04-15 23:17:53 ESP12E-S1 12.50 10.81 38.40
6682 2019-04-15 22:49:34 ESP12E-S1 12.90 11.25 38.30
6681 2019-04-15 22:21:16 ESP12E-S1 13.30 11.68 38.00
6680 2019-04-15 21:52:59 ESP12E-S1 13.70 12.10 37.20
6679 2019-04-15 21:24:42 ESP12E-S1 14.30 12.75 36.80
6678 2019-04-15 20:56:27 ESP12E-S1 15.10 13.63 36.80
6677 2019-04-15 20:28:11 ESP12E-S1 16.00 14.61 36.70
6676 2019-04-15 19:59:56 ESP12E-S1 16.90 15.56 35.20
6675 2019-04-15 19:31:41 ESP12E-S1 17.80 16.53 34.20
6674 2019-04-15 19:03:27 ESP12E-S1 18.80 17.60 33.20
6673 2019-04-15 18:35:21 ESP12E-S1 20.10 18.98 31.10
6672 2019-04-15 18:07:16 ESP12E-S1 21.80 20.82 30.00
6671 2019-04-15 17:39:26 ESP12E-S1 26.50 25.95 28.40
6670 2019-04-15 17:11:06 ESP12E-S1 25.00 24.31 29.00
6669 2019-04-15 16:42:21 ESP12E-S1 24.90 24.25 30.70
6668 2019-04-15 16:14:13 ESP12E-S1 24.70 24.03 30.80
6667 2019-04-15 15:45:52 ESP12E-S1 24.60 23.93 31.10
6666 2019-04-15 15:17:32 ESP12E-S1 23.90 23.21 33.10
6665 2019-04-15 14:49:25 ESP12E-S1 25.50 24.99 33.70
6664 2019-04-15 14:20:49 ESP12E-S1 24.80 24.23 34.40
6663 2019-04-15 13:52:32 ESP12E-S1 23.50 22.86 36.40
6662 2019-04-15 13:24:04 ESP12E-S1 23.50 22.89 37.70
6661 2019-04-15 12:55:23 ESP12E-S1 21.50 20.77 40.70
6660 2019-04-15 12:26:42 ESP12E-S1 18.00 17.03 45.00
6659 2019-04-15 11:58:27 ESP12E-S1 17.20 16.21 47.20
6658 2019-04-15 11:29:54 ESP12E-S1 15.90 14.84 49.60
6657 2019-04-15 11:01:16 ESP12E-S1 14.10 12.89 50.80
6656 2019-04-15 10:32:55 ESP12E-S1 12.40 11.14 55.40
6655 2019-04-15 10:04:22 ESP12E-S1 13.70 12.75 62.30
6654 2019-04-15 09:36:00 ESP12E-S1 9.60 8.32 65.30
6653 2019-04-15 09:07:32 ESP12E-S1 8.60 7.29 68.10
6652 2019-04-15 08:39:04 ESP12E-S1 7.50 6.19 72.00
6651 2019-04-15 08:10:39 ESP12E-S1 6.50 5.22 77.10
6650 2019-04-15 07:42:14 ESP12E-S1 6.00 4.74 79.70
6649 2019-04-15 07:13:51 ESP12E-S1 5.60 4.33 81.00
6648 2019-04-15 06:45:37 ESP12E-S1 5.30 4.01 81.40
6647 2019-04-15 06:17:15 ESP12E-S1 5.10 3.83 82.80
6646 2019-04-15 05:48:55 ESP12E-S1 5.40 4.13 81.80
6645 2019-04-15 05:20:36 ESP12E-S1 5.50 4.17 79.00
6644 2019-04-15 04:52:17 ESP12E-S1 5.70 4.30 75.60
6643 2019-04-15 04:24:00 ESP12E-S1 6.10 4.64 71.60
6642 2019-04-15 03:55:38 ESP12E-S1 6.10 4.67 72.90
6641 2019-04-15 03:27:15 ESP12E-S1 5.90 4.39 70.50
6640 2019-04-15 02:58:55 ESP12E-S1 5.90 4.34 68.60
6639 2019-04-15 02:30:34 ESP12E-S1 5.90 4.31 67.70
6638 2019-04-15 02:02:14 ESP12E-S1 6.10 4.47 65.10
6637 2019-04-15 01:33:54 ESP12E-S1 6.30 4.66 64.00
6636 2019-04-15 01:05:33 ESP12E-S1 6.50 4.84 62.60
6635 2019-04-15 00:37:13 ESP12E-S1 6.50 4.81 61.30
6634 2019-04-15 00:08:52 ESP12E-S1 6.70 4.99 60.00
6633 2019-04-14 23:40:35 ESP12E-S1 6.80 5.07 58.70
6632 2019-04-14 23:12:16 ESP12E-S1 7.20 5.45 56.60
6631 2019-04-14 22:43:57 ESP12E-S1 7.30 5.55 56.20
6630 2019-04-14 22:15:42 ESP12E-S1 7.50 5.77 55.90
6629 2019-04-14 21:47:22 ESP12E-S1 7.80 6.07 54.80
6628 2019-04-14 21:19:08 ESP12E-S1 8.10 6.36 53.50
6627 2019-04-14 20:50:49 ESP12E-S1 8.40 6.64 51.60
6626 2019-04-14 20:22:29 ESP12E-S1 8.70 6.94 50.50
6625 2019-04-14 19:54:11 ESP12E-S1 9.10 7.33 48.30
6624 2019-04-14 19:25:53 ESP12E-S1 9.70 7.96 47.20
6623 2019-04-14 18:57:36 ESP12E-S1 10.40 8.68 45.30
6622 2019-04-14 18:29:21 ESP12E-S1 11.40 9.71 42.50
6621 2019-04-14 18:01:15 ESP12E-S1 13.30 11.69 38.60
6620 2019-04-14 17:33:06 ESP12E-S1 15.20 13.73 36.60
6619 2019-04-14 17:04:51 ESP12E-S1 14.90 13.38 35.90
6618 2019-04-14 16:36:23 ESP12E-S1 15.70 14.23 34.50
6617 2019-04-14 16:08:11 ESP12E-S1 16.20 14.76 33.70
6616 2019-04-14 15:39:54 ESP12E-S1 17.00 15.60 32.50
6615 2019-04-14 15:11:48 ESP12E-S1 18.30 17.03 32.20
6614 2019-04-14 14:43:08 ESP12E-S1 17.50 16.20 34.30
6613 2019-04-14 14:14:34 ESP12E-S1 17.30 15.98 34.20
6612 2019-04-14 13:46:28 ESP12E-S1 17.60 16.36 36.30
6611 2019-04-14 13:18:09 ESP12E-S1 19.00 17.87 35.10
6610 2019-04-14 12:49:24 ESP12E-S1 16.60 15.27 36.40
6609 2019-04-14 12:20:51 ESP12E-S1 14.20 12.71 39.60
6608 2019-04-14 11:52:26 ESP12E-S1 12.90 11.41 44.60
6607 2019-04-14 11:23:55 ESP12E-S1 11.40 9.84 47.60
6606 2019-04-14 10:55:21 ESP12E-S1 9.70 8.13 53.90
6605 2019-04-14 10:26:52 ESP12E-S1 8.10 6.42 55.60
6604 2019-04-14 09:58:24 ESP12E-S1 6.80 5.11 60.20
6603 2019-04-14 09:29:55 ESP12E-S1 5.80 4.12 64.50
6602 2019-04-14 09:01:30 ESP12E-S1 4.80 3.07 66.30
6601 2019-04-14 08:33:05 ESP12E-S1 4.10 2.39 69.80
6600 2019-04-14 08:04:45 ESP12E-S1 3.80 2.11 71.90
6599 2019-04-14 07:36:24 ESP12E-S1 3.70 2.01 72.20
6598 2019-04-14 07:08:02 ESP12E-S1 3.70 2.09 75.10
6597 2019-04-14 06:39:42 ESP12E-S1 3.60 2.04 77.50
6596 2019-04-14 06:11:21 ESP12E-S1 3.60 2.09 79.30
6595 2019-04-14 05:43:02 ESP12E-S1 3.50 2.02 81.10
6594 2019-04-14 05:14:42 ESP12E-S1 3.50 2.01 80.60
6593 2019-04-14 04:46:22 ESP12E-S1 3.60 2.19 83.20
6592 2019-04-14 04:18:03 ESP12E-S1 3.50 2.07 83.00
6591 2019-04-14 03:49:42 ESP12E-S1 3.50 2.06 82.50
6590 2019-04-14 03:21:24 ESP12E-S1 3.50 2.06 82.40
6589 2019-04-14 02:53:05 ESP12E-S1 3.80 2.22 75.90
6588 2019-04-14 02:24:45 ESP12E-S1 3.70 2.12 76.30
6587 2019-04-14 01:56:26 ESP12E-S1 3.70 2.15 77.70
6586 2019-04-14 01:28:05 ESP12E-S1 3.80 2.19 74.90
6585 2019-04-14 00:59:45 ESP12E-S1 3.60 2.05 77.80
6584 2019-04-14 00:31:26 ESP12E-S1 3.90 2.26 73.50
6583 2019-04-14 00:03:09 ESP12E-S1 4.30 2.64 71.00
6582 2019-04-13 23:34:52 ESP12E-S1 4.80 2.97 62.70
6581 2019-04-13 23:06:32 ESP12E-S1 5.00 3.03 56.40
6580 2019-04-13 22:38:10 ESP12E-S1 5.00 2.99 54.90
6579 2019-04-13 22:09:55 ESP12E-S1 4.90 2.89 55.40
6578 2019-04-13 21:41:35 ESP12E-S1 5.10 3.08 54.10
6577 2019-04-13 21:13:16 ESP12E-S1 5.20 3.17 53.40
6576 2019-04-13 20:44:58 ESP12E-S1 5.50 3.52 54.00
6575 2019-04-13 20:16:41 ESP12E-S1 6.20 4.27 53.30
6574 2019-04-13 19:48:25 ESP12E-S1 7.20 5.27 49.50
6573 2019-04-13 19:20:07 ESP12E-S1 7.70 5.69 44.60
6572 2019-04-13 18:51:49 ESP12E-S1 7.80 5.80 44.60
6571 2019-04-13 18:23:29 ESP12E-S1 7.80 5.78 43.70
6570 2019-04-13 17:55:10 ESP12E-S1 8.00 5.96 42.30
6569 2019-04-13 17:26:56 ESP12E-S1 8.70 6.74 42.50
6568 2019-04-13 16:58:47 ESP12E-S1 10.20 8.23 36.40
6567 2019-04-13 16:30:21 ESP12E-S1 10.60 8.66 36.10
6566 2019-04-13 16:01:56 ESP12E-S1 9.40 7.39 37.90
6565 2019-04-13 15:33:38 ESP12E-S1 9.70 7.71 37.60
6564 2019-04-13 15:05:21 ESP12E-S1 10.20 8.20 35.50
6563 2019-04-13 14:37:04 ESP12E-S1 10.60 8.61 34.20
6562 2019-04-13 14:08:42 ESP12E-S1 10.70 8.69 33.10
6561 2019-04-13 13:40:22 ESP12E-S1 10.80 8.84 34.70
6560 2019-04-13 13:12:10 ESP12E-S1 12.20 10.40 35.40
6559 2019-04-13 12:43:43 ESP12E-S1 10.80 8.87 35.60
6558 2019-04-13 12:15:19 ESP12E-S1 10.00 8.05 38.10
6557 2019-04-13 11:46:58 ESP12E-S1 9.80 7.73 34.20
6556 2019-04-13 11:18:29 ESP12E-S1 9.20 7.30 42.90
6555 2019-04-13 10:49:58 ESP12E-S1 7.60 5.62 46.30
6554 2019-04-13 10:21:33 ESP12E-S1 6.70 4.72 49.50
6553 2019-04-13 09:53:08 ESP12E-S1 5.90 3.92 52.70
6552 2019-04-13 09:24:47 ESP12E-S1 5.30 3.31 54.60
6551 2019-04-13 08:56:21 ESP12E-S1 4.50 2.55 59.10
6550 2019-04-13 08:27:56 ESP12E-S1 3.90 1.96 61.90
6549 2019-04-13 07:59:33 ESP12E-S1 3.30 1.31 62.10
6548 2019-04-13 07:31:10 ESP12E-S1 3.00 1.01 63.30
6547 2019-04-13 07:02:51 ESP12E-S1 3.00 0.96 61.30
6546 2019-04-13 06:34:31 ESP12E-S1 3.00 0.94 60.80
6545 2019-04-13 06:06:12 ESP12E-S1 3.10 1.00 58.70
6544 2019-04-13 05:37:52 ESP12E-S1 3.10 0.96 57.20
6543 2019-04-13 05:09:35 ESP12E-S1 3.20 1.07 57.20
6542 2019-04-13 04:41:14 ESP12E-S1 3.30 1.14 55.70
6541 2019-04-13 04:12:55 ESP12E-S1 3.40 1.26 56.00
6540 2019-04-13 03:44:36 ESP12E-S1 3.50 1.34 54.80
6539 2019-04-13 03:16:17 ESP12E-S1 3.60 1.45 54.90
6538 2019-04-13 02:47:58 ESP12E-S1 3.60 1.42 53.90
6537 2019-04-13 02:19:38 ESP12E-S1 3.70 1.51 52.90
6536 2019-04-13 01:51:19 ESP12E-S1 3.80 1.60 52.40
6535 2019-04-13 01:23:01 ESP12E-S1 3.90 1.71 52.10
6534 2019-04-13 00:54:42 ESP12E-S1 4.00 1.80 51.50
6533 2019-04-13 00:26:24 ESP12E-S1 4.30 2.11 50.70
6532 2019-04-12 23:58:05 ESP12E-S1 4.40 2.20 50.10
6531 2019-04-12 23:29:53 ESP12E-S1 4.60 2.40 49.20
6530 2019-04-12 23:01:33 ESP12E-S1 5.00 2.78 47.00
6529 2019-04-12 22:33:18 ESP12E-S1 5.20 2.97 45.70
6528 2019-04-12 22:04:57 ESP12E-S1 5.30 3.07 45.30
6527 2019-04-12 21:36:40 ESP12E-S1 5.50 3.28 44.90
6526 2019-04-12 21:08:20 ESP12E-S1 5.80 3.58 43.70
6525 2019-04-12 20:40:02 ESP12E-S1 5.90 3.70 44.10
6524 2019-04-12 20:11:45 ESP12E-S1 6.30 4.12 43.50
6523 2019-04-12 19:43:30 ESP12E-S1 6.80 4.64 42.40
6522 2019-04-12 19:15:11 ESP12E-S1 7.20 5.07 42.00
6521 2019-04-12 18:46:57 ESP12E-S1 7.60 5.48 40.70
6520 2019-04-12 18:18:39 ESP12E-S1 7.90 5.79 40.00
6519 2019-04-12 17:50:21 ESP12E-S1 8.30 6.24 40.20
6518 2019-04-12 17:22:03 ESP12E-S1 8.40 6.35 40.30
6517 2019-04-12 16:53:42 ESP12E-S1 8.60 6.54 39.40
6516 2019-04-12 16:25:22 ESP12E-S1 8.80 6.73 38.20
6515 2019-04-12 15:57:03 ESP12E-S1 8.90 6.85 38.50
6514 2019-04-12 15:28:45 ESP12E-S1 9.00 6.93 37.50
6513 2019-04-12 15:00:29 ESP12E-S1 9.40 7.38 37.60
6512 2019-04-12 14:32:13 ESP12E-S1 10.00 7.99 35.80
6511 2019-04-12 14:03:59 ESP12E-S1 10.80 8.87 35.90
6510 2019-04-12 13:35:37 ESP12E-S1 10.80 8.86 35.30
6509 2019-04-12 13:07:27 ESP12E-S1 10.30 8.32 35.80
6508 2019-04-12 12:39:06 ESP12E-S1 10.40 8.41 34.90
6507 2019-04-12 12:10:46 ESP12E-S1 10.10 8.08 35.00
6506 2019-04-12 11:42:20 ESP12E-S1 9.60 7.58 36.90
6505 2019-04-12 11:13:55 ESP12E-S1 9.20 7.15 37.30
6504 2019-04-12 10:45:33 ESP12E-S1 8.70 6.63 38.50
6503 2019-04-12 10:17:01 ESP12E-S1 7.30 5.15 40.70
6502 2019-04-12 09:48:36 ESP12E-S1 6.10 3.86 41.90
6501 2019-04-12 09:20:11 ESP12E-S1 5.50 3.20 42.10
6500 2019-04-12 08:51:47 ESP12E-S1 4.80 2.47 43.40
6499 2019-04-12 08:23:25 ESP12E-S1 4.40 2.04 43.80
6498 2019-04-12 07:55:04 ESP12E-S1 4.10 1.71 43.80
6497 2019-04-12 07:26:42 ESP12E-S1 3.80 1.38 44.00
6496 2019-04-12 06:58:21 ESP12E-S1 3.60 1.17 44.20
6495 2019-04-12 06:30:02 ESP12E-S1 3.30 0.83 44.00
6494 2019-04-12 06:01:42 ESP12E-S1 3.30 0.83 43.90
6493 2019-04-12 05:33:25 ESP12E-S1 3.50 1.03 42.90
6492 2019-04-12 05:05:06 ESP12E-S1 3.60 1.14 42.90
6491 2019-04-12 04:36:49 ESP12E-S1 3.90 1.45 42.30
6490 2019-04-12 04:08:33 ESP12E-S1 4.10 1.65 41.60
6489 2019-04-12 03:40:14 ESP12E-S1 4.30 1.87 41.40
6488 2019-04-12 03:11:55 ESP12E-S1 4.40 1.98 41.40
6487 2019-04-12 02:43:38 ESP12E-S1 4.70 2.30 41.30
6486 2019-04-12 02:15:20 ESP12E-S1 4.90 2.50 40.30
6485 2019-04-12 01:47:01 ESP12E-S1 5.20 2.80 39.40
6484 2019-04-12 01:18:43 ESP12E-S1 5.50 3.13 39.20
6483 2019-04-12 00:50:24 ESP12E-S1 5.70 3.35 39.20
6482 2019-04-12 00:22:09 ESP12E-S1 6.00 3.67 38.70
6481 2019-04-11 23:53:51 ESP12E-S1 6.30 3.98 37.90
6480 2019-04-11 23:25:33 ESP12E-S1 6.60 4.31 37.90
6479 2019-04-11 22:57:16 ESP12E-S1 7.10 4.84 37.20
6478 2019-04-11 22:29:01 ESP12E-S1 7.60 5.36 36.30
6477 2019-04-11 22:00:45 ESP12E-S1 8.20 6.03 36.50
6476 2019-04-11 21:32:30 ESP12E-S1 8.80 6.64 34.60
6475 2019-04-11 21:04:17 ESP12E-S1 9.40 7.27 33.50
6474 2019-04-11 20:35:59 ESP12E-S1 10.00 7.87 31.20
6473 2019-04-11 20:07:44 ESP12E-S1 9.80 7.65 31.10
6472 2019-04-11 19:39:29 ESP12E-S1 11.70 9.70 29.50
6471 2019-04-11 19:11:17 ESP12E-S1 12.80 10.87 28.30
6470 2019-04-11 18:43:10 ESP12E-S1 14.60 12.83 27.40
6469 2019-04-11 18:15:02 ESP12E-S1 16.30 14.66 25.80
6468 2019-04-11 17:47:38 ESP12E-S1 22.60 21.52 23.20
6467 2019-04-11 17:18:33 ESP12E-S1 20.40 19.13 24.40
6466 2019-04-11 16:50:28 ESP12E-S1 21.60 20.47 24.90
6465 2019-04-11 16:22:02 ESP12E-S1 19.90 18.60 25.20
6464 2019-04-11 15:53:43 ESP12E-S1 21.50 20.37 25.50
6463 2019-04-11 15:25:01 ESP12E-S1 20.20 18.92 24.60
6462 2019-04-11 14:57:03 ESP12E-S1 22.00 20.93 26.00
6461 2019-04-11 14:28:35 ESP12E-S1 21.50 20.35 24.50
6460 2019-04-11 13:59:53 ESP12E-S1 19.90 18.62 26.00
6459 2019-04-11 13:31:40 ESP12E-S1 20.30 19.09 27.00
6458 2019-04-11 13:03:06 ESP12E-S1 19.30 18.03 28.50
6457 2019-04-11 12:34:10 ESP12E-S1 15.50 13.87 29.10
6456 2019-04-11 12:05:56 ESP12E-S1 14.40 12.70 30.70
6455 2019-04-11 11:37:33 ESP12E-S1 13.50 11.72 31.10
6454 2019-04-11 11:08:52 ESP12E-S1 11.90 9.99 32.40
6453 2019-04-11 10:40:25 ESP12E-S1 10.60 8.66 36.00
6452 2019-04-11 10:11:57 ESP12E-S1 8.90 6.86 39.00
6451 2019-04-11 09:43:32 ESP12E-S1 8.00 5.86 38.50
6450 2019-04-11 09:15:10 ESP12E-S1 7.30 5.14 40.40
6449 2019-04-11 08:46:46 ESP12E-S1 6.60 4.45 43.40
6448 2019-04-11 08:18:20 ESP12E-S1 5.60 3.40 45.40
6447 2019-04-11 07:49:58 ESP12E-S1 5.10 2.88 46.40
6446 2019-04-11 07:21:38 ESP12E-S1 4.90 2.67 47.00
6445 2019-04-11 06:53:22 ESP12E-S1 5.00 2.77 46.60
6444 2019-04-11 06:25:05 ESP12E-S1 5.20 2.97 45.60
6443 2019-04-11 05:56:48 ESP12E-S1 5.40 3.19 45.80
6442 2019-04-11 05:28:30 ESP12E-S1 5.50 3.31 46.30
6441 2019-04-11 05:00:12 ESP12E-S1 5.70 3.52 45.80
6440 2019-04-11 04:32:03 ESP12E-S1 5.90 3.73 45.30
6439 2019-04-11 04:03:43 ESP12E-S1 6.20 4.06 45.50
6438 2019-04-11 03:35:24 ESP12E-S1 6.40 4.28 45.30
6437 2019-04-11 03:07:07 ESP12E-S1 6.70 4.60 44.80
6436 2019-04-11 02:38:52 ESP12E-S1 6.90 4.82 45.10
6435 2019-04-11 02:10:34 ESP12E-S1 7.20 5.15 44.80
6434 2019-04-11 01:42:18 ESP12E-S1 7.40 5.38 45.40
6433 2019-04-11 01:14:02 ESP12E-S1 7.60 5.59 45.00
6432 2019-04-11 00:45:44 ESP12E-S1 8.00 6.01 44.30
6431 2019-04-11 00:17:28 ESP12E-S1 8.30 6.33 44.00
6430 2019-04-10 23:49:10 ESP12E-S1 8.60 6.67 44.30
6429 2019-04-10 23:20:53 ESP12E-S1 8.90 6.97 43.20
6428 2019-04-10 22:52:39 ESP12E-S1 9.30 7.38 42.00
6427 2019-04-10 22:24:21 ESP12E-S1 9.70 7.79 40.90
6426 2019-04-10 21:56:04 ESP12E-S1 10.10 8.18 39.00
6425 2019-04-10 21:27:48 ESP12E-S1 10.60 8.73 38.80
6424 2019-04-10 20:59:32 ESP12E-S1 11.10 9.28 38.70
6423 2019-04-10 20:31:17 ESP12E-S1 11.80 10.02 37.60
6422 2019-04-10 20:03:02 ESP12E-S1 12.70 10.98 36.70
6421 2019-04-10 19:34:48 ESP12E-S1 13.60 11.94 35.40
6420 2019-04-10 19:06:37 ESP12E-S1 14.90 13.36 35.10
6419 2019-04-10 18:38:27 ESP12E-S1 16.50 15.10 34.20
6418 2019-04-10 18:10:22 ESP12E-S1 18.90 17.67 31.60
6417 2019-04-10 17:42:34 ESP12E-S1 24.50 23.75 28.60
6416 2019-04-10 17:13:35 ESP12E-S1 22.10 21.13 29.40
6415 2019-04-10 16:45:33 ESP12E-S1 23.70 22.97 32.30
6414 2019-04-10 16:17:17 ESP12E-S1 23.20 22.41 31.90
6413 2019-04-10 15:48:51 ESP12E-S1 23.90 23.21 33.30
6412 2019-04-10 15:20:21 ESP12E-S1 23.10 22.39 35.40
6411 2019-04-10 14:52:08 ESP12E-S1 24.10 23.51 36.10
6410 2019-04-10 14:23:37 ESP12E-S1 22.60 21.83 35.10
6409 2019-04-10 13:55:09 ESP12E-S1 21.70 20.88 36.40
6408 2019-04-10 13:26:47 ESP12E-S1 21.40 20.60 38.40
6407 2019-04-10 12:58:10 ESP12E-S1 19.90 19.04 41.80
6406 2019-04-10 12:29:31 ESP12E-S1 17.40 16.45 48.10
6405 2019-04-10 12:01:07 ESP12E-S1 15.30 14.29 53.80
6404 2019-04-10 11:32:39 ESP12E-S1 13.90 12.77 54.50
6403 2019-04-10 11:03:58 ESP12E-S1 11.60 10.61 68.60
6402 2019-04-10 10:35:30 ESP12E-S1 9.80 8.91 79.30
6401 2019-04-10 10:07:07 ESP12E-S1 9.50 8.64 81.80
6400 2019-04-10 09:38:46 ESP12E-S1 9.30 8.42 81.60
6399 2019-04-10 09:10:27 ESP12E-S1 9.40 8.42 77.70
6398 2019-04-10 08:42:10 ESP12E-S1 10.50 9.56 74.90
6397 2019-04-10 08:13:51 ESP12E-S1 9.80 8.63 68.80
6396 2019-04-10 07:45:31 ESP12E-S1 9.80 8.64 69.00
6395 2019-04-10 07:17:12 ESP12E-S1 9.70 8.57 70.50
6394 2019-04-10 06:48:51 ESP12E-S1 9.60 8.48 71.40
6393 2019-04-10 06:20:32 ESP12E-S1 9.80 8.67 70.40
6392 2019-04-10 05:52:12 ESP12E-S1 9.70 8.61 72.10
6391 2019-04-10 05:23:54 ESP12E-S1 9.90 8.79 70.60
6390 2019-04-10 04:55:35 ESP12E-S1 10.00 8.86 69.20
6389 2019-04-10 04:27:16 ESP12E-S1 10.10 9.01 70.50
6388 2019-04-10 03:58:56 ESP12E-S1 10.10 9.02 71.00
6387 2019-04-10 03:30:37 ESP12E-S1 10.10 9.05 72.10
6386 2019-04-10 03:02:18 ESP12E-S1 10.20 9.15 71.90
6385 2019-04-10 02:33:59 ESP12E-S1 10.30 9.25 71.40
6384 2019-04-10 02:05:40 ESP12E-S1 10.40 9.35 71.20
6383 2019-04-10 01:37:25 ESP12E-S1 10.60 9.56 70.50
6382 2019-04-10 01:09:06 ESP12E-S1 10.70 9.68 70.90
6381 2019-04-10 00:40:48 ESP12E-S1 10.90 9.88 70.10
6380 2019-04-10 00:12:30 ESP12E-S1 11.20 10.19 69.50
6379 2019-04-09 23:44:10 ESP12E-S1 11.50 10.50 68.60
6378 2019-04-09 23:15:50 ESP12E-S1 11.60 10.63 69.50
6377 2019-04-09 22:47:31 ESP12E-S1 11.90 10.96 69.60
6376 2019-04-09 22:19:11 ESP12E-S1 12.20 11.34 71.60
6375 2019-04-09 21:50:54 ESP12E-S1 12.30 11.48 72.60
6374 2019-04-09 21:22:35 ESP12E-S1 12.60 11.88 75.40
6373 2019-04-09 20:54:18 ESP12E-S1 12.90 12.48 85.70
6372 2019-04-09 20:26:00 ESP12E-S1 13.20 12.96 91.20
6371 2019-04-09 19:57:42 ESP12E-S1 13.60 13.16 82.00
6370 2019-04-09 19:29:25 ESP12E-S1 14.10 13.64 79.40
6369 2019-04-09 19:01:09 ESP12E-S1 14.80 14.29 74.80
6368 2019-04-09 18:32:54 ESP12E-S1 15.50 15.00 72.40
6367 2019-04-09 18:04:38 ESP12E-S1 16.00 15.39 66.60
6366 2019-04-09 17:36:23 ESP12E-S1 17.00 16.17 54.30
6365 2019-04-09 17:08:11 ESP12E-S1 18.50 17.81 53.70
6364 2019-04-09 16:39:51 ESP12E-S1 18.80 18.25 57.90
6363 2019-04-09 16:11:31 ESP12E-S1 18.70 18.07 55.30
6362 2019-04-09 15:43:03 ESP12E-S1 18.00 17.62 67.70
6361 2019-04-09 15:14:42 ESP12E-S1 17.80 17.41 68.10
6360 2019-04-09 14:46:15 ESP12E-S1 16.80 16.38 70.50
6359 2019-04-09 14:17:50 ESP12E-S1 16.20 15.80 73.60
6358 2019-04-09 13:49:25 ESP12E-S1 15.70 15.46 81.90
6357 2019-04-09 13:21:12 ESP12E-S1 16.00 15.81 82.40
6356 2019-04-09 12:52:50 ESP12E-S1 15.80 15.65 84.80
6355 2019-04-09 12:24:31 ESP12E-S1 15.80 15.75 88.80
6354 2019-04-09 11:56:07 ESP12E-S1 15.20 15.13 90.30
6353 2019-04-09 11:27:41 ESP12E-S1 14.60 14.53 92.50
6352 2019-04-09 10:59:18 ESP12E-S1 14.20 14.09 92.60
6351 2019-04-09 10:30:59 ESP12E-S1 13.90 13.78 93.20
6350 2019-04-09 10:02:37 ESP12E-S1 13.60 13.50 95.30
6349 2019-04-09 09:34:10 ESP12E-S1 12.10 11.91 97.60
6348 2019-04-09 09:05:44 ESP12E-S1 11.30 11.06 98.50
6347 2019-04-09 08:37:23 ESP12E-S1 10.70 10.38 97.80
6346 2019-04-09 08:09:01 ESP12E-S1 10.40 10.06 98.10
6345 2019-04-09 07:40:41 ESP12E-S1 10.10 9.73 98.20
6344 2019-04-09 07:12:23 ESP12E-S1 9.80 9.39 97.80
6343 2019-04-09 06:44:03 ESP12E-S1 9.90 9.48 97.00
6342 2019-04-09 06:15:45 ESP12E-S1 10.10 9.69 96.50
6341 2019-04-09 05:47:26 ESP12E-S1 10.10 9.68 96.40
6340 2019-04-09 05:19:07 ESP12E-S1 10.20 9.78 96.00
6339 2019-04-09 04:50:48 ESP12E-S1 10.30 9.90 96.20
6338 2019-04-09 04:22:29 ESP12E-S1 10.60 10.19 94.90
6337 2019-04-09 03:54:10 ESP12E-S1 10.70 10.32 95.50
6336 2019-04-09 03:25:53 ESP12E-S1 11.10 10.75 95.30
6335 2019-04-09 02:57:36 ESP12E-S1 11.50 11.21 95.80
6334 2019-04-09 02:29:18 ESP12E-S1 11.80 11.54 96.10
6333 2019-04-09 02:01:01 ESP12E-S1 12.10 11.84 94.90
6332 2019-04-09 01:32:42 ESP12E-S1 12.30 12.08 95.70
6331 2019-04-09 01:04:23 ESP12E-S1 12.50 12.31 95.80
6330 2019-04-09 00:36:04 ESP12E-S1 12.50 12.31 95.80
6329 2019-04-09 00:07:47 ESP12E-S1 12.70 12.49 94.40
6328 2019-04-08 23:39:30 ESP12E-S1 12.90 12.67 93.00
6327 2019-04-08 23:11:13 ESP12E-S1 13.20 12.95 90.80
6326 2019-04-08 22:42:55 ESP12E-S1 13.50 13.03 81.50
6325 2019-04-08 22:14:37 ESP12E-S1 13.70 13.26 81.70
6324 2019-04-08 21:46:20 ESP12E-S1 13.80 13.34 80.70
6323 2019-04-08 21:18:01 ESP12E-S1 14.00 13.53 79.50
6322 2019-04-08 20:49:44 ESP12E-S1 14.10 13.61 78.30
6321 2019-04-08 20:21:27 ESP12E-S1 14.40 13.91 77.00
6320 2019-04-08 19:53:11 ESP12E-S1 14.80 14.31 75.50
6319 2019-04-08 19:24:54 ESP12E-S1 15.20 14.72 74.40
6318 2019-04-08 18:56:36 ESP12E-S1 15.80 15.24 69.10
6317 2019-04-08 18:28:18 ESP12E-S1 16.20 15.62 67.00
6316 2019-04-08 18:00:03 ESP12E-S1 16.90 16.28 62.60
6315 2019-04-08 17:31:47 ESP12E-S1 17.60 16.98 59.80
6314 2019-04-08 17:03:29 ESP12E-S1 18.10 17.46 57.20
6313 2019-04-08 16:35:28 ESP12E-S1 19.40 18.78 52.90
6312 2019-04-08 16:07:31 ESP12E-S1 22.60 22.17 48.20
6311 2019-04-08 15:39:13 ESP12E-S1 22.30 21.86 48.70
6310 2019-04-08 15:10:52 ESP12E-S1 21.90 21.40 48.20
6309 2019-04-08 14:42:37 ESP12E-S1 22.40 22.05 51.70
6308 2019-04-08 14:13:47 ESP12E-S1 19.30 18.79 57.50
6307 2019-04-08 13:45:40 ESP12E-S1 20.60 20.13 54.10
6306 2019-04-08 13:17:12 ESP12E-S1 19.60 19.11 57.40
6305 2019-04-08 12:48:42 ESP12E-S1 18.30 17.78 61.20
6304 2019-04-08 12:20:21 ESP12E-S1 17.70 17.21 64.40
6303 2019-04-08 11:51:56 ESP12E-S1 17.30 16.82 66.40
6302 2019-04-08 11:23:28 ESP12E-S1 16.20 15.71 70.40
6301 2019-04-08 10:55:04 ESP12E-S1 15.30 14.68 68.80
6300 2019-04-08 10:26:34 ESP12E-S1 14.00 13.47 77.00
6299 2019-04-08 09:58:09 ESP12E-S1 12.50 12.00 84.20
6298 2019-04-08 09:29:43 ESP12E-S1 11.60 11.10 87.40
6297 2019-04-08 09:01:22 ESP12E-S1 11.30 10.82 89.40
6296 2019-04-08 08:32:59 ESP12E-S1 11.00 10.52 90.50
6295 2019-04-08 08:04:38 ESP12E-S1 10.70 10.18 90.00
6294 2019-04-08 07:36:20 ESP12E-S1 10.70 10.18 90.20
6293 2019-04-08 07:08:08 ESP12E-S1 10.80 10.24 88.40
6292 2019-04-08 06:39:47 ESP12E-S1 11.10 10.51 85.90
6291 2019-04-08 06:11:29 ESP12E-S1 11.30 10.68 84.20
6290 2019-04-08 05:43:12 ESP12E-S1 11.50 10.85 82.00
6289 2019-04-08 05:14:53 ESP12E-S1 11.50 10.82 81.10
6288 2019-04-08 04:46:36 ESP12E-S1 11.70 10.99 79.00
6287 2019-04-08 04:18:18 ESP12E-S1 12.10 11.37 76.60
6286 2019-04-08 03:50:05 ESP12E-S1 12.80 11.97 70.40
6285 2019-04-08 03:21:50 ESP12E-S1 13.30 12.39 65.20
6284 2019-04-08 02:53:32 ESP12E-S1 13.80 12.78 59.00
6283 2019-04-08 02:25:18 ESP12E-S1 14.30 13.21 54.50
6282 2019-04-08 01:56:58 ESP12E-S1 14.50 13.39 53.20
6281 2019-04-08 01:28:40 ESP12E-S1 14.70 13.60 52.70
6280 2019-04-08 01:00:21 ESP12E-S1 14.90 13.82 52.70
6279 2019-04-08 00:32:01 ESP12E-S1 15.00 13.89 51.20
6278 2019-04-08 00:03:42 ESP12E-S1 15.10 13.98 50.20
6277 2019-04-07 23:35:23 ESP12E-S1 15.00 13.86 49.90
6276 2019-04-07 23:07:03 ESP12E-S1 15.20 14.05 49.00
6275 2019-04-07 22:38:44 ESP12E-S1 15.40 14.27 48.90
6274 2019-04-07 22:10:26 ESP12E-S1 15.70 14.60 48.70
6273 2019-04-07 21:42:08 ESP12E-S1 16.00 14.91 47.90
6272 2019-04-07 21:13:51 ESP12E-S1 16.40 15.36 48.40
6271 2019-04-07 20:45:33 ESP12E-S1 17.00 15.98 47.00
6270 2019-04-07 20:17:16 ESP12E-S1 17.70 16.73 46.00
6269 2019-04-07 19:49:01 ESP12E-S1 18.50 17.53 42.90
6268 2019-04-07 19:20:45 ESP12E-S1 19.40 18.48 41.40
6267 2019-04-07 18:52:30 ESP12E-S1 20.30 19.41 39.20
6266 2019-04-07 18:24:16 ESP12E-S1 21.10 20.24 37.50
6265 2019-04-07 17:56:02 ESP12E-S1 22.40 21.61 35.20
6264 2019-04-07 17:28:15 ESP12E-S1 26.10 25.57 30.80
6263 2019-04-07 16:59:55 ESP12E-S1 26.70 26.32 32.20
6262 2019-04-07 16:31:18 ESP12E-S1 27.60 26.89 31.70
6261 2019-04-07 16:03:25 ESP12E-S1 28.00 27.19 31.90
6260 2019-04-07 15:34:49 ESP12E-S1 27.10 26.63 33.50
6259 2019-04-07 15:06:48 ESP12E-S1 27.40 26.91 35.10
6258 2019-04-07 14:38:20 ESP12E-S1 27.10 26.69 35.00
6257 2019-04-07 14:09:38 ESP12E-S1 26.10 25.73 36.90
6256 2019-04-07 13:41:43 ESP12E-S1 26.30 25.92 35.80
6255 2019-04-07 13:13:08 ESP12E-S1 25.30 24.93 40.20
6254 2019-04-07 12:44:08 ESP12E-S1 21.50 20.89 45.40
6253 2019-04-07 12:15:45 ESP12E-S1 19.80 19.10 48.30
6252 2019-04-07 11:47:24 ESP12E-S1 18.90 18.15 49.90
6251 2019-04-07 11:18:50 ESP12E-S1 17.40 16.66 56.20
6250 2019-04-07 10:50:15 ESP12E-S1 15.70 14.88 59.50
6249 2019-04-07 10:21:55 ESP12E-S1 14.10 13.24 64.10
6248 2019-04-07 09:53:26 ESP12E-S1 13.00 12.12 67.60
6247 2019-04-07 09:25:02 ESP12E-S1 12.20 11.28 69.30
6246 2019-04-07 08:56:37 ESP12E-S1 11.40 10.50 73.10
6245 2019-04-07 08:28:10 ESP12E-S1 10.50 9.64 77.80
6244 2019-04-07 07:59:47 ESP12E-S1 9.80 8.96 81.30
6243 2019-04-07 07:31:27 ESP12E-S1 9.80 9.00 82.80
6242 2019-04-07 07:03:07 ESP12E-S1 9.90 9.10 82.70
6241 2019-04-07 06:34:49 ESP12E-S1 10.10 9.29 81.40
6240 2019-04-07 06:06:31 ESP12E-S1 10.30 9.49 80.70
6239 2019-04-07 05:38:12 ESP12E-S1 10.60 9.80 79.90
6238 2019-04-07 05:09:54 ESP12E-S1 11.90 11.28 81.70
6237 2019-04-07 04:41:34 ESP12E-S1 11.00 10.26 80.70
6236 2019-04-07 04:13:24 ESP12E-S1 11.20 10.49 81.00
6235 2019-04-07 03:45:04 ESP12E-S1 11.40 10.68 79.70
6234 2019-04-07 03:16:45 ESP12E-S1 11.60 10.88 79.20
6233 2019-04-07 02:48:35 ESP12E-S1 11.80 11.12 79.80
6232 2019-04-07 02:20:14 ESP12E-S1 12.00 11.32 79.00
6231 2019-04-07 01:51:55 ESP12E-S1 12.20 11.52 78.30
6230 2019-04-07 01:23:37 ESP12E-S1 12.40 11.75 78.60
6229 2019-04-07 00:55:19 ESP12E-S1 12.60 11.95 77.80
6228 2019-04-07 00:27:01 ESP12E-S1 12.90 12.26 77.00
6227 2019-04-06 23:58:48 ESP12E-S1 13.20 12.57 76.40
6226 2019-04-06 23:30:28 ESP12E-S1 13.50 12.90 76.50
6225 2019-04-06 23:02:08 ESP12E-S1 13.60 12.96 74.50
6224 2019-04-06 22:33:49 ESP12E-S1 13.70 13.09 75.10
6223 2019-04-06 22:05:29 ESP12E-S1 13.70 13.13 76.70
6222 2019-04-06 21:37:09 ESP12E-S1 13.70 13.15 77.40
6221 2019-04-06 21:08:50 ESP12E-S1 13.70 13.13 76.70
6220 2019-04-06 20:40:31 ESP12E-S1 13.80 13.20 75.30
6219 2019-04-06 20:12:15 ESP12E-S1 14.60 14.02 72.80
6218 2019-04-06 19:44:03 ESP12E-S1 15.50 14.89 68.20
6217 2019-04-06 19:15:48 ESP12E-S1 16.40 15.78 64.60
6216 2019-04-06 18:47:36 ESP12E-S1 17.30 16.67 60.70
6215 2019-04-06 18:19:35 ESP12E-S1 18.70 18.11 56.80
6214 2019-04-06 17:51:32 ESP12E-S1 21.80 21.47 54.80
6213 2019-04-06 17:22:45 ESP12E-S1 19.00 18.55 61.00
6212 2019-04-06 16:54:17 ESP12E-S1 16.90 16.24 61.00
6211 2019-04-06 16:25:58 ESP12E-S1 17.40 16.79 61.00
6210 2019-04-06 15:57:42 ESP12E-S1 17.80 17.13 57.30
6209 2019-04-06 15:29:18 ESP12E-S1 18.20 17.69 61.90
6208 2019-04-06 15:00:56 ESP12E-S1 17.80 17.14 57.80
6207 2019-04-06 14:33:00 ESP12E-S1 19.90 19.37 54.60
6206 2019-04-06 14:04:18 ESP12E-S1 18.90 18.40 59.40
6205 2019-04-06 13:35:53 ESP12E-S1 17.60 16.99 60.30
6204 2019-04-06 13:07:16 ESP12E-S1 15.60 15.07 71.00
6203 2019-04-06 12:38:58 ESP12E-S1 16.10 15.56 68.70
6202 2019-04-06 12:10:38 ESP12E-S1 16.10 15.55 68.50
6201 2019-04-06 11:42:12 ESP12E-S1 14.80 14.23 72.50
6200 2019-04-06 11:13:37 ESP12E-S1 13.60 13.17 82.60
6199 2019-04-06 10:45:06 ESP12E-S1 11.90 11.43 87.40
6198 2019-04-06 10:16:37 ESP12E-S1 10.20 9.72 93.50
6197 2019-04-06 09:48:08 ESP12E-S1 8.80 8.33 99.40
6196 2019-04-06 09:19:45 ESP12E-S1 8.20 7.68 99.90
6195 2019-04-06 08:51:21 ESP12E-S1 7.50 6.91 99.90
6194 2019-04-06 08:22:57 ESP12E-S1 6.90 6.25 99.90
6193 2019-04-06 07:54:36 ESP12E-S1 6.70 6.03 99.90
6192 2019-04-06 07:26:15 ESP12E-S1 6.50 5.81 99.90
6191 2019-04-06 06:57:57 ESP12E-S1 6.70 6.03 99.90
6190 2019-04-06 06:29:39 ESP12E-S1 7.10 6.47 99.90
6189 2019-04-06 06:01:20 ESP12E-S1 7.30 6.69 99.90
6188 2019-04-06 05:33:02 ESP12E-S1 7.30 6.69 99.90
6187 2019-04-06 05:04:41 ESP12E-S1 7.40 6.80 99.90
6186 2019-04-06 04:36:23 ESP12E-S1 7.40 6.80 99.90
6185 2019-04-06 03:39:51 ESP12E-S1 7.40 6.80 99.90
6184 2019-04-06 03:11:32 ESP12E-S1 7.40 6.80 99.90
6183 2019-04-06 02:43:13 ESP12E-S1 7.40 6.80 99.90
6182 2019-04-06 02:14:54 ESP12E-S1 7.50 6.91 99.90
6181 2019-04-06 01:46:34 ESP12E-S1 7.50 6.91 99.90
6180 2019-04-06 01:18:16 ESP12E-S1 7.50 6.91 99.90
6179 2019-04-06 00:49:56 ESP12E-S1 7.60 7.02 99.90
6178 2019-04-06 00:21:38 ESP12E-S1 7.60 7.02 99.90
6177 2019-04-05 23:53:19 ESP12E-S1 7.60 7.02 99.90
6176 2019-04-05 23:24:59 ESP12E-S1 7.60 7.02 99.90
6175 2019-04-05 22:56:39 ESP12E-S1 7.60 7.02 99.90
6174 2019-04-05 22:28:19 ESP12E-S1 7.70 7.13 99.90
6173 2019-04-05 22:00:00 ESP12E-S1 7.70 7.13 99.90
6172 2019-04-05 21:31:42 ESP12E-S1 7.70 7.13 99.90
6171 2019-04-05 21:03:24 ESP12E-S1 7.80 7.24 99.90
6170 2019-04-05 20:35:05 ESP12E-S1 7.70 7.13 99.90
6169 2019-04-05 20:06:46 ESP12E-S1 7.70 7.13 99.90
6168 2019-04-05 19:38:27 ESP12E-S1 7.80 7.24 99.90
6167 2019-04-05 19:10:08 ESP12E-S1 8.00 7.46 99.90
6166 2019-04-05 18:41:51 ESP12E-S1 8.20 7.63 97.80
6165 2019-04-05 18:13:33 ESP12E-S1 8.30 7.72 97.00
6164 2019-04-05 17:45:14 ESP12E-S1 8.50 7.89 95.20
6163 2019-04-05 17:16:57 ESP12E-S1 8.90 8.30 94.00
6162 2019-04-05 16:48:37 ESP12E-S1 9.00 8.42 94.20
6161 2019-04-05 16:20:21 ESP12E-S1 9.30 8.72 93.40
6160 2019-04-05 15:51:59 ESP12E-S1 9.00 8.41 94.10
6159 2019-04-05 15:23:40 ESP12E-S1 9.00 8.39 93.20
6158 2019-04-05 14:55:21 ESP12E-S1 9.30 8.70 92.40
6157 2019-04-05 14:27:00 ESP12E-S1 9.30 8.73 93.60
6156 2019-04-05 13:58:38 ESP12E-S1 8.70 8.10 94.60
6155 2019-04-05 13:30:17 ESP12E-S1 8.40 7.77 94.80
6154 2019-04-05 13:01:53 ESP12E-S1 7.90 7.25 95.80
6153 2019-04-05 12:33:32 ESP12E-S1 7.50 6.82 96.30
6152 2019-04-05 12:05:09 ESP12E-S1 7.10 6.40 97.00
6151 2019-04-05 11:36:48 ESP12E-S1 6.60 5.88 98.40
6150 2019-04-05 11:08:26 ESP12E-S1 6.20 5.45 98.70
6149 2019-04-05 10:40:05 ESP12E-S1 6.00 5.25 99.20
6148 2019-04-05 10:11:44 ESP12E-S1 5.80 5.04 99.60
6147 2019-04-05 09:43:24 ESP12E-S1 5.50 4.71 99.90
6146 2019-04-05 09:15:08 ESP12E-S1 5.40 4.60 99.70
6145 2019-04-05 08:46:46 ESP12E-S1 5.10 4.26 99.50
6144 2019-04-05 08:18:26 ESP12E-S1 5.00 4.16 99.80
6143 2019-04-05 07:50:06 ESP12E-S1 4.90 4.03 99.10
6142 2019-04-05 07:21:46 ESP12E-S1 4.90 4.05 99.90
6141 2019-04-05 06:53:26 ESP12E-S1 4.80 3.94 99.90
6140 2019-04-05 06:25:06 ESP12E-S1 4.70 3.83 99.70
6139 2019-04-05 05:56:48 ESP12E-S1 4.70 3.83 99.90
6138 2019-04-05 05:28:29 ESP12E-S1 4.70 3.82 99.40
6137 2019-04-05 05:00:10 ESP12E-S1 4.80 3.94 99.70
6136 2019-04-05 04:31:51 ESP12E-S1 4.80 3.93 99.40
6135 2019-04-05 04:03:32 ESP12E-S1 4.90 4.05 99.60
6134 2019-04-05 03:35:14 ESP12E-S1 5.00 4.14 99.00
6133 2019-04-05 03:06:54 ESP12E-S1 4.90 4.05 99.90
6132 2019-04-05 02:38:37 ESP12E-S1 5.00 4.16 99.80
6131 2019-04-05 02:10:16 ESP12E-S1 5.00 4.15 99.50
6130 2019-04-05 01:42:00 ESP12E-S1 5.10 4.22 97.90
6129 2019-04-05 01:13:39 ESP12E-S1 5.10 4.23 98.20
6128 2019-04-05 00:45:21 ESP12E-S1 5.10 4.23 98.10
6127 2019-04-05 00:17:02 ESP12E-S1 5.10 4.19 96.50
6126 2019-04-04 23:48:46 ESP12E-S1 5.10 4.19 96.80
6125 2019-04-04 23:20:25 ESP12E-S1 5.10 4.19 96.60
6124 2019-04-04 22:52:06 ESP12E-S1 5.20 4.31 97.10
6123 2019-04-04 22:23:46 ESP12E-S1 5.10 4.20 97.20
6122 2019-04-04 21:55:29 ESP12E-S1 5.20 4.34 98.10
6121 2019-04-04 21:27:10 ESP12E-S1 5.20 4.32 97.40
6120 2019-04-04 20:58:51 ESP12E-S1 5.30 4.41 96.50
6119 2019-04-04 20:30:32 ESP12E-S1 5.40 4.51 96.20
6118 2019-04-04 20:02:14 ESP12E-S1 5.50 4.62 96.40
6117 2019-04-04 19:33:57 ESP12E-S1 5.80 4.93 95.50
6116 2019-04-04 19:05:37 ESP12E-S1 5.90 5.05 96.00
6115 2019-04-04 18:37:16 ESP12E-S1 5.70 4.83 95.90
6114 2019-04-04 18:08:58 ESP12E-S1 5.70 4.82 95.60
6113 2019-04-04 17:40:40 ESP12E-S1 5.80 4.96 96.60
6112 2019-04-04 17:12:22 ESP12E-S1 5.90 5.05 95.80
6111 2019-04-04 16:44:03 ESP12E-S1 5.80 4.93 95.70
6110 2019-04-04 16:15:44 ESP12E-S1 5.90 5.05 95.90
6109 2019-04-04 15:47:24 ESP12E-S1 5.90 5.08 97.10
6108 2019-04-04 15:19:03 ESP12E-S1 5.70 4.85 96.60
6107 2019-04-04 14:50:41 ESP12E-S1 5.60 4.72 95.80
6106 2019-04-04 14:22:31 ESP12E-S1 5.50 4.62 96.30
6105 2019-04-04 13:54:08 ESP12E-S1 5.50 4.61 96.00
6104 2019-04-04 13:25:47 ESP12E-S1 5.40 4.49 95.50
6103 2019-04-04 12:57:28 ESP12E-S1 5.30 4.38 95.50
6102 2019-04-04 12:29:10 ESP12E-S1 5.50 4.61 95.80
6101 2019-04-04 12:00:51 ESP12E-S1 5.30 4.40 96.40
6100 2019-04-04 11:32:33 ESP12E-S1 5.40 4.52 96.80
6099 2019-04-04 11:04:14 ESP12E-S1 5.50 4.64 97.20
6098 2019-04-04 10:35:57 ESP12E-S1 5.50 4.63 96.70
6097 2019-04-04 10:07:44 ESP12E-S1 5.50 4.63 96.60
6096 2019-04-04 09:39:23 ESP12E-S1 5.40 4.55 97.70
6095 2019-04-04 09:11:11 ESP12E-S1 5.30 4.45 98.40
6094 2019-04-04 08:42:49 ESP12E-S1 5.40 4.55 97.90
6093 2019-04-04 08:14:31 ESP12E-S1 5.30 4.43 97.60
6092 2019-04-04 07:46:13 ESP12E-S1 5.40 4.55 97.90
6091 2019-04-04 07:17:52 ESP12E-S1 5.40 4.56 98.30
6090 2019-04-04 06:49:33 ESP12E-S1 5.30 4.46 98.50
6089 2019-04-04 06:21:13 ESP12E-S1 5.20 4.34 98.40
6088 2019-04-04 05:52:54 ESP12E-S1 5.10 4.23 98.40
6087 2019-04-04 05:24:45 ESP12E-S1 5.30 4.45 98.40
6086 2019-04-04 04:56:30 ESP12E-S1 5.40 4.58 98.80
6085 2019-04-04 04:28:10 ESP12E-S1 5.40 4.55 97.70
6084 2019-04-04 03:59:50 ESP12E-S1 5.40 4.57 98.70
6083 2019-04-04 03:31:40 ESP12E-S1 5.40 4.56 98.30
6082 2019-04-04 03:03:20 ESP12E-S1 5.40 4.54 97.50
6081 2019-04-04 02:35:01 ESP12E-S1 5.40 4.55 97.70
6080 2019-04-04 02:06:43 ESP12E-S1 5.40 4.53 96.90
6079 2019-04-04 01:38:25 ESP12E-S1 5.50 4.67 98.10
6078 2019-04-04 01:10:06 ESP12E-S1 5.60 4.73 96.40
6077 2019-04-04 00:41:46 ESP12E-S1 5.60 4.74 96.70
6076 2019-04-04 00:13:28 ESP12E-S1 5.80 4.94 96.00
6075 2019-04-03 23:45:09 ESP12E-S1 5.80 4.95 96.40
6074 2019-04-03 23:16:49 ESP12E-S1 5.80 4.97 97.20
6073 2019-04-03 22:48:30 ESP12E-S1 5.90 5.07 96.60
6072 2019-04-03 22:20:12 ESP12E-S1 5.90 5.06 96.20
6071 2019-04-03 21:51:53 ESP12E-S1 6.10 5.27 96.10
6070 2019-04-03 21:23:35 ESP12E-S1 6.40 5.61 96.20
6069 2019-04-03 20:55:15 ESP12E-S1 6.50 5.69 95.30
6068 2019-04-03 20:26:56 ESP12E-S1 6.70 5.91 95.10
6067 2019-04-03 19:58:38 ESP12E-S1 6.90 6.13 95.20
6066 2019-04-03 19:30:19 ESP12E-S1 6.90 6.13 95.10
6065 2019-04-03 19:02:01 ESP12E-S1 7.10 6.33 94.40
6064 2019-04-03 18:33:44 ESP12E-S1 5.20 4.18 92.10
6063 2019-04-03 18:05:29 ESP12E-S1 7.80 7.06 92.70
6062 2019-04-03 17:37:24 ESP12E-S1 8.50 7.74 89.50
6061 2019-04-03 17:09:05 ESP12E-S1 9.10 8.29 85.20
6060 2019-04-03 16:40:49 ESP12E-S1 9.50 8.61 80.50
6059 2019-04-03 16:12:30 ESP12E-S1 9.70 9.05 89.20
6058 2019-04-03 15:44:15 ESP12E-S1 10.30 9.59 84.40
6057 2019-04-03 15:15:50 ESP12E-S1 9.50 8.75 86.00
6056 2019-04-03 14:47:27 ESP12E-S1 9.20 8.40 85.30
6055 2019-04-03 14:19:06 ESP12E-S1 9.20 8.50 88.90
6054 2019-04-03 13:50:46 ESP12E-S1 9.00 8.32 90.50
6053 2019-04-03 13:22:28 ESP12E-S1 9.10 8.40 89.40
6052 2019-04-03 12:54:07 ESP12E-S1 8.40 7.76 94.20
6051 2019-04-03 12:25:48 ESP12E-S1 8.40 7.77 94.90
6050 2019-04-03 11:57:32 ESP12E-S1 9.00 8.49 97.10
6049 2019-04-03 11:29:17 ESP12E-S1 9.10 8.61 97.30
6048 2019-04-03 11:00:59 ESP12E-S1 9.40 8.88 95.00
6047 2019-04-03 10:32:41 ESP12E-S1 9.70 9.24 96.40
6046 2019-04-03 10:04:23 ESP12E-S1 9.90 9.43 95.30
6045 2019-04-03 09:36:04 ESP12E-S1 9.80 9.32 95.30
6044 2019-04-03 09:07:46 ESP12E-S1 9.70 9.19 94.30
6043 2019-04-03 08:39:27 ESP12E-S1 9.70 9.15 92.80
6042 2019-04-03 08:11:07 ESP12E-S1 9.70 9.13 92.00
6041 2019-04-03 07:42:49 ESP12E-S1 9.60 8.99 90.80
6040 2019-04-03 07:14:31 ESP12E-S1 9.60 8.87 86.50
6039 2019-04-03 06:46:14 ESP12E-S1 9.80 9.02 83.50
6038 2019-04-03 06:17:56 ESP12E-S1 9.90 9.10 82.40
6037 2019-04-03 05:49:36 ESP12E-S1 10.00 9.02 75.30
6036 2019-04-03 05:21:17 ESP12E-S1 10.10 9.16 76.50
6035 2019-04-03 04:52:57 ESP12E-S1 10.10 9.16 76.40
6034 2019-04-03 04:24:38 ESP12E-S1 10.30 9.29 73.00
6033 2019-04-03 03:56:18 ESP12E-S1 10.40 9.46 75.40
6032 2019-04-03 03:27:59 ESP12E-S1 10.40 9.45 74.70
6031 2019-04-03 02:59:41 ESP12E-S1 10.40 9.39 72.60
6030 2019-04-03 02:31:25 ESP12E-S1 10.80 9.79 71.20
6029 2019-04-03 02:03:06 ESP12E-S1 11.00 9.98 69.70
6028 2019-04-03 01:06:39 ESP12E-S1 12.40 11.67 75.50
6027 2019-04-03 00:38:21 ESP12E-S1 11.50 10.60 72.40
6026 2019-04-03 00:10:06 ESP12E-S1 11.60 10.72 73.10
6025 2019-04-02 23:41:49 ESP12E-S1 11.90 10.94 68.80
6024 2019-04-02 23:13:31 ESP12E-S1 11.90 10.82 64.30
6023 2019-04-02 22:45:14 ESP12E-S1 12.00 10.95 64.90
6022 2019-04-02 22:16:57 ESP12E-S1 12.20 11.13 63.20
6021 2019-04-02 21:48:39 ESP12E-S1 12.30 11.16 60.40
6020 2019-04-02 21:20:22 ESP12E-S1 12.50 11.34 58.80
6019 2019-04-02 20:52:03 ESP12E-S1 12.60 11.38 56.20
6018 2019-04-02 20:23:49 ESP12E-S1 13.00 11.80 55.50
6017 2019-04-02 19:55:31 ESP12E-S1 13.10 11.91 55.20
6016 2019-04-02 19:27:13 ESP12E-S1 13.30 12.10 54.10
6015 2019-04-02 18:59:04 ESP12E-S1 14.10 12.98 54.30
6014 2019-04-02 18:30:56 ESP12E-S1 17.20 16.10 42.90
6013 2019-04-02 18:02:41 ESP12E-S1 17.90 16.84 42.00
6012 2019-04-02 17:34:33 ESP12E-S1 19.80 18.88 39.90
6011 2019-04-02 17:06:00 ESP12E-S1 19.00 18.07 42.70
6010 2019-04-02 16:37:43 ESP12E-S1 19.60 18.74 42.90
6009 2019-04-02 16:09:14 ESP12E-S1 18.80 17.92 45.20
6008 2019-04-02 15:40:48 ESP12E-S1 18.50 17.56 44.40
6007 2019-04-02 15:12:26 ESP12E-S1 18.10 17.14 44.90
6006 2019-04-02 14:44:07 ESP12E-S1 18.40 17.44 43.80
6005 2019-04-02 14:15:54 ESP12E-S1 19.40 18.50 42.20
6004 2019-04-02 13:47:41 ESP12E-S1 20.50 19.67 40.90
6003 2019-04-02 13:19:15 ESP12E-S1 20.70 19.87 40.10
6002 2019-04-02 12:50:31 ESP12E-S1 19.10 18.19 43.20
6001 2019-04-02 12:21:57 ESP12E-S1 16.90 15.83 45.30
6000 2019-04-02 11:53:38 ESP12E-S1 16.00 14.85 45.70
5999 2019-04-02 11:25:07 ESP12E-S1 14.40 13.16 48.30
5998 2019-04-02 10:56:43 ESP12E-S1 13.20 11.85 48.70
5997 2019-04-02 10:28:21 ESP12E-S1 13.10 11.74 49.00
5996 2019-04-02 09:59:59 ESP12E-S1 12.20 10.78 49.90
5995 2019-04-02 09:31:32 ESP12E-S1 11.20 9.70 50.90
5994 2019-04-02 09:03:08 ESP12E-S1 10.40 8.83 51.20
5993 2019-04-02 08:34:47 ESP12E-S1 10.00 8.41 51.90
5992 2019-04-02 08:06:24 ESP12E-S1 9.50 7.90 53.30
5991 2019-04-02 07:38:06 ESP12E-S1 9.10 7.49 54.40
5990 2019-04-02 07:09:46 ESP12E-S1 9.00 7.38 54.60
5989 2019-04-02 06:41:27 ESP12E-S1 9.10 7.50 54.80
5988 2019-04-02 06:13:08 ESP12E-S1 9.20 7.59 54.20
5987 2019-04-02 05:44:49 ESP12E-S1 9.40 7.80 53.60
5986 2019-04-02 05:16:30 ESP12E-S1 9.50 7.92 54.00
5985 2019-04-02 04:48:12 ESP12E-S1 9.50 7.90 53.50
5984 2019-04-02 04:19:55 ESP12E-S1 9.80 8.24 53.70
5983 2019-04-02 03:51:38 ESP12E-S1 10.10 8.51 51.60
5982 2019-04-02 03:23:20 ESP12E-S1 10.40 8.82 50.70
5981 2019-04-02 02:55:02 ESP12E-S1 10.40 8.81 50.30
5980 2019-04-02 02:26:45 ESP12E-S1 10.40 8.82 50.80
5979 2019-04-02 01:58:27 ESP12E-S1 10.80 9.24 49.90
5978 2019-04-02 01:30:09 ESP12E-S1 11.00 9.43 49.00
5977 2019-04-02 01:01:51 ESP12E-S1 11.40 9.85 47.90
5976 2019-04-02 00:33:33 ESP12E-S1 11.80 10.25 46.40
5975 2019-04-02 00:05:16 ESP12E-S1 12.00 10.45 45.60
5974 2019-04-01 23:36:59 ESP12E-S1 12.40 10.87 44.90
5973 2019-04-01 23:08:43 ESP12E-S1 12.70 11.18 44.10
5972 2019-04-01 22:40:26 ESP12E-S1 12.90 11.40 44.10
5971 2019-04-01 22:12:10 ESP12E-S1 13.30 11.82 43.60
5970 2019-04-01 21:43:54 ESP12E-S1 13.70 12.25 43.10
5969 2019-04-01 21:15:38 ESP12E-S1 14.20 12.81 43.50
5968 2019-04-01 20:47:24 ESP12E-S1 14.80 13.47 43.40
5967 2019-04-01 20:19:09 ESP12E-S1 15.40 14.10 42.40
5966 2019-04-01 19:50:55 ESP12E-S1 16.10 14.86 41.80
5965 2019-04-01 19:22:43 ESP12E-S1 17.40 16.23 39.80
5964 2019-04-01 18:54:39 ESP12E-S1 18.70 17.62 38.00
5963 2019-04-01 18:26:36 ESP12E-S1 20.60 19.64 35.40
5962 2019-04-01 17:58:59 ESP12E-S1 26.10 25.58 31.30
5961 2019-04-01 17:30:38 ESP12E-S1 26.80 26.30 30.00
5960 2019-04-01 17:01:31 ESP12E-S1 24.20 23.53 32.60
5959 2019-04-01 16:33:19 ESP12E-S1 25.30 24.76 33.50
5958 2019-04-01 16:05:04 ESP12E-S1 24.70 24.11 33.90
5957 2019-04-01 15:36:36 ESP12E-S1 25.20 24.68 34.50
5956 2019-04-01 15:08:15 ESP12E-S1 23.80 23.14 34.60
5955 2019-04-01 14:39:57 ESP12E-S1 24.80 24.25 35.20
5954 2019-04-01 14:11:23 ESP12E-S1 23.40 22.75 36.60
5953 2019-04-01 13:43:11 ESP12E-S1 22.70 22.01 37.70
5952 2019-04-01 13:14:40 ESP12E-S1 21.50 20.74 39.70
5951 2019-04-01 12:45:50 ESP12E-S1 18.70 17.74 42.60
5950 2019-04-01 12:17:24 ESP12E-S1 16.80 15.66 43.00
5949 2019-04-01 11:49:03 ESP12E-S1 16.00 14.84 45.20
5948 2019-04-01 11:20:33 ESP12E-S1 14.60 13.33 46.50
5947 2019-04-01 10:51:59 ESP12E-S1 12.80 11.40 48.40
5946 2019-04-01 10:23:33 ESP12E-S1 11.20 9.69 50.30
5945 2019-04-01 09:55:05 ESP12E-S1 10.00 8.42 52.30
5944 2019-04-01 09:26:41 ESP12E-S1 9.10 7.48 54.30
5943 2019-04-01 08:58:19 ESP12E-S1 8.40 6.76 55.90
5942 2019-04-01 08:29:58 ESP12E-S1 7.70 6.07 59.00
5941 2019-04-01 08:01:38 ESP12E-S1 7.20 5.57 60.90
5940 2019-04-01 07:33:20 ESP12E-S1 7.00 5.37 61.70
5939 2019-04-01 07:05:01 ESP12E-S1 7.10 5.46 61.20
5938 2019-04-01 06:36:42 ESP12E-S1 7.20 5.56 60.70
5937 2019-04-01 06:08:25 ESP12E-S1 7.30 5.69 61.60
5936 2019-04-01 05:40:08 ESP12E-S1 7.40 5.81 62.00
5935 2019-04-01 05:11:50 ESP12E-S1 7.50 5.92 61.90
5934 2019-04-01 04:43:32 ESP12E-S1 7.70 6.19 63.70
5933 2019-04-01 04:15:19 ESP12E-S1 7.80 6.29 63.30
5932 2019-04-01 03:47:01 ESP12E-S1 8.10 6.63 63.60
5931 2019-04-01 03:18:43 ESP12E-S1 8.30 6.80 62.00
5930 2019-04-01 02:50:27 ESP12E-S1 8.50 7.00 61.00
5929 2019-04-01 02:22:10 ESP12E-S1 8.70 7.19 60.00
5928 2019-04-01 01:53:52 ESP12E-S1 8.90 7.40 59.50
5927 2019-04-01 01:25:35 ESP12E-S1 9.10 7.59 58.50
5926 2019-04-01 00:57:16 ESP12E-S1 9.20 7.71 58.80
5925 2019-04-01 00:28:59 ESP12E-S1 9.40 7.93 58.60
5924 2019-04-01 00:00:43 ESP12E-S1 9.60 8.11 57.40
5923 2019-03-31 23:32:27 ESP12E-S1 9.80 8.32 56.90
5922 2019-03-31 23:04:10 ESP12E-S1 10.00 8.49 54.90
5921 2019-03-31 22:35:55 ESP12E-S1 10.50 9.04 54.80
5920 2019-03-31 22:07:38 ESP12E-S1 10.90 9.45 53.80
5919 2019-03-31 21:39:27 ESP12E-S1 11.20 9.78 53.80
5918 2019-03-31 21:11:11 ESP12E-S1 11.80 10.42 53.20
5917 2019-03-31 20:42:57 ESP12E-S1 12.40 11.09 53.30
5916 2019-03-31 20:14:42 ESP12E-S1 13.00 11.73 52.80
5915 2019-03-31 19:46:29 ESP12E-S1 14.00 12.81 51.80
5914 2019-03-31 19:18:18 ESP12E-S1 15.00 13.87 50.40
5913 2019-03-31 18:50:06 ESP12E-S1 16.30 15.25 48.30
5912 2019-03-31 18:21:56 ESP12E-S1 17.40 16.43 47.30
5911 2019-03-31 17:53:20 ESP12E-S1 16.90 15.92 49.00
5910 2019-03-31 17:25:00 ESP12E-S1 16.10 15.08 50.20
5909 2019-03-31 16:56:46 ESP12E-S1 17.10 16.08 46.60
5908 2019-03-31 16:28:30 ESP12E-S1 17.80 16.74 42.20
5907 2019-03-31 16:00:23 ESP12E-S1 18.70 17.71 41.70
5906 2019-03-31 15:32:27 ESP12E-S1 21.60 20.84 39.30
5905 2019-03-31 15:03:37 ESP12E-S1 18.90 17.99 44.00
5904 2019-03-31 14:35:22 ESP12E-S1 19.00 18.08 42.90
5903 2019-03-31 14:07:28 ESP12E-S1 21.80 21.05 38.80
5902 2019-03-31 13:38:43 ESP12E-S1 18.20 17.19 42.70
5901 2019-03-31 13:10:30 ESP12E-S1 19.00 18.03 41.20
5900 2019-03-31 12:42:07 ESP12E-S1 19.70 18.83 42.40
5899 2019-03-31 12:13:56 ESP12E-S1 20.30 19.42 39.70
5898 2019-03-31 11:45:34 ESP12E-S1 19.60 18.73 42.60
5897 2019-03-31 11:16:56 ESP12E-S1 17.70 16.75 47.00
5896 2019-03-31 10:48:29 ESP12E-S1 16.50 15.51 50.00
5895 2019-03-31 10:20:00 ESP12E-S1 14.40 13.31 54.20
5894 2019-03-31 09:51:33 ESP12E-S1 13.10 11.88 54.30
5893 2019-03-31 09:23:06 ESP12E-S1 11.80 10.53 57.20
5892 2019-03-31 08:54:42 ESP12E-S1 10.70 9.38 59.60
5891 2019-03-31 08:26:18 ESP12E-S1 9.70 8.28 59.50
5890 2019-03-31 07:57:56 ESP12E-S1 9.20 7.71 58.80
5889 2019-03-31 07:29:36 ESP12E-S1 9.10 7.58 58.00
5888 2019-03-31 07:01:19 ESP12E-S1 9.10 7.56 57.40
5887 2019-03-31 06:32:59 ESP12E-S1 9.10 7.56 57.40
5886 2019-03-31 06:04:43 ESP12E-S1 9.40 7.88 56.80
5885 2019-03-31 05:36:26 ESP12E-S1 9.50 7.97 56.10
5884 2019-03-31 05:08:08 ESP12E-S1 9.80 8.27 54.80
5883 2019-03-31 04:39:53 ESP12E-S1 9.90 8.39 55.40
5882 2019-03-31 04:11:37 ESP12E-S1 10.40 8.88 53.00
5881 2019-03-31 03:43:21 ESP12E-S1 10.70 9.20 52.50
5880 2019-03-31 03:15:04 ESP12E-S1 11.20 9.70 50.70
5879 2019-03-31 01:46:54 ESP12E-S1 11.90 10.43 49.20
5878 2019-03-31 01:18:35 ESP12E-S1 12.20 10.74 48.50
5877 2019-03-31 00:50:20 ESP12E-S1 12.60 11.17 48.00
5876 2019-03-31 00:22:04 ESP12E-S1 13.00 11.56 46.30
5875 2019-03-30 23:53:47 ESP12E-S1 13.20 11.78 46.00
5874 2019-03-30 23:25:30 ESP12E-S1 13.30 11.89 46.30
5873 2019-03-30 22:57:12 ESP12E-S1 13.40 11.98 45.50
5872 2019-03-30 22:28:55 ESP12E-S1 13.50 12.09 45.30
5871 2019-03-30 22:00:38 ESP12E-S1 13.80 12.37 43.50
5870 2019-03-30 21:32:23 ESP12E-S1 14.20 12.80 43.10
5869 2019-03-30 21:04:08 ESP12E-S1 14.70 13.39 44.60
5868 2019-03-30 20:35:55 ESP12E-S1 15.50 14.24 43.30
5867 2019-03-30 20:07:40 ESP12E-S1 16.20 14.97 41.80
5866 2019-03-30 19:39:25 ESP12E-S1 16.80 15.57 39.50
5865 2019-03-30 19:11:10 ESP12E-S1 17.70 16.56 39.50
5864 2019-03-30 18:42:55 ESP12E-S1 18.50 17.51 42.40
5863 2019-03-30 18:14:40 ESP12E-S1 19.40 18.42 39.20
5862 2019-03-30 17:46:26 ESP12E-S1 20.40 19.39 34.40
5861 2019-03-30 17:18:21 ESP12E-S1 22.40 21.55 32.60
5860 2019-03-30 16:50:31 ESP12E-S1 27.00 26.40 29.50
5859 2019-03-30 16:22:07 ESP12E-S1 26.30 25.82 32.00
5858 2019-03-30 15:53:39 ESP12E-S1 23.00 22.24 33.80
5857 2019-03-30 15:25:30 ESP12E-S1 25.70 25.17 32.50
5856 2019-03-30 14:57:28 ESP12E-S1 25.50 24.97 33.00
5855 2019-03-30 14:28:58 ESP12E-S1 25.10 24.57 34.60
5854 2019-03-30 14:00:52 ESP12E-S1 24.80 24.22 34.00
5853 2019-03-30 13:32:28 ESP12E-S1 24.70 24.14 35.20
5852 2019-03-30 13:03:51 ESP12E-S1 23.90 23.33 37.90
5851 2019-03-30 12:35:45 ESP12E-S1 23.50 22.97 40.90
5850 2019-03-30 12:07:18 ESP12E-S1 22.50 21.91 42.20
5849 2019-03-30 11:38:22 ESP12E-S1 19.10 18.31 47.70
5848 2019-03-30 11:10:05 ESP12E-S1 17.90 17.00 47.90
5847 2019-03-30 10:41:44 ESP12E-S1 17.00 16.03 49.00
5846 2019-03-30 10:13:11 ESP12E-S1 15.80 14.81 52.50
5845 2019-03-30 09:44:42 ESP12E-S1 14.00 12.90 55.30
5844 2019-03-30 09:16:25 ESP12E-S1 12.60 11.42 57.70
5843 2019-03-30 08:47:58 ESP12E-S1 11.30 10.07 60.50
5842 2019-03-30 08:19:33 ESP12E-S1 9.90 8.67 65.90
5841 2019-03-30 07:51:06 ESP12E-S1 8.60 7.43 73.50
5840 2019-03-30 07:22:42 ESP12E-S1 7.70 6.44 73.40
5839 2019-03-30 06:54:23 ESP12E-S1 7.30 5.99 73.10
5838 2019-03-30 06:26:04 ESP12E-S1 7.40 6.07 71.60
5837 2019-03-30 05:57:48 ESP12E-S1 7.60 6.26 70.70
5836 2019-03-30 05:29:30 ESP12E-S1 7.80 6.46 70.00
5835 2019-03-30 05:01:14 ESP12E-S1 7.90 6.53 68.50
5834 2019-03-30 04:32:57 ESP12E-S1 8.00 6.63 68.10
5833 2019-03-30 04:04:39 ESP12E-S1 8.20 6.83 67.30
5832 2019-03-30 03:36:22 ESP12E-S1 8.40 7.03 66.60
5831 2019-03-30 03:08:06 ESP12E-S1 8.50 7.14 66.40
5830 2019-03-30 02:39:49 ESP12E-S1 8.80 7.43 64.90
5829 2019-03-30 02:11:33 ESP12E-S1 9.10 7.73 63.70
5828 2019-03-30 01:43:17 ESP12E-S1 9.20 7.82 63.00
5827 2019-03-30 01:15:03 ESP12E-S1 9.80 8.41 60.40
5826 2019-03-30 00:46:45 ESP12E-S1 10.00 8.55 57.10
5825 2019-03-30 00:18:27 ESP12E-S1 10.10 8.67 57.60
5824 2019-03-29 23:50:09 ESP12E-S1 10.30 8.88 57.10
5823 2019-03-29 23:21:52 ESP12E-S1 10.70 9.30 56.40
5822 2019-03-29 22:53:35 ESP12E-S1 10.90 9.50 55.70
5821 2019-03-29 22:25:17 ESP12E-S1 11.20 9.81 55.10
5820 2019-03-29 21:57:00 ESP12E-S1 11.50 10.12 54.10
5819 2019-03-29 21:28:43 ESP12E-S1 11.60 10.22 53.90
5818 2019-03-29 21:00:26 ESP12E-S1 11.80 10.45 54.10
5817 2019-03-29 20:32:11 ESP12E-S1 12.20 10.89 54.00
5816 2019-03-29 20:03:58 ESP12E-S1 12.90 11.61 52.30
5815 2019-03-29 19:35:43 ESP12E-S1 13.70 12.47 51.60
5814 2019-03-29 19:07:32 ESP12E-S1 14.80 13.60 48.30
5813 2019-03-29 18:39:21 ESP12E-S1 16.40 15.26 44.50
5812 2019-03-29 18:11:09 ESP12E-S1 17.70 16.61 41.70
5811 2019-03-29 17:43:00 ESP12E-S1 19.30 18.32 39.50
5810 2019-03-29 17:15:23 ESP12E-S1 23.60 22.96 36.20
5809 2019-03-29 16:47:13 ESP12E-S1 27.70 27.01 32.70
5808 2019-03-29 16:18:46 ESP12E-S1 26.70 26.38 33.80
5807 2019-03-29 15:49:59 ESP12E-S1 22.60 21.92 38.60
5806 2019-03-29 15:21:24 ESP12E-S1 22.90 22.34 42.00
5805 2019-03-29 14:53:30 ESP12E-S1 23.10 22.55 41.60
5804 2019-03-29 14:24:51 ESP12E-S1 21.90 21.30 44.40
5803 2019-03-29 13:56:52 ESP12E-S1 21.50 20.78 41.10
5802 2019-03-29 13:28:22 ESP12E-S1 20.50 19.76 44.30
5801 2019-03-29 12:59:24 ESP12E-S1 16.90 15.98 51.10
5800 2019-03-29 12:30:55 ESP12E-S1 16.60 15.74 54.70
5799 2019-03-29 12:02:36 ESP12E-S1 16.40 15.53 55.00
5798 2019-03-29 11:34:11 ESP12E-S1 16.90 16.16 57.90
5797 2019-03-29 11:05:59 ESP12E-S1 17.00 16.22 55.90
5796 2019-03-29 10:37:36 ESP12E-S1 16.10 15.39 62.20
5795 2019-03-29 10:08:55 ESP12E-S1 14.50 13.81 69.30
5794 2019-03-29 09:40:26 ESP12E-S1 12.80 12.11 75.70
5793 2019-03-29 09:12:00 ESP12E-S1 11.50 10.84 81.60
5792 2019-03-29 08:43:36 ESP12E-S1 10.40 9.74 85.90
5791 2019-03-29 08:15:12 ESP12E-S1 9.40 8.76 90.70
5790 2019-03-29 07:46:49 ESP12E-S1 8.60 7.90 91.50
5789 2019-03-29 07:18:25 ESP12E-S1 7.90 7.15 92.00
5788 2019-03-29 06:50:05 ESP12E-S1 7.60 6.81 91.60
5787 2019-03-29 06:21:45 ESP12E-S1 7.60 6.80 91.20
5786 2019-03-29 05:53:28 ESP12E-S1 7.60 6.78 90.60
5785 2019-03-29 05:25:09 ESP12E-S1 7.70 6.89 90.70
5784 2019-03-29 04:56:52 ESP12E-S1 8.60 7.88 90.60
5783 2019-03-29 04:28:35 ESP12E-S1 8.00 7.20 89.60
5782 2019-03-29 04:00:15 ESP12E-S1 8.00 7.21 90.10
5781 2019-03-29 03:31:56 ESP12E-S1 8.00 7.16 88.20
5780 2019-03-29 03:03:53 ESP12E-S1 8.20 7.35 87.00
5779 2019-03-29 02:35:29 ESP12E-S1 8.20 7.33 86.30
5778 2019-03-29 02:07:10 ESP12E-S1 8.30 7.41 85.10
5777 2019-03-29 01:38:52 ESP12E-S1 8.60 7.73 84.80
5776 2019-03-29 01:10:35 ESP12E-S1 8.80 7.90 83.00
5775 2019-03-29 00:42:18 ESP12E-S1 9.10 8.18 80.80
5774 2019-03-29 00:14:01 ESP12E-S1 9.30 8.37 80.00
5773 2019-03-28 23:45:43 ESP12E-S1 9.50 8.56 78.50
5772 2019-03-28 23:17:26 ESP12E-S1 9.70 8.72 76.30
5771 2019-03-28 22:49:09 ESP12E-S1 10.10 9.09 73.60
5770 2019-03-28 22:20:51 ESP12E-S1 10.60 9.56 70.80
5769 2019-03-28 21:52:37 ESP12E-S1 10.90 9.85 69.30
5768 2019-03-28 21:24:19 ESP12E-S1 11.10 10.06 68.90
5767 2019-03-28 20:56:00 ESP12E-S1 11.30 10.26 68.00
5766 2019-03-28 20:27:42 ESP12E-S1 11.40 10.35 67.10
5765 2019-03-28 19:59:26 ESP12E-S1 11.60 10.52 65.20
5764 2019-03-28 19:31:09 ESP12E-S1 11.90 10.82 64.30
5763 2019-03-28 19:02:51 ESP12E-S1 12.10 11.01 62.80
5762 2019-03-28 18:34:34 ESP12E-S1 12.60 11.51 61.00
5761 2019-03-28 18:06:18 ESP12E-S1 13.10 12.00 58.90
5760 2019-03-28 17:38:02 ESP12E-S1 13.60 12.53 57.90
5759 2019-03-28 17:09:47 ESP12E-S1 14.10 13.05 57.00
5758 2019-03-28 16:41:36 ESP12E-S1 14.90 13.88 55.10
5757 2019-03-28 16:13:07 ESP12E-S1 14.30 13.27 56.70
5756 2019-03-28 15:44:47 ESP12E-S1 14.30 13.25 56.20
5755 2019-03-28 15:16:32 ESP12E-S1 14.90 13.87 54.60
5754 2019-03-28 14:48:14 ESP12E-S1 15.50 14.47 52.40
5753 2019-03-28 14:20:10 ESP12E-S1 16.80 15.88 51.60
5752 2019-03-28 13:51:47 ESP12E-S1 15.90 14.93 53.10
5751 2019-03-28 13:23:59 ESP12E-S1 18.00 17.22 52.10
5750 2019-03-28 12:55:17 ESP12E-S1 14.90 13.88 54.80
5749 2019-03-28 12:26:50 ESP12E-S1 14.10 13.10 58.70
5748 2019-03-28 11:58:27 ESP12E-S1 13.00 12.03 64.20
5747 2019-03-28 11:30:12 ESP12E-S1 13.40 12.46 63.90
5746 2019-03-28 11:02:15 ESP12E-S1 15.40 14.56 60.10
5745 2019-03-28 10:33:43 ESP12E-S1 14.20 13.38 65.40
5744 2019-03-28 10:05:00 ESP12E-S1 12.00 11.15 72.50
5743 2019-03-28 09:36:30 ESP12E-S1 9.60 8.71 80.20
5742 2019-03-28 09:08:03 ESP12E-S1 8.60 7.70 83.70
5741 2019-03-28 08:39:41 ESP12E-S1 7.50 6.66 90.20
5740 2019-03-28 08:11:21 ESP12E-S1 7.10 6.26 91.60
5739 2019-03-28 07:42:59 ESP12E-S1 6.00 5.06 92.10
5738 2019-03-28 07:14:38 ESP12E-S1 5.60 4.65 93.10
5737 2019-03-28 06:46:14 ESP12E-S1 5.10 4.07 92.10
5736 2019-03-28 06:17:54 ESP12E-S1 4.80 3.70 90.60
5735 2019-03-28 05:49:38 ESP12E-S1 4.80 3.67 89.50
5734 2019-03-28 05:21:19 ESP12E-S1 4.70 3.50 87.10
5733 2019-03-28 04:53:00 ESP12E-S1 4.70 3.44 85.00
5732 2019-03-28 04:24:41 ESP12E-S1 4.80 3.54 84.30
5731 2019-03-28 03:56:22 ESP12E-S1 4.90 3.61 82.80
5730 2019-03-28 03:28:05 ESP12E-S1 4.90 3.59 82.20
5729 2019-03-28 02:59:48 ESP12E-S1 5.30 3.99 80.60
5728 2019-03-28 02:31:30 ESP12E-S1 5.60 4.28 79.10
5727 2019-03-28 02:03:11 ESP12E-S1 5.60 4.26 78.40
5726 2019-03-28 01:34:53 ESP12E-S1 5.70 4.36 77.90
5725 2019-03-28 01:06:34 ESP12E-S1 5.80 4.44 76.90
5724 2019-03-28 00:38:16 ESP12E-S1 5.80 4.44 76.90
5723 2019-03-28 00:09:58 ESP12E-S1 5.90 4.54 76.50
5722 2019-03-27 23:41:38 ESP12E-S1 5.90 4.52 75.50
5721 2019-03-27 23:13:21 ESP12E-S1 6.10 4.72 75.00
5720 2019-03-27 22:45:02 ESP12E-S1 6.20 4.80 73.80
5719 2019-03-27 22:16:45 ESP12E-S1 6.50 5.06 70.90
5718 2019-03-27 21:48:27 ESP12E-S1 6.70 5.23 69.00
5717 2019-03-27 21:20:10 ESP12E-S1 6.90 5.42 68.00
5716 2019-03-27 20:51:53 ESP12E-S1 7.10 5.62 67.20
5715 2019-03-27 20:23:37 ESP12E-S1 7.50 5.99 64.70
5714 2019-03-27 19:55:20 ESP12E-S1 7.90 6.38 62.70
5713 2019-03-27 19:27:05 ESP12E-S1 8.50 7.01 61.40
5712 2019-03-27 18:58:50 ESP12E-S1 9.30 7.81 58.50
5711 2019-03-27 18:30:35 ESP12E-S1 10.00 8.48 54.50
5710 2019-03-27 18:02:20 ESP12E-S1 10.70 9.18 51.70
5709 2019-03-27 17:34:04 ESP12E-S1 11.30 9.88 53.40
5708 2019-03-27 17:05:44 ESP12E-S1 11.50 10.13 54.40
5707 2019-03-27 16:37:34 ESP12E-S1 12.30 10.98 53.30
5706 2019-03-27 16:09:00 ESP12E-S1 10.90 9.46 54.00
5705 2019-03-27 15:40:44 ESP12E-S1 12.40 11.15 55.80
5704 2019-03-27 15:12:32 ESP12E-S1 12.20 10.91 54.80
5703 2019-03-27 14:44:05 ESP12E-S1 11.50 10.16 55.80
5702 2019-03-27 14:15:52 ESP12E-S1 11.90 10.60 55.60
5701 2019-03-27 13:47:26 ESP12E-S1 11.40 10.12 58.50
5700 2019-03-27 13:19:12 ESP12E-S1 11.20 9.94 60.00
5699 2019-03-27 12:50:41 ESP12E-S1 9.30 8.02 66.60
5698 2019-03-27 12:22:21 ESP12E-S1 9.30 8.06 67.90
5697 2019-03-27 11:54:03 ESP12E-S1 9.00 7.81 71.20
5696 2019-03-27 11:25:46 ESP12E-S1 9.30 8.09 69.10
5695 2019-03-27 10:57:25 ESP12E-S1 8.70 7.45 69.80
5694 2019-03-27 10:29:01 ESP12E-S1 8.30 7.13 74.30
5693 2019-03-27 10:00:38 ESP12E-S1 7.90 6.74 76.40
5692 2019-03-27 09:32:17 ESP12E-S1 7.20 6.10 81.50
5691 2019-03-27 09:04:01 ESP12E-S1 7.40 6.25 78.50
5690 2019-03-27 08:35:33 ESP12E-S1 6.00 4.88 85.30
5689 2019-03-27 08:07:07 ESP12E-S1 4.90 3.81 90.60
5688 2019-03-27 07:38:44 ESP12E-S1 4.00 2.86 91.90
5687 2019-03-27 07:10:23 ESP12E-S1 3.60 2.40 91.20
5686 2019-03-27 06:42:04 ESP12E-S1 3.60 2.40 91.30
5685 2019-03-27 06:13:47 ESP12E-S1 3.80 2.60 90.60
5684 2019-03-27 05:45:28 ESP12E-S1 3.80 2.61 91.10
5683 2019-03-27 05:17:09 ESP12E-S1 3.90 2.71 90.40
5682 2019-03-27 04:48:51 ESP12E-S1 3.90 2.70 90.20
5681 2019-03-27 04:20:33 ESP12E-S1 4.00 2.76 88.30
5680 2019-03-27 03:52:15 ESP12E-S1 4.00 2.71 86.40
5679 2019-03-27 03:23:59 ESP12E-S1 4.30 3.02 85.40
5678 2019-03-27 02:55:45 ESP12E-S1 4.80 3.54 84.40
5677 2019-03-27 02:27:28 ESP12E-S1 5.40 4.17 83.10
5676 2019-03-27 01:59:12 ESP12E-S1 5.80 4.46 77.50
5675 2019-03-27 01:30:55 ESP12E-S1 5.90 4.62 79.60
5674 2019-03-27 01:02:36 ESP12E-S1 6.10 4.83 79.00
5673 2019-03-27 00:34:19 ESP12E-S1 6.00 4.77 80.90
5672 2019-03-27 00:06:01 ESP12E-S1 6.00 4.81 82.40
5671 2019-03-26 23:37:42 ESP12E-S1 6.00 4.82 83.00
5670 2019-03-26 23:09:22 ESP12E-S1 5.80 4.59 82.40
5669 2019-03-26 22:41:04 ESP12E-S1 6.20 5.02 82.00
5668 2019-03-26 22:12:45 ESP12E-S1 6.20 4.99 80.80
5667 2019-03-26 21:44:27 ESP12E-S1 6.20 4.93 78.50
5666 2019-03-26 21:16:08 ESP12E-S1 6.30 5.00 77.20
5665 2019-03-26 20:47:51 ESP12E-S1 6.60 5.27 75.00
5664 2019-03-26 20:19:43 ESP12E-S1 6.80 5.44 72.90
5663 2019-03-26 19:51:27 ESP12E-S1 7.00 5.60 70.80
5662 2019-03-26 19:23:07 ESP12E-S1 7.00 5.58 69.80
5661 2019-03-26 18:54:49 ESP12E-S1 7.30 5.84 67.20
5660 2019-03-26 18:26:34 ESP12E-S1 7.60 6.09 64.00
5659 2019-03-26 17:58:16 ESP12E-S1 7.80 6.25 62.00
5658 2019-03-26 17:30:00 ESP12E-S1 8.20 6.66 60.80
5657 2019-03-26 17:01:45 ESP12E-S1 8.80 7.27 58.70
5656 2019-03-26 16:33:30 ESP12E-S1 9.30 7.75 55.90
5655 2019-03-26 16:05:08 ESP12E-S1 9.50 7.92 54.00
5654 2019-03-26 15:36:49 ESP12E-S1 9.40 7.85 55.60
5653 2019-03-26 15:08:30 ESP12E-S1 9.50 7.88 52.60
5652 2019-03-26 14:39:59 ESP12E-S1 9.10 7.54 56.40
5651 2019-03-26 14:11:38 ESP12E-S1 8.90 7.38 58.80
5650 2019-03-26 13:43:17 ESP12E-S1 8.60 7.13 62.00
5649 2019-03-26 13:14:59 ESP12E-S1 8.70 7.21 60.80
5648 2019-03-26 12:46:38 ESP12E-S1 8.20 6.79 65.80
5647 2019-03-26 12:18:15 ESP12E-S1 7.20 5.87 72.40
5646 2019-03-26 11:49:59 ESP12E-S1 7.20 5.83 71.20
5645 2019-03-26 11:21:31 ESP12E-S1 6.20 4.90 77.50
5644 2019-03-26 10:53:13 ESP12E-S1 6.10 4.76 76.30
5643 2019-03-26 10:24:51 ESP12E-S1 5.80 4.46 77.50
5642 2019-03-26 09:56:34 ESP12E-S1 5.90 4.53 76.10
5641 2019-03-26 09:28:27 ESP12E-S1 6.50 5.11 73.10
5640 2019-03-26 09:00:03 ESP12E-S1 6.50 5.38 83.40
5639 2019-03-26 08:31:39 ESP12E-S1 5.50 4.50 91.80
5638 2019-03-26 08:03:15 ESP12E-S1 4.50 3.47 94.30
5637 2019-03-26 07:34:51 ESP12E-S1 3.70 2.62 95.50
5636 2019-03-26 07:06:30 ESP12E-S1 3.40 2.29 95.40
5635 2019-03-26 06:38:11 ESP12E-S1 3.30 2.16 94.70
5634 2019-03-26 06:09:51 ESP12E-S1 3.20 2.03 94.00
5633 2019-03-26 05:41:32 ESP12E-S1 3.20 1.98 92.10
5632 2019-03-26 02:52:21 ESP12E-S1 3.60 2.45 93.30
5631 2019-03-26 02:24:02 ESP12E-S1 3.60 2.47 94.00
5630 2019-03-26 01:55:44 ESP12E-S1 3.80 2.69 94.10
5629 2019-03-26 01:27:26 ESP12E-S1 4.00 2.91 94.00
5628 2019-03-26 00:59:07 ESP12E-S1 4.10 3.03 94.50
5627 2019-03-26 00:30:48 ESP12E-S1 4.20 3.14 94.50
5626 2019-03-26 00:02:30 ESP12E-S1 4.20 3.15 94.70
5625 2019-03-25 23:34:09 ESP12E-S1 4.10 3.05 95.00
5624 2019-03-25 23:05:49 ESP12E-S1 4.00 2.93 94.90
5623 2019-03-25 22:37:29 ESP12E-S1 3.80 2.71 94.70
5622 2019-03-25 22:09:17 ESP12E-S1 3.90 2.79 93.60
5621 2019-03-25 21:40:57 ESP12E-S1 7.40 6.67 94.60
5620 2019-03-25 21:12:38 ESP12E-S1 4.40 3.33 93.30
5619 2019-03-25 20:44:21 ESP12E-S1 4.70 3.60 91.10
5618 2019-03-25 20:16:01 ESP12E-S1 4.90 3.81 90.70
5617 2019-03-25 19:47:42 ESP12E-S1 4.90 3.83 91.30
5616 2019-03-25 19:19:25 ESP12E-S1 5.10 4.04 91.00
5615 2019-03-25 18:51:17 ESP12E-S1 5.70 4.68 90.30
5614 2019-03-25 18:23:02 ESP12E-S1 6.60 5.65 89.40
5613 2019-03-25 17:54:45 ESP12E-S1 7.10 6.09 85.30
5612 2019-03-25 17:26:29 ESP12E-S1 7.50 6.43 81.40
5611 2019-03-25 16:58:17 ESP12E-S1 8.60 7.42 73.10
5610 2019-03-25 16:30:08 ESP12E-S1 9.90 8.98 78.10
5609 2019-03-25 16:02:06 ESP12E-S1 10.50 9.25 63.10
5608 2019-03-25 15:33:55 ESP12E-S1 10.40 9.42 73.80
5607 2019-03-25 15:05:21 ESP12E-S1 7.70 6.67 82.30
5606 2019-03-25 14:37:00 ESP12E-S1 7.80 7.00 90.40
5605 2019-03-25 14:08:58 ESP12E-S1 7.60 6.29 71.70
5604 2019-03-25 13:40:31 ESP12E-S1 8.50 7.49 80.00
5603 2019-03-25 13:12:14 ESP12E-S1 8.30 7.43 85.80
5602 2019-03-25 12:43:47 ESP12E-S1 6.40 5.45 90.30
5601 2019-03-25 12:15:35 ESP12E-S1 7.50 6.46 82.50
5600 2019-03-25 11:47:07 ESP12E-S1 7.80 6.90 86.70
5599 2019-03-25 11:18:58 ESP12E-S1 7.90 6.64 72.50
5598 2019-03-25 10:50:50 ESP12E-S1 8.90 7.69 70.60
5597 2019-03-25 10:22:20 ESP12E-S1 7.60 6.55 81.80
5596 2019-03-25 09:54:07 ESP12E-S1 6.50 5.49 87.50
5595 2019-03-25 09:25:37 ESP12E-S1 5.50 4.55 93.60
5594 2019-03-25 08:57:10 ESP12E-S1 4.20 3.11 93.20
5593 2019-03-25 08:28:52 ESP12E-S1 4.20 3.06 91.40
5592 2019-03-25 08:00:33 ESP12E-S1 4.30 2.84 78.70
5591 2019-03-25 07:32:15 ESP12E-S1 4.20 2.65 75.70
5590 2019-03-25 07:03:55 ESP12E-S1 4.00 2.40 74.50
5589 2019-03-25 06:35:34 ESP12E-S1 3.90 2.25 72.90
5588 2019-03-25 06:07:24 ESP12E-S1 3.60 1.97 74.70
5587 2019-03-25 05:39:00 ESP12E-S1 3.50 1.86 74.80
5586 2019-03-25 05:10:42 ESP12E-S1 3.70 1.99 71.30
5585 2019-03-25 04:42:32 ESP12E-S1 3.50 1.74 70.10
5584 2019-03-25 04:14:11 ESP12E-S1 3.70 1.89 67.70
5583 2019-03-25 03:45:54 ESP12E-S1 4.10 2.30 66.30
5582 2019-03-25 03:17:38 ESP12E-S1 4.30 2.47 64.40
5581 2019-03-25 02:49:21 ESP12E-S1 4.70 2.83 61.30
5580 2019-03-25 02:21:03 ESP12E-S1 5.00 3.11 59.70
5579 2019-03-25 01:52:44 ESP12E-S1 5.20 3.28 57.60
5578 2019-03-25 01:24:28 ESP12E-S1 5.50 3.57 56.00
5577 2019-03-25 00:56:12 ESP12E-S1 5.80 3.87 55.00
5576 2019-03-25 00:27:53 ESP12E-S1 6.00 4.08 54.40
5575 2019-03-24 23:59:34 ESP12E-S1 6.30 4.39 53.60
5574 2019-03-24 23:31:17 ESP12E-S1 6.30 4.40 54.20
5573 2019-03-24 23:02:59 ESP12E-S1 6.70 4.87 55.40
5572 2019-03-24 22:34:42 ESP12E-S1 6.90 5.12 56.50
5571 2019-03-24 22:06:26 ESP12E-S1 7.50 5.74 55.00
5570 2019-03-24 21:38:10 ESP12E-S1 7.80 6.07 55.10
5569 2019-03-24 21:09:52 ESP12E-S1 8.30 6.68 57.20
5568 2019-03-24 20:41:35 ESP12E-S1 8.70 7.16 58.60
5567 2019-03-24 20:13:18 ESP12E-S1 9.20 7.78 61.40
5566 2019-03-24 19:45:01 ESP12E-S1 9.70 8.38 63.20
5565 2019-03-24 19:16:44 ESP12E-S1 10.20 8.96 64.40
5564 2019-03-24 18:48:36 ESP12E-S1 10.90 9.73 64.60
5563 2019-03-24 18:20:20 ESP12E-S1 11.50 10.38 64.00
5562 2019-03-24 17:52:02 ESP12E-S1 12.00 10.89 62.60
5561 2019-03-24 17:23:46 ESP12E-S1 12.40 11.26 60.00
5560 2019-03-24 16:55:31 ESP12E-S1 12.90 11.79 59.20
5559 2019-03-24 16:27:19 ESP12E-S1 13.80 12.69 55.70
5558 2019-03-24 15:59:07 ESP12E-S1 15.40 14.37 52.60
5557 2019-03-24 15:30:52 ESP12E-S1 16.40 15.46 52.30
5556 2019-03-24 15:02:27 ESP12E-S1 15.30 14.32 55.00
5555 2019-03-24 14:34:05 ESP12E-S1 15.00 14.00 55.40
5554 2019-03-24 14:05:41 ESP12E-S1 14.50 13.51 57.80
5553 2019-03-24 13:37:22 ESP12E-S1 13.90 12.91 60.00
5552 2019-03-24 13:09:06 ESP12E-S1 13.90 12.87 58.30
5551 2019-03-24 12:40:56 ESP12E-S1 14.80 13.95 61.80
5550 2019-03-24 12:12:40 ESP12E-S1 14.30 13.40 61.90
5549 2019-03-24 11:44:08 ESP12E-S1 12.40 11.52 70.00
5548 2019-03-24 11:15:44 ESP12E-S1 11.90 11.03 72.20
5547 2019-03-24 10:47:22 ESP12E-S1 11.10 10.22 74.90
5546 2019-03-24 10:19:07 ESP12E-S1 10.50 9.62 77.20
5545 2019-03-24 09:50:39 ESP12E-S1 9.50 8.63 81.20
5544 2019-03-24 09:22:30 ESP12E-S1 8.60 7.74 85.10
5543 2019-03-24 08:54:03 ESP12E-S1 8.10 7.24 87.30
5542 2019-03-24 08:25:45 ESP12E-S1 7.90 7.06 88.50
5541 2019-03-24 07:57:26 ESP12E-S1 7.80 6.88 86.00
5540 2019-03-24 07:29:05 ESP12E-S1 7.30 6.43 89.90
5539 2019-03-24 07:00:57 ESP12E-S1 6.90 5.98 89.30
5538 2019-03-24 06:32:33 ESP12E-S1 6.70 5.69 86.90
5537 2019-03-24 06:04:14 ESP12E-S1 6.80 5.73 84.00
5536 2019-03-24 05:35:56 ESP12E-S1 6.70 5.56 81.90
5535 2019-03-24 05:07:38 ESP12E-S1 7.00 5.81 78.80
5534 2019-03-24 04:39:22 ESP12E-S1 7.20 6.04 78.90
5533 2019-03-24 04:11:04 ESP12E-S1 7.40 6.22 77.70
5532 2019-03-24 03:42:49 ESP12E-S1 7.90 6.71 75.40
5531 2019-03-24 03:14:33 ESP12E-S1 8.30 7.12 74.20
5530 2019-03-24 02:46:15 ESP12E-S1 8.30 7.11 73.80
5529 2019-03-24 02:17:56 ESP12E-S1 8.60 7.40 72.20
5528 2019-03-24 01:49:40 ESP12E-S1 8.70 7.53 73.10
5527 2019-03-24 01:21:22 ESP12E-S1 8.90 7.71 71.40
5526 2019-03-24 00:53:04 ESP12E-S1 9.20 8.00 69.90
5525 2019-03-24 00:24:46 ESP12E-S1 9.30 8.07 68.20
5524 2019-03-23 23:56:28 ESP12E-S1 9.50 8.27 67.70
5523 2019-03-23 23:28:12 ESP12E-S1 9.80 8.52 64.60
5522 2019-03-23 22:59:54 ESP12E-S1 9.80 8.48 63.10
5521 2019-03-23 22:31:36 ESP12E-S1 9.90 8.56 61.80
5520 2019-03-23 22:03:19 ESP12E-S1 10.10 8.72 59.40
5519 2019-03-23 21:35:02 ESP12E-S1 10.30 8.92 58.80
5518 2019-03-23 21:06:46 ESP12E-S1 10.50 9.12 57.90
5517 2019-03-23 20:38:29 ESP12E-S1 10.80 9.46 58.50
5516 2019-03-23 20:10:12 ESP12E-S1 11.20 9.87 57.20
5515 2019-03-23 19:42:00 ESP12E-S1 11.40 10.05 55.80
5514 2019-03-23 19:13:41 ESP12E-S1 11.90 10.63 56.90
5513 2019-03-23 18:45:26 ESP12E-S1 12.20 10.91 55.00
5512 2019-03-23 18:17:11 ESP12E-S1 12.50 11.22 54.30
5511 2019-03-23 17:48:59 ESP12E-S1 13.50 12.27 52.40
5510 2019-03-23 17:20:55 ESP12E-S1 14.90 13.76 50.20
5509 2019-03-23 16:52:49 ESP12E-S1 16.70 15.67 47.60
5508 2019-03-23 16:24:43 ESP12E-S1 17.80 16.82 45.30
5507 2019-03-23 15:56:20 ESP12E-S1 19.30 18.47 45.40
5506 2019-03-23 15:28:15 ESP12E-S1 19.60 18.79 45.10
5505 2019-03-23 14:59:38 ESP12E-S1 19.50 18.69 45.50
5504 2019-03-23 14:31:16 ESP12E-S1 19.60 18.81 45.90
5503 2019-03-23 14:02:09 ESP12E-S1 18.80 17.96 46.80
5502 2019-03-23 13:34:16 ESP12E-S1 18.90 18.07 46.90
5501 2019-03-23 13:05:38 ESP12E-S1 18.60 17.74 46.80
5500 2019-03-23 12:37:31 ESP12E-S1 19.50 18.72 46.40
5499 2019-03-23 12:09:15 ESP12E-S1 20.10 19.39 47.00
5498 2019-03-23 11:40:30 ESP12E-S1 17.70 16.82 49.40
5497 2019-03-23 11:12:09 ESP12E-S1 16.30 15.30 50.20
5496 2019-03-23 10:43:49 ESP12E-S1 16.10 15.10 51.00
5495 2019-03-23 10:15:17 ESP12E-S1 14.60 13.48 52.40
5494 2019-03-23 09:46:45 ESP12E-S1 12.80 11.58 55.50
5493 2019-03-23 09:18:18 ESP12E-S1 11.30 9.99 57.80
5492 2019-03-23 08:49:54 ESP12E-S1 10.00 8.65 61.10
5491 2019-03-23 08:21:30 ESP12E-S1 9.10 7.80 66.40
5490 2019-03-23 07:53:08 ESP12E-S1 8.20 6.81 66.60
5489 2019-03-23 07:24:45 ESP12E-S1 7.50 5.99 64.60
5488 2019-03-23 06:56:25 ESP12E-S1 7.20 5.65 64.30
5487 2019-03-23 06:28:08 ESP12E-S1 7.40 5.81 61.80
5486 2019-03-23 05:59:50 ESP12E-S1 7.70 6.08 59.60
5485 2019-03-23 05:31:33 ESP12E-S1 7.80 6.14 57.80
5484 2019-03-23 05:03:15 ESP12E-S1 7.80 6.11 56.50
5483 2019-03-23 04:35:07 ESP12E-S1 8.00 6.33 56.50
5482 2019-03-23 04:06:46 ESP12E-S1 8.20 6.54 55.90
5481 2019-03-23 03:38:29 ESP12E-S1 8.40 6.76 56.00
5480 2019-03-23 03:10:13 ESP12E-S1 8.70 7.07 55.50
5479 2019-03-23 02:41:57 ESP12E-S1 9.10 7.50 55.00
5478 2019-03-23 02:13:41 ESP12E-S1 9.30 7.72 54.80
5477 2019-03-23 01:45:25 ESP12E-S1 9.60 8.05 55.00
5476 2019-03-23 01:17:08 ESP12E-S1 9.80 8.25 54.20
5475 2019-03-23 00:48:50 ESP12E-S1 10.20 8.64 52.40
5474 2019-03-23 00:20:33 ESP12E-S1 10.50 8.95 51.60
5473 2019-03-22 23:52:16 ESP12E-S1 10.80 9.27 51.20
5472 2019-03-22 23:23:59 ESP12E-S1 11.00 9.48 50.60
5471 2019-03-22 22:55:43 ESP12E-S1 11.30 9.79 50.10
5470 2019-03-22 22:27:27 ESP12E-S1 11.50 10.02 50.20
5469 2019-03-22 21:59:12 ESP12E-S1 11.90 10.42 49.00
5468 2019-03-22 21:30:56 ESP12E-S1 12.40 10.94 47.80
5467 2019-03-22 21:02:41 ESP12E-S1 12.80 11.35 46.70
5466 2019-03-22 20:34:26 ESP12E-S1 13.60 12.23 46.40
5465 2019-03-22 20:06:11 ESP12E-S1 14.10 12.75 45.30
5464 2019-03-22 19:37:57 ESP12E-S1 15.00 13.70 43.70
5463 2019-03-22 19:09:45 ESP12E-S1 16.00 14.74 41.60
5462 2019-03-22 18:41:34 ESP12E-S1 17.20 16.01 39.70
5461 2019-03-22 18:13:23 ESP12E-S1 19.20 18.18 38.30
5460 2019-03-22 17:45:12 ESP12E-S1 19.50 18.40 34.40
5459 2019-03-22 17:17:08 ESP12E-S1 21.30 20.39 34.50
5458 2019-03-22 16:49:03 ESP12E-S1 23.40 22.64 32.20
5457 2019-03-22 16:21:24 ESP12E-S1 24.20 23.51 32.00
5456 2019-03-22 15:52:23 ESP12E-S1 23.60 22.97 36.60
5455 2019-03-22 15:24:05 ESP12E-S1 22.90 22.17 35.30
5454 2019-03-22 14:55:37 ESP12E-S1 21.20 20.24 33.10
5453 2019-03-22 14:27:11 ESP12E-S1 20.40 19.40 34.80
5452 2019-03-22 13:58:43 ESP12E-S1 19.40 18.34 36.20
5451 2019-03-22 13:30:19 ESP12E-S1 18.60 17.52 38.40
5450 2019-03-22 13:02:04 ESP12E-S1 18.70 17.66 39.60
5449 2019-03-22 12:33:50 ESP12E-S1 18.80 17.75 38.90
5448 2019-03-22 12:05:28 ESP12E-S1 18.40 17.31 38.90
5447 2019-03-22 11:36:51 ESP12E-S1 17.00 15.84 41.60
5446 2019-03-22 11:08:32 ESP12E-S1 16.60 15.39 41.10
5445 2019-03-22 10:40:18 ESP12E-S1 16.60 15.43 42.50
5444 2019-03-22 10:11:47 ESP12E-S1 15.40 14.19 45.90
5443 2019-03-22 09:43:13 ESP12E-S1 13.20 11.84 48.30
5442 2019-03-22 09:14:48 ESP12E-S1 11.90 10.52 52.60
5441 2019-03-22 08:46:23 ESP12E-S1 10.80 9.34 53.90
5440 2019-03-22 08:17:57 ESP12E-S1 9.60 8.12 57.70
5439 2019-03-22 07:49:34 ESP12E-S1 8.80 7.29 59.60
5438 2019-03-22 07:21:11 ESP12E-S1 8.10 6.60 62.70
5437 2019-03-22 06:52:54 ESP12E-S1 7.90 6.42 64.00
5436 2019-03-22 06:24:41 ESP12E-S1 7.90 6.45 65.30
5435 2019-03-22 05:56:31 ESP12E-S1 7.90 6.46 65.70
5434 2019-03-22 05:28:16 ESP12E-S1 7.90 6.44 64.90
5433 2019-03-22 04:59:56 ESP12E-S1 8.00 6.51 63.20
5432 2019-03-22 04:31:37 ESP12E-S1 8.00 6.46 61.50
5431 2019-03-22 04:03:30 ESP12E-S1 8.10 6.55 60.70
5430 2019-03-22 03:35:11 ESP12E-S1 8.30 6.75 59.80
5429 2019-03-22 03:06:54 ESP12E-S1 8.40 6.83 58.80
5428 2019-03-22 02:38:36 ESP12E-S1 8.50 6.91 57.70
5427 2019-03-22 02:10:18 ESP12E-S1 8.60 6.98 56.10
5426 2019-03-22 01:42:03 ESP12E-S1 8.80 7.16 54.50
5425 2019-03-22 01:13:47 ESP12E-S1 8.90 7.25 53.80
5424 2019-03-22 00:45:30 ESP12E-S1 9.00 7.36 53.60
5423 2019-03-22 00:17:14 ESP12E-S1 9.30 7.70 54.20
5422 2019-03-21 23:48:57 ESP12E-S1 9.60 8.04 54.40
5421 2019-03-21 23:20:41 ESP12E-S1 9.80 8.26 54.70
5420 2019-03-21 22:52:24 ESP12E-S1 10.00 8.45 53.30
5419 2019-03-21 22:24:17 ESP12E-S1 10.30 8.75 52.30
5418 2019-03-21 21:56:03 ESP12E-S1 10.40 8.84 51.60
5417 2019-03-21 21:27:43 ESP12E-S1 10.50 8.95 51.40
5416 2019-03-21 20:59:27 ESP12E-S1 10.90 9.38 51.20
5415 2019-03-21 20:31:23 ESP12E-S1 11.40 9.90 49.90
5414 2019-03-21 20:03:17 ESP12E-S1 11.80 10.30 48.30
5413 2019-03-21 19:35:03 ESP12E-S1 12.70 11.24 46.40
5412 2019-03-21 19:06:52 ESP12E-S1 13.60 12.17 44.30
5411 2019-03-21 18:38:39 ESP12E-S1 14.90 13.47 39.10
5410 2019-03-21 18:10:26 ESP12E-S1 16.10 14.73 37.00
5409 2019-03-21 17:42:16 ESP12E-S1 17.50 16.22 35.00
5408 2019-03-21 17:14:14 ESP12E-S1 19.50 18.35 32.50
5407 2019-03-21 16:46:09 ESP12E-S1 21.60 20.64 31.40
5406 2019-03-21 16:18:07 ESP12E-S1 22.50 21.63 31.70
5405 2019-03-21 15:49:06 ESP12E-S1 21.40 20.48 33.90
5404 2019-03-21 15:20:49 ESP12E-S1 21.20 20.16 30.00
5403 2019-03-21 14:52:24 ESP12E-S1 20.00 18.96 34.60
5402 2019-03-21 14:23:56 ESP12E-S1 19.40 18.33 35.90
5401 2019-03-21 13:55:29 ESP12E-S1 18.50 17.36 36.50
5400 2019-03-21 13:27:12 ESP12E-S1 18.30 17.10 35.20
5399 2019-03-21 12:58:56 ESP12E-S1 18.30 17.13 36.30
5398 2019-03-21 12:31:04 ESP12E-S1 19.50 18.51 38.30
5397 2019-03-21 12:02:24 ESP12E-S1 17.80 16.65 38.80
5396 2019-03-21 11:33:37 ESP12E-S1 15.20 13.86 41.50
5395 2019-03-21 11:05:23 ESP12E-S1 14.50 13.08 41.30
5394 2019-03-21 10:37:00 ESP12E-S1 13.80 12.30 40.80
5393 2019-03-21 10:08:21 ESP12E-S1 11.80 10.30 48.30
5392 2019-03-21 09:39:48 ESP12E-S1 9.40 7.73 51.00
5391 2019-03-21 09:11:23 ESP12E-S1 8.00 6.33 56.60
5390 2019-03-21 08:42:57 ESP12E-S1 6.50 4.86 63.30
5389 2019-03-21 08:14:29 ESP12E-S1 5.20 3.59 69.50
5388 2019-03-21 07:46:05 ESP12E-S1 4.20 2.64 75.40
5387 2019-03-21 07:17:44 ESP12E-S1 3.70 2.04 73.40
5386 2019-03-21 06:49:45 ESP12E-S1 3.60 1.92 73.10
5385 2019-03-21 06:21:30 ESP12E-S1 3.80 2.14 72.80
5384 2019-03-21 05:53:10 ESP12E-S1 3.80 2.14 72.90
5383 2019-03-21 05:25:00 ESP12E-S1 4.10 2.42 70.90
5382 2019-03-21 04:56:43 ESP12E-S1 4.30 2.61 70.00
5381 2019-03-21 04:28:26 ESP12E-S1 4.60 2.90 68.50
5380 2019-03-21 04:00:11 ESP12E-S1 4.80 3.07 66.40
5379 2019-03-21 03:32:03 ESP12E-S1 5.40 3.70 65.40
5378 2019-03-21 03:03:52 ESP12E-S1 5.40 3.68 64.60
5377 2019-03-21 02:35:33 ESP12E-S1 5.60 3.87 63.20
5376 2019-03-21 02:07:25 ESP12E-S1 5.70 3.97 62.90
5375 2019-03-21 01:39:15 ESP12E-S1 5.90 4.19 63.10
5374 2019-03-21 01:11:04 ESP12E-S1 6.10 4.41 62.80
5373 2019-03-21 00:42:45 ESP12E-S1 6.30 4.60 61.90
5372 2019-03-21 00:14:27 ESP12E-S1 6.40 4.69 61.20
5371 2019-03-20 23:46:11 ESP12E-S1 6.60 4.90 60.60
5370 2019-03-20 23:17:54 ESP12E-S1 6.80 5.09 59.60
5369 2019-03-20 22:49:38 ESP12E-S1 7.00 5.29 58.70
5368 2019-03-20 22:21:23 ESP12E-S1 7.20 5.52 59.00
5367 2019-03-20 21:53:06 ESP12E-S1 7.60 5.95 58.90
5366 2019-03-20 21:24:50 ESP12E-S1 7.90 6.28 58.80
5365 2019-03-20 20:56:33 ESP12E-S1 8.20 6.61 58.90
5364 2019-03-20 20:28:16 ESP12E-S1 8.50 6.93 58.30
5363 2019-03-20 20:00:04 ESP12E-S1 9.00 7.41 55.60
5362 2019-03-20 19:31:47 ESP12E-S1 9.70 8.14 54.30
5361 2019-03-20 19:03:34 ESP12E-S1 10.60 9.03 50.50
5360 2019-03-20 18:35:24 ESP12E-S1 11.90 10.37 46.90
5359 2019-03-20 18:07:10 ESP12E-S1 12.80 11.22 41.70
5358 2019-03-20 17:39:00 ESP12E-S1 13.90 12.42 41.30
5357 2019-03-20 17:10:56 ESP12E-S1 15.90 14.57 39.10
5356 2019-03-20 16:42:49 ESP12E-S1 17.50 16.32 38.70
5355 2019-03-20 16:14:41 ESP12E-S1 18.00 16.87 39.00
5354 2019-03-20 15:45:41 ESP12E-S1 16.70 15.49 40.90
5353 2019-03-20 15:17:24 ESP12E-S1 16.50 15.26 40.20
5352 2019-03-20 14:49:04 ESP12E-S1 15.40 14.11 42.60
5351 2019-03-20 14:20:38 ESP12E-S1 15.00 13.65 41.80
5350 2019-03-20 13:52:17 ESP12E-S1 14.50 13.11 42.30
5349 2019-03-20 13:24:02 ESP12E-S1 14.60 13.23 42.70
5348 2019-03-20 12:55:47 ESP12E-S1 14.50 13.13 42.90
5347 2019-03-20 12:27:48 ESP12E-S1 15.70 14.47 43.80
5346 2019-03-20 11:59:09 ESP12E-S1 14.10 12.87 49.90
5345 2019-03-20 11:30:29 ESP12E-S1 11.40 10.02 54.60
5344 2019-03-20 11:02:19 ESP12E-S1 11.50 10.13 54.70
5343 2019-03-20 10:33:57 ESP12E-S1 10.80 9.41 56.50
5342 2019-03-20 10:05:19 ESP12E-S1 8.90 7.38 58.80
5341 2019-03-20 09:36:48 ESP12E-S1 6.40 4.95 71.10
5340 2019-03-20 09:08:21 ESP12E-S1 5.10 3.65 76.00
5339 2019-03-20 08:39:55 ESP12E-S1 3.90 2.53 83.70
5338 2019-03-20 08:11:30 ESP12E-S1 2.70 1.34 88.70
5337 2019-03-20 07:43:08 ESP12E-S1 2.10 0.66 87.70
5336 2019-03-20 07:14:50 ESP12E-S1 1.60 0.03 85.00
5335 2019-03-20 06:46:32 ESP12E-S1 1.60 0.03 85.00
5334 2019-03-20 06:18:14 ESP12E-S1 1.70 0.10 83.10
5333 2019-03-20 05:49:56 ESP12E-S1 1.90 0.28 81.70
5332 2019-03-20 05:21:39 ESP12E-S1 2.20 0.56 79.70
5331 2019-03-20 04:53:23 ESP12E-S1 1.50 -0.25 78.20
5330 2019-03-20 04:25:06 ESP12E-S1 2.60 0.95 78.10
5329 2019-03-20 03:56:48 ESP12E-S1 2.70 1.05 77.50
5328 2019-03-20 03:28:28 ESP12E-S1 2.80 1.15 77.00
5327 2019-03-20 03:00:11 ESP12E-S1 2.90 1.25 76.90
5326 2019-03-20 02:31:53 ESP12E-S1 3.10 1.46 76.20
5325 2019-03-20 02:03:35 ESP12E-S1 3.20 1.55 75.80
5324 2019-03-20 01:35:16 ESP12E-S1 3.30 1.68 76.40
5323 2019-03-20 01:06:59 ESP12E-S1 3.40 1.80 76.70
5322 2019-03-20 00:38:42 ESP12E-S1 3.70 2.05 73.70
5321 2019-03-20 00:10:27 ESP12E-S1 4.10 2.45 72.20
5320 2019-03-19 23:42:20 ESP12E-S1 4.60 2.93 69.40
5319 2019-03-19 23:14:00 ESP12E-S1 6.80 5.34 69.20
5318 2019-03-19 22:45:43 ESP12E-S1 5.00 3.27 65.60
5317 2019-03-19 22:17:25 ESP12E-S1 5.10 3.34 64.00
5316 2019-03-19 21:49:09 ESP12E-S1 5.40 3.64 63.00
5315 2019-03-19 21:20:53 ESP12E-S1 5.60 3.82 61.30
5314 2019-03-19 20:52:38 ESP12E-S1 5.90 4.13 60.50
5313 2019-03-19 20:24:20 ESP12E-S1 6.20 4.42 59.20
5312 2019-03-19 19:56:05 ESP12E-S1 6.70 4.93 57.80
5311 2019-03-19 19:27:48 ESP12E-S1 7.20 5.45 56.50
5310 2019-03-19 18:31:31 ESP12E-S1 9.20 7.45 48.80
5309 2019-03-19 18:03:17 ESP12E-S1 10.10 8.34 44.80
5308 2019-03-19 17:35:05 ESP12E-S1 11.10 9.37 42.40
5307 2019-03-19 17:07:04 ESP12E-S1 13.10 11.55 41.40
5306 2019-03-19 16:38:59 ESP12E-S1 14.70 13.22 38.00
5305 2019-03-19 16:10:58 ESP12E-S1 15.90 14.60 40.40
5304 2019-03-19 15:42:03 ESP12E-S1 14.40 13.02 43.00
5303 2019-03-19 15:13:36 ESP12E-S1 14.00 12.61 44.10
5302 2019-03-19 14:45:23 ESP12E-S1 13.00 11.48 43.00
5301 2019-03-19 14:16:52 ESP12E-S1 12.30 10.70 42.50
5300 2019-03-19 13:48:32 ESP12E-S1 11.90 10.27 43.10
5299 2019-03-19 13:20:15 ESP12E-S1 11.80 10.16 43.20
5298 2019-03-19 12:52:00 ESP12E-S1 12.00 10.50 47.50
5297 2019-03-19 12:23:54 ESP12E-S1 12.20 10.81 51.30
5296 2019-03-19 11:54:49 ESP12E-S1 8.00 6.40 59.10
5295 2019-03-19 11:26:20 ESP12E-S1 7.20 5.59 61.90
5294 2019-03-19 10:58:13 ESP12E-S1 7.20 5.54 60.00
5293 2019-03-19 10:29:53 ESP12E-S1 7.60 6.25 70.10
5292 2019-03-19 10:01:32 ESP12E-S1 6.50 4.94 66.30
5291 2019-03-19 09:33:09 ESP12E-S1 5.10 3.57 72.90
5290 2019-03-19 09:04:43 ESP12E-S1 4.40 3.08 83.80
5289 2019-03-19 08:36:18 ESP12E-S1 3.30 2.10 92.30
5288 2019-03-19 08:07:54 ESP12E-S1 2.30 1.03 93.80
5287 2019-03-19 07:39:31 ESP12E-S1 1.70 0.39 94.20
5286 2019-03-19 07:11:12 ESP12E-S1 1.50 0.16 94.10
5285 2019-03-19 06:42:53 ESP12E-S1 1.50 0.17 94.30
5284 2019-03-19 06:14:36 ESP12E-S1 1.60 0.25 93.40
5283 2019-03-19 05:46:19 ESP12E-S1 1.70 0.37 93.50
5282 2019-03-19 05:18:00 ESP12E-S1 1.70 0.39 94.30
5281 2019-03-19 04:49:43 ESP12E-S1 1.70 0.39 94.50
5280 2019-03-19 04:21:24 ESP12E-S1 1.50 0.17 94.40
5279 2019-03-19 03:53:06 ESP12E-S1 1.80 0.50 94.20
5278 2019-03-19 03:24:47 ESP12E-S1 1.90 0.61 94.20
5277 2019-03-19 02:56:30 ESP12E-S1 2.00 0.70 93.60
5276 2019-03-19 02:28:13 ESP12E-S1 2.20 0.92 93.60
5275 2019-03-19 01:59:56 ESP12E-S1 2.40 1.14 93.80
5274 2019-03-19 01:31:38 ESP12E-S1 2.50 1.26 94.00
5273 2019-03-19 01:03:20 ESP12E-S1 2.60 1.37 93.90
5272 2019-03-19 00:35:01 ESP12E-S1 2.70 1.47 93.50
5271 2019-03-19 00:06:43 ESP12E-S1 2.70 1.46 93.30
5270 2019-03-18 23:38:27 ESP12E-S1 3.00 1.77 92.40
5269 2019-03-18 23:10:11 ESP12E-S1 3.30 2.07 91.50
5268 2019-03-18 22:41:55 ESP12E-S1 3.50 2.28 91.10
5267 2019-03-18 22:13:39 ESP12E-S1 3.60 2.40 91.20
5266 2019-03-18 21:45:22 ESP12E-S1 4.00 2.81 90.30
5265 2019-03-18 21:17:07 ESP12E-S1 4.40 3.22 89.10
5264 2019-03-18 20:48:50 ESP12E-S1 4.80 3.61 87.10
5263 2019-03-18 20:20:33 ESP12E-S1 5.30 4.08 83.90
5262 2019-03-18 19:52:17 ESP12E-S1 5.50 4.26 82.40
5261 2019-03-18 19:24:01 ESP12E-S1 5.90 4.63 79.70
5260 2019-03-18 18:55:46 ESP12E-S1 6.50 5.27 79.10
5259 2019-03-18 18:27:30 ESP12E-S1 7.10 5.80 74.00
5258 2019-03-18 17:59:14 ESP12E-S1 7.60 6.27 71.20
5257 2019-03-18 17:31:00 ESP12E-S1 8.00 6.56 65.20
5256 2019-03-18 17:02:47 ESP12E-S1 8.70 7.36 66.40
5255 2019-03-18 16:34:51 ESP12E-S1 10.80 9.63 64.90
5254 2019-03-18 16:06:59 ESP12E-S1 13.30 12.19 57.80
5253 2019-03-18 15:37:55 ESP12E-S1 10.90 9.79 66.70
5252 2019-03-18 15:09:28 ESP12E-S1 10.10 9.27 80.50
5251 2019-03-18 14:40:56 ESP12E-S1 7.00 6.17 92.30
5250 2019-03-18 14:12:48 ESP12E-S1 8.30 7.40 84.90
5249 2019-03-18 13:44:26 ESP12E-S1 8.60 7.86 89.60
5248 2019-03-18 13:16:18 ESP12E-S1 9.40 8.53 81.60
5247 2019-03-18 12:47:56 ESP12E-S1 7.60 6.91 95.40
5246 2019-03-18 12:19:15 ESP12E-S1 5.90 5.00 94.10
5245 2019-03-18 11:51:06 ESP12E-S1 7.60 6.56 82.20
5244 2019-03-18 11:22:40 ESP12E-S1 6.10 5.17 92.00
5243 2019-03-18 10:26:06 ESP12E-S1 5.00 4.09 97.10
5242 2019-03-18 09:57:42 ESP12E-S1 4.50 3.58 98.60
5241 2019-03-18 09:29:20 ESP12E-S1 3.90 2.95 99.90
5240 2019-03-18 09:00:58 ESP12E-S1 3.10 2.07 99.90
5239 2019-03-18 08:32:39 ESP12E-S1 2.70 1.63 99.90
5238 2019-03-18 08:04:19 ESP12E-S1 2.60 1.52 99.90
5237 2019-03-18 07:36:00 ESP12E-S1 2.30 1.19 99.90
5236 2019-03-18 07:07:41 ESP12E-S1 2.20 1.08 99.90
5235 2019-03-18 06:39:26 ESP12E-S1 2.10 0.97 99.90
5234 2019-03-18 06:11:06 ESP12E-S1 2.10 0.97 99.90
5233 2019-03-18 05:42:47 ESP12E-S1 3.20 2.18 99.90
5232 2019-03-18 05:14:28 ESP12E-S1 1.80 0.64 99.90
5231 2019-03-18 04:46:09 ESP12E-S1 1.70 0.53 99.90
5230 2019-03-18 04:17:52 ESP12E-S1 1.80 0.64 99.90
5229 2019-03-18 03:49:34 ESP12E-S1 1.70 0.53 99.90
5228 2019-03-18 03:21:21 ESP12E-S1 1.70 0.53 99.90
5227 2019-03-18 02:53:02 ESP12E-S1 1.80 0.64 99.90
5226 2019-03-18 02:24:47 ESP12E-S1 2.00 0.86 99.90
5225 2019-03-18 01:56:29 ESP12E-S1 2.20 1.08 99.90
5224 2019-03-18 01:28:11 ESP12E-S1 2.30 1.19 99.90
5223 2019-03-18 00:59:53 ESP12E-S1 2.20 1.08 99.90
5222 2019-03-18 00:31:37 ESP12E-S1 2.30 1.19 99.90
5221 2019-03-18 00:03:18 ESP12E-S1 2.50 1.41 99.90
5220 2019-03-17 23:35:01 ESP12E-S1 2.70 1.63 99.90
5219 2019-03-17 23:06:45 ESP12E-S1 2.90 1.84 99.30
5218 2019-03-17 22:38:27 ESP12E-S1 3.00 1.96 99.90
5217 2019-03-17 22:10:12 ESP12E-S1 3.40 2.38 99.10
5216 2019-03-17 21:41:58 ESP12E-S1 3.90 2.89 97.60
5215 2019-03-17 21:13:44 ESP12E-S1 4.40 3.41 96.30
5214 2019-03-17 20:45:28 ESP12E-S1 5.20 4.13 90.20
5213 2019-03-17 20:17:18 ESP12E-S1 5.40 4.34 89.90
5212 2019-03-17 19:49:00 ESP12E-S1 5.70 4.62 87.90
5211 2019-03-17 19:20:43 ESP12E-S1 6.00 4.98 89.00
5210 2019-03-17 18:52:25 ESP12E-S1 6.30 5.28 88.00
5209 2019-03-17 18:24:09 ESP12E-S1 6.50 5.57 90.40
5208 2019-03-17 17:55:53 ESP12E-S1 7.00 6.01 86.20
5207 2019-03-17 17:27:41 ESP12E-S1 7.90 7.12 91.00
5206 2019-03-17 16:59:27 ESP12E-S1 8.60 7.92 92.00
5205 2019-03-17 16:31:28 ESP12E-S1 10.10 9.48 88.50
5204 2019-03-17 16:02:43 ESP12E-S1 8.00 7.31 93.90
5203 2019-03-17 15:34:27 ESP12E-S1 8.60 8.00 95.20
5202 2019-03-17 15:06:03 ESP12E-S1 7.40 6.74 97.30
5201 2019-03-17 14:37:43 ESP12E-S1 6.90 6.22 98.70
5200 2019-03-17 14:09:23 ESP12E-S1 6.50 5.77 98.10
5199 2019-03-17 13:41:05 ESP12E-S1 6.20 5.45 98.70
5198 2019-03-17 13:12:46 ESP12E-S1 6.20 5.48 99.90
5197 2019-03-17 12:44:28 ESP12E-S1 6.20 5.48 99.90
5196 2019-03-17 12:16:16 ESP12E-S1 7.20 6.58 99.90
5195 2019-03-17 11:47:58 ESP12E-S1 7.40 6.80 99.90
5194 2019-03-17 11:19:38 ESP12E-S1 7.10 6.47 99.90
5193 2019-03-17 10:51:18 ESP12E-S1 7.10 6.47 99.90
5192 2019-03-17 10:23:00 ESP12E-S1 7.00 6.36 99.90
5191 2019-03-17 09:54:41 ESP12E-S1 7.10 6.47 99.90
5190 2019-03-17 09:26:24 ESP12E-S1 7.10 6.47 99.90
5189 2019-03-17 08:58:08 ESP12E-S1 7.50 6.91 99.90
5188 2019-03-17 08:29:49 ESP12E-S1 7.50 6.89 98.90
5187 2019-03-17 08:01:27 ESP12E-S1 6.80 6.14 99.90
5186 2019-03-17 07:33:07 ESP12E-S1 6.40 5.70 99.90
5185 2019-03-17 07:04:47 ESP12E-S1 6.20 5.48 99.90
5184 2019-03-17 06:07:28 ESP12E-S1 5.60 4.82 99.90
5183 2019-03-17 05:39:11 ESP12E-S1 5.70 4.93 99.90
5182 2019-03-17 05:10:56 ESP12E-S1 5.90 5.15 99.90
5181 2019-03-17 04:42:38 ESP12E-S1 6.00 5.26 99.90
5180 2019-03-17 04:14:21 ESP12E-S1 6.10 5.37 99.90
5179 2019-03-17 03:46:04 ESP12E-S1 6.30 5.59 99.90
5178 2019-03-17 03:17:47 ESP12E-S1 6.40 5.70 99.90
5177 2019-03-17 02:49:29 ESP12E-S1 6.60 5.92 99.90
5176 2019-03-17 02:21:11 ESP12E-S1 5.60 4.82 99.90
5175 2019-03-17 01:52:52 ESP12E-S1 6.70 6.03 99.90
5174 2019-03-17 01:24:34 ESP12E-S1 6.60 5.92 99.90
5173 2019-03-17 00:56:18 ESP12E-S1 6.70 6.03 99.90
5172 2019-03-17 00:28:01 ESP12E-S1 6.90 6.25 99.90
5171 2019-03-16 23:59:43 ESP12E-S1 6.80 6.14 99.80
5170 2019-03-16 23:31:25 ESP12E-S1 6.80 6.12 98.90
5169 2019-03-16 23:03:06 ESP12E-S1 6.90 6.21 98.20
5168 2019-03-16 22:34:50 ESP12E-S1 7.10 6.41 97.30
5167 2019-03-16 22:06:33 ESP12E-S1 7.30 6.60 96.30
5166 2019-03-16 21:38:23 ESP12E-S1 7.60 6.92 95.80
5165 2019-03-16 21:10:05 ESP12E-S1 7.90 7.23 95.10
5164 2019-03-16 20:41:54 ESP12E-S1 8.10 7.43 94.50
5163 2019-03-16 20:13:34 ESP12E-S1 8.40 7.75 94.00
5162 2019-03-16 19:45:17 ESP12E-S1 8.40 7.73 93.10
5161 2019-03-16 19:17:00 ESP12E-S1 8.60 7.94 92.70
5160 2019-03-16 18:48:42 ESP12E-S1 8.60 7.93 92.60
5159 2019-03-16 18:20:24 ESP12E-S1 8.70 8.05 92.70
5158 2019-03-16 17:52:08 ESP12E-S1 8.80 8.18 93.80
5157 2019-03-16 17:23:51 ESP12E-S1 9.10 8.50 93.30
5156 2019-03-16 16:55:34 ESP12E-S1 9.20 8.64 94.40
5155 2019-03-16 16:27:14 ESP12E-S1 9.00 8.47 96.30
5154 2019-03-16 15:58:55 ESP12E-S1 8.60 8.10 98.80
5153 2019-03-16 15:30:40 ESP12E-S1 8.70 8.19 98.30
5152 2019-03-16 15:02:22 ESP12E-S1 8.80 8.34 99.90
5151 2019-03-16 14:34:08 ESP12E-S1 9.30 8.86 98.70
5150 2019-03-16 14:05:50 ESP12E-S1 9.40 9.00 99.90
5149 2019-03-16 13:37:31 ESP12E-S1 9.40 9.00 99.90
5148 2019-03-16 13:09:13 ESP12E-S1 9.10 8.67 99.90
5147 2019-03-16 12:40:53 ESP12E-S1 8.80 8.34 99.90
5146 2019-03-16 12:12:35 ESP12E-S1 8.70 8.23 99.90
5145 2019-03-16 11:44:18 ESP12E-S1 9.00 8.56 99.90
5144 2019-03-16 11:15:59 ESP12E-S1 9.00 8.56 99.90
5143 2019-03-16 10:47:40 ESP12E-S1 8.90 8.45 99.90
5142 2019-03-16 10:19:22 ESP12E-S1 8.80 8.34 99.90
5141 2019-03-16 09:51:04 ESP12E-S1 8.80 8.34 99.90
5140 2019-03-16 09:22:46 ESP12E-S1 8.80 8.34 99.90
5139 2019-03-16 08:54:26 ESP12E-S1 8.70 8.23 99.90
5138 2019-03-16 08:26:06 ESP12E-S1 8.50 8.01 99.90
5137 2019-03-16 07:57:48 ESP12E-S1 8.00 7.46 99.90
5136 2019-03-16 07:29:26 ESP12E-S1 7.50 6.91 99.90
5135 2019-03-16 07:01:07 ESP12E-S1 7.30 6.69 99.90
5134 2019-03-16 06:32:49 ESP12E-S1 7.10 6.47 99.90
5133 2019-03-16 06:04:31 ESP12E-S1 6.60 5.92 99.90
5132 2019-03-16 05:36:14 ESP12E-S1 7.10 6.47 99.90
5131 2019-03-16 05:07:56 ESP12E-S1 7.10 6.47 99.90
5130 2019-03-16 04:39:41 ESP12E-S1 7.20 6.58 99.90
5129 2019-03-16 04:11:23 ESP12E-S1 7.40 6.80 99.90
5128 2019-03-16 03:43:07 ESP12E-S1 7.60 7.02 99.90
5127 2019-03-16 03:14:50 ESP12E-S1 7.80 7.24 99.90
5126 2019-03-16 02:46:33 ESP12E-S1 7.90 7.35 99.90
5125 2019-03-16 02:18:16 ESP12E-S1 8.10 7.57 99.90
5124 2019-03-16 01:50:00 ESP12E-S1 8.50 8.01 99.90
5123 2019-03-16 01:21:47 ESP12E-S1 9.40 9.00 99.90
5122 2019-03-16 00:53:28 ESP12E-S1 9.50 9.11 99.90
5121 2019-03-16 00:25:10 ESP12E-S1 9.20 8.78 99.90
5120 2019-03-15 23:56:53 ESP12E-S1 9.40 9.00 99.90
5119 2019-03-15 23:28:37 ESP12E-S1 9.80 9.44 99.90
5118 2019-03-15 23:00:20 ESP12E-S1 10.40 10.10 99.90
5117 2019-03-15 22:32:06 ESP12E-S1 10.50 10.21 99.90
5116 2019-03-15 22:03:49 ESP12E-S1 10.30 9.99 99.90
5115 2019-03-15 21:35:33 ESP12E-S1 10.40 10.10 99.90
5114 2019-03-15 21:07:13 ESP12E-S1 10.40 10.10 99.90
5113 2019-03-15 20:38:55 ESP12E-S1 10.40 10.10 99.90
5112 2019-03-15 20:10:54 ESP12E-S1 10.50 10.21 99.90
5111 2019-03-15 19:42:31 ESP12E-S1 10.60 10.32 99.90
5110 2019-03-15 19:14:22 ESP12E-S1 10.70 10.43 99.90
5109 2019-03-15 18:46:25 ESP12E-S1 10.60 10.32 99.90
5108 2019-03-15 18:13:08 ESP12E-S1 11.00 10.74 98.80
5107 2019-03-15 17:45:26 ESP12E-S1 11.30 11.02 97.20
5106 2019-03-15 17:17:22 ESP12E-S1 11.60 11.35 96.90
5105 2019-03-15 16:48:46 ESP12E-S1 11.80 11.54 96.00
5104 2019-03-15 16:19:26 ESP12E-S1 12.10 11.86 95.70
5103 2019-03-15 15:51:19 ESP12E-S1 13.20 13.04 94.20
5102 2019-03-15 15:22:51 ESP12E-S1 12.20 12.04 98.40
5101 2019-03-15 14:54:29 ESP12E-S1 11.50 11.31 99.90
5100 2019-03-15 14:26:09 ESP12E-S1 11.30 11.09 99.90
5099 2019-03-15 13:57:47 ESP12E-S1 10.60 10.32 99.90
5098 2019-03-15 13:29:22 ESP12E-S1 9.80 9.44 99.90
5097 2019-03-15 13:00:57 ESP12E-S1 8.50 8.01 99.90
5096 2019-03-15 12:32:36 ESP12E-S1 8.00 7.46 99.90
5095 2019-03-15 12:04:16 ESP12E-S1 7.30 6.69 99.90
5094 2019-03-15 11:35:54 ESP12E-S1 6.70 6.03 99.90
5093 2019-03-15 11:07:34 ESP12E-S1 6.40 5.70 99.90
5092 2019-03-15 10:39:21 ESP12E-S1 6.20 5.48 99.90
5091 2019-03-15 10:10:59 ESP12E-S1 6.00 5.26 99.90
5090 2019-03-15 09:42:41 ESP12E-S1 5.70 4.93 99.90
5089 2019-03-15 09:14:23 ESP12E-S1 5.50 4.71 99.90
5088 2019-03-15 08:46:06 ESP12E-S1 5.30 4.49 99.90
5087 2019-03-15 08:17:48 ESP12E-S1 5.20 4.38 99.90
5086 2019-03-15 07:49:30 ESP12E-S1 5.10 4.27 99.90
5085 2019-03-15 07:21:13 ESP12E-S1 5.10 4.27 99.90
5084 2019-03-15 06:52:56 ESP12E-S1 4.90 4.05 99.90
5083 2019-03-15 06:24:38 ESP12E-S1 4.80 3.94 99.90
5082 2019-03-15 05:56:20 ESP12E-S1 4.80 3.94 99.90
5081 2019-03-15 05:28:03 ESP12E-S1 4.80 3.94 99.90
5080 2019-03-15 04:59:44 ESP12E-S1 4.80 3.94 99.90
5079 2019-03-15 04:31:27 ESP12E-S1 4.90 4.05 99.90
5078 2019-03-15 04:03:09 ESP12E-S1 4.90 4.05 99.90
5077 2019-03-15 03:34:51 ESP12E-S1 4.90 4.05 99.90
5076 2019-03-15 03:06:34 ESP12E-S1 4.90 4.05 99.90
5075 2019-03-15 02:38:17 ESP12E-S1 4.90 4.05 99.90
5074 2019-03-15 02:10:01 ESP12E-S1 5.10 4.27 99.90
5073 2019-03-15 01:41:42 ESP12E-S1 5.20 4.38 99.90
5072 2019-03-15 01:13:23 ESP12E-S1 5.20 4.38 99.90
5071 2019-03-15 00:45:05 ESP12E-S1 5.00 4.16 99.90
5070 2019-03-15 00:16:48 ESP12E-S1 5.10 4.27 99.90
5069 2019-03-14 23:48:36 ESP12E-S1 5.10 4.27 99.90
5068 2019-03-14 23:20:18 ESP12E-S1 5.20 4.38 99.90
5067 2019-03-14 22:52:05 ESP12E-S1 5.50 4.71 99.90
5066 2019-03-14 22:23:46 ESP12E-S1 5.50 4.71 99.90
5065 2019-03-14 21:55:28 ESP12E-S1 5.50 4.71 99.90
5064 2019-03-14 21:27:12 ESP12E-S1 5.50 4.71 99.90
5063 2019-03-14 20:58:54 ESP12E-S1 5.50 4.71 99.90
5062 2019-03-14 20:30:38 ESP12E-S1 5.50 4.71 99.90
5061 2019-03-14 20:02:21 ESP12E-S1 5.70 4.93 99.90
5060 2019-03-14 19:34:05 ESP12E-S1 5.80 5.04 99.90
5059 2019-03-14 19:05:47 ESP12E-S1 6.00 5.26 99.90
5058 2019-03-14 18:37:28 ESP12E-S1 5.90 5.15 99.90
5057 2019-03-14 18:09:10 ESP12E-S1 6.30 5.59 99.90
5056 2019-03-14 17:40:51 ESP12E-S1 5.80 5.04 99.90
5055 2019-03-14 17:12:32 ESP12E-S1 5.70 4.93 99.90
5054 2019-03-14 16:44:13 ESP12E-S1 5.40 4.60 99.90
5053 2019-03-14 16:15:52 ESP12E-S1 5.10 4.27 99.90
5052 2019-03-14 15:47:35 ESP12E-S1 4.90 4.05 99.90
5051 2019-03-14 15:19:17 ESP12E-S1 4.80 3.94 99.90
5050 2019-03-14 14:50:58 ESP12E-S1 4.70 3.83 99.90
5049 2019-03-14 14:22:41 ESP12E-S1 4.60 3.72 99.90
5048 2019-03-14 13:54:22 ESP12E-S1 4.40 3.50 99.90
5047 2019-03-14 13:26:04 ESP12E-S1 4.30 3.39 99.90
5046 2019-03-14 12:57:45 ESP12E-S1 4.30 3.39 99.90
5045 2019-03-14 12:29:27 ESP12E-S1 4.30 3.39 99.90
5044 2019-03-14 12:01:08 ESP12E-S1 4.10 3.17 99.90
5043 2019-03-14 11:32:50 ESP12E-S1 4.20 3.28 99.90
5042 2019-03-14 11:04:33 ESP12E-S1 4.20 3.28 99.90
5041 2019-03-14 10:36:15 ESP12E-S1 4.20 3.28 99.90
5040 2019-03-14 10:08:00 ESP12E-S1 4.30 3.39 99.90
5039 2019-03-14 09:39:42 ESP12E-S1 4.40 3.50 99.90
5038 2019-03-14 09:11:25 ESP12E-S1 4.40 3.50 99.90
5037 2019-03-14 08:43:07 ESP12E-S1 4.40 3.50 99.90
5036 2019-03-14 08:14:50 ESP12E-S1 4.10 3.17 99.90
5035 2019-03-14 07:46:31 ESP12E-S1 4.00 3.06 99.90
5034 2019-03-14 07:18:13 ESP12E-S1 3.40 2.40 99.90
5033 2019-03-14 06:49:55 ESP12E-S1 3.80 2.84 99.90
5032 2019-03-14 06:21:37 ESP12E-S1 3.70 2.73 99.90
5031 2019-03-14 05:53:29 ESP12E-S1 3.70 2.73 99.90
5030 2019-03-14 05:25:08 ESP12E-S1 3.60 2.62 99.90
5029 2019-03-14 04:56:52 ESP12E-S1 3.60 2.62 99.90
5028 2019-03-14 04:28:41 ESP12E-S1 3.60 2.61 99.40
5027 2019-03-14 04:00:22 ESP12E-S1 3.60 2.59 98.70
5026 2019-03-14 03:32:06 ESP12E-S1 3.70 2.70 98.60
5025 2019-03-14 03:03:49 ESP12E-S1 3.60 2.59 98.70
5024 2019-03-14 02:35:32 ESP12E-S1 3.50 2.46 98.00
5023 2019-03-14 02:07:16 ESP12E-S1 3.40 2.35 97.90
5022 2019-03-14 01:38:58 ESP12E-S1 3.40 2.35 97.90
5021 2019-03-14 01:10:40 ESP12E-S1 3.30 2.23 97.60
5020 2019-03-14 00:42:26 ESP12E-S1 3.30 2.22 97.20
5019 2019-03-14 00:14:09 ESP12E-S1 3.40 2.34 97.50
5018 2019-03-13 23:45:56 ESP12E-S1 3.50 2.46 98.00
5017 2019-03-13 23:17:38 ESP12E-S1 3.50 2.46 98.00
5016 2019-03-13 22:49:21 ESP12E-S1 3.70 2.69 98.20
5015 2019-03-13 22:21:03 ESP12E-S1 3.70 2.70 98.60
5014 2019-03-13 21:52:47 ESP12E-S1 3.90 2.88 97.20
5013 2019-03-13 21:24:28 ESP12E-S1 3.90 2.90 97.70
5012 2019-03-13 20:56:12 ESP12E-S1 4.00 2.99 97.00
5011 2019-03-13 20:27:55 ESP12E-S1 4.20 3.20 96.50
5010 2019-03-13 19:59:39 ESP12E-S1 4.50 3.51 95.90
5009 2019-03-13 19:31:26 ESP12E-S1 4.90 3.96 96.40
5008 2019-03-13 19:03:09 ESP12E-S1 5.20 4.30 96.50
5007 2019-03-13 18:34:54 ESP12E-S1 5.30 4.39 95.80
5006 2019-03-13 18:06:37 ESP12E-S1 5.60 4.69 94.70
5005 2019-03-13 17:38:26 ESP12E-S1 5.70 4.75 92.90
5004 2019-03-13 17:10:09 ESP12E-S1 6.00 5.02 90.40
5003 2019-03-13 16:41:54 ESP12E-S1 6.20 5.12 86.00
5002 2019-03-13 16:13:39 ESP12E-S1 6.40 5.17 79.60
5001 2019-03-13 15:45:22 ESP12E-S1 6.30 5.08 80.10
5000 2019-03-13 15:17:07 ESP12E-S1 6.60 5.32 76.70
4999 2019-03-13 14:48:51 ESP12E-S1 6.80 5.38 70.70
4998 2019-03-13 14:20:35 ESP12E-S1 7.10 5.69 70.00
4997 2019-03-13 13:52:26 ESP12E-S1 6.80 5.36 69.80
4996 2019-03-13 13:24:12 ESP12E-S1 7.50 5.99 64.60
4995 2019-03-13 12:55:56 ESP12E-S1 8.10 6.66 64.80
4994 2019-03-13 12:27:32 ESP12E-S1 6.60 5.14 69.80
4993 2019-03-13 11:59:13 ESP12E-S1 6.30 4.91 73.80
4992 2019-03-13 11:30:49 ESP12E-S1 5.50 4.12 77.20
4991 2019-03-13 11:02:28 ESP12E-S1 5.00 3.57 77.10
4990 2019-03-13 10:34:09 ESP12E-S1 4.90 3.58 81.90
4989 2019-03-13 10:05:54 ESP12E-S1 4.80 3.58 85.90
4988 2019-03-13 09:37:40 ESP12E-S1 5.20 3.89 80.90
4987 2019-03-13 09:09:23 ESP12E-S1 5.20 3.81 78.10
4986 2019-03-13 08:41:03 ESP12E-S1 4.60 3.30 83.80
4985 2019-03-13 08:12:46 ESP12E-S1 4.40 3.05 82.50
4984 2019-03-13 07:44:27 ESP12E-S1 4.20 2.91 85.40
4983 2019-03-13 07:16:10 ESP12E-S1 4.00 2.72 86.60
4982 2019-03-13 06:47:51 ESP12E-S1 4.00 2.61 82.60
4981 2019-03-13 06:19:35 ESP12E-S1 3.90 2.46 81.10
4980 2019-03-13 05:51:20 ESP12E-S1 4.00 2.49 78.00
4979 2019-03-13 05:23:05 ESP12E-S1 4.20 2.65 75.70
4978 2019-03-13 04:54:49 ESP12E-S1 4.40 2.81 73.40
4977 2019-03-13 04:26:34 ESP12E-S1 4.40 2.77 71.70
4976 2019-03-13 03:58:16 ESP12E-S1 4.50 2.87 71.40
4975 2019-03-13 03:30:00 ESP12E-S1 4.50 2.92 73.50
4974 2019-03-13 03:01:43 ESP12E-S1 4.60 3.03 73.40
4973 2019-03-13 02:33:33 ESP12E-S1 5.00 3.50 74.30
4972 2019-03-13 02:05:18 ESP12E-S1 5.20 3.76 75.90
4971 2019-03-13 01:37:03 ESP12E-S1 5.50 4.20 80.40
4970 2019-03-13 01:08:48 ESP12E-S1 6.00 4.78 81.30
4969 2019-03-13 00:40:39 ESP12E-S1 7.10 5.88 77.00
4968 2019-03-13 00:12:21 ESP12E-S1 7.60 5.86 55.40
4967 2019-03-12 23:44:06 ESP12E-S1 7.60 5.68 48.60
4966 2019-03-12 23:15:50 ESP12E-S1 7.70 5.77 47.50
4965 2019-03-12 22:47:34 ESP12E-S1 7.80 5.86 47.00
4964 2019-03-12 22:19:18 ESP12E-S1 7.70 5.66 43.40
4963 2019-03-12 21:51:00 ESP12E-S1 7.70 5.66 43.30
4962 2019-03-12 21:22:43 ESP12E-S1 7.60 5.55 43.30
4961 2019-03-12 20:54:26 ESP12E-S1 7.50 5.45 44.00
4960 2019-03-12 20:26:09 ESP12E-S1 7.50 5.42 42.50
4959 2019-03-12 19:57:51 ESP12E-S1 7.50 5.38 41.00
4958 2019-03-12 19:29:34 ESP12E-S1 7.50 5.38 41.30
4957 2019-03-12 19:01:17 ESP12E-S1 7.60 5.49 41.10
4956 2019-03-12 18:33:00 ESP12E-S1 7.70 5.65 43.10
4955 2019-03-12 18:04:44 ESP12E-S1 8.20 6.26 45.30
4954 2019-03-12 17:36:30 ESP12E-S1 8.60 6.69 45.00
4953 2019-03-12 17:08:27 ESP12E-S1 9.60 7.73 42.60
4952 2019-03-12 16:40:24 ESP12E-S1 11.60 9.91 41.80
4951 2019-03-12 16:11:59 ESP12E-S1 10.30 8.49 42.20
4950 2019-03-12 15:43:50 ESP12E-S1 11.50 9.91 46.00
4949 2019-03-12 15:15:25 ESP12E-S1 9.90 8.18 47.20
4948 2019-03-12 14:47:06 ESP12E-S1 10.10 8.43 48.50
4947 2019-03-12 14:18:44 ESP12E-S1 10.10 8.38 46.60
4946 2019-03-12 13:50:24 ESP12E-S1 9.20 7.41 47.30
4945 2019-03-12 13:22:07 ESP12E-S1 9.10 7.33 48.50
4944 2019-03-12 12:53:53 ESP12E-S1 9.60 7.93 50.30
4943 2019-03-12 12:25:35 ESP12E-S1 9.20 7.48 50.10
4942 2019-03-12 11:57:21 ESP12E-S1 10.00 8.43 52.60
4941 2019-03-12 11:28:50 ESP12E-S1 8.20 6.62 59.00
4940 2019-03-12 11:00:26 ESP12E-S1 7.40 5.86 63.70
4939 2019-03-12 10:32:05 ESP12E-S1 6.80 5.30 67.60
4938 2019-03-12 10:03:53 ESP12E-S1 6.20 4.68 69.00
4937 2019-03-12 09:35:24 ESP12E-S1 5.10 3.67 76.90
4936 2019-03-12 09:06:59 ESP12E-S1 3.80 2.39 82.40
4935 2019-03-12 08:38:39 ESP12E-S1 3.30 1.88 83.90
4934 2019-03-12 08:10:17 ESP12E-S1 2.40 0.91 84.80
4933 2019-03-12 07:41:57 ESP12E-S1 2.20 0.68 84.60
4932 2019-03-12 07:13:40 ESP12E-S1 2.00 0.48 85.30
4931 2019-03-12 06:45:24 ESP12E-S1 2.10 0.56 84.10
4930 2019-03-12 06:17:07 ESP12E-S1 2.10 0.57 84.50
4929 2019-03-12 05:48:53 ESP12E-S1 2.20 0.68 84.50
4928 2019-03-12 05:20:36 ESP12E-S1 2.50 0.97 82.80
4927 2019-03-12 04:52:20 ESP12E-S1 2.60 1.09 83.30
4926 2019-03-12 04:24:04 ESP12E-S1 2.70 1.19 82.90
4925 2019-03-12 03:55:48 ESP12E-S1 2.90 1.37 81.40
4924 2019-03-12 03:27:32 ESP12E-S1 3.00 1.47 80.90
4923 2019-03-12 02:59:23 ESP12E-S1 3.10 1.59 81.30
4922 2019-03-12 02:31:04 ESP12E-S1 3.30 1.79 80.70
4921 2019-03-12 02:02:55 ESP12E-S1 3.20 1.69 81.10
4920 2019-03-12 01:34:35 ESP12E-S1 3.20 1.68 80.70
4919 2019-03-12 01:06:19 ESP12E-S1 3.20 1.71 81.80
4918 2019-03-12 00:38:04 ESP12E-S1 3.40 1.86 79.00
4917 2019-03-12 00:09:48 ESP12E-S1 3.60 2.03 77.10
4916 2019-03-11 23:41:31 ESP12E-S1 3.70 2.16 78.10
4915 2019-03-11 23:13:15 ESP12E-S1 3.80 2.25 77.20
4914 2019-03-11 22:45:00 ESP12E-S1 4.00 2.47 77.20
4913 2019-03-11 22:16:42 ESP12E-S1 4.00 2.43 75.60
4912 2019-03-11 21:48:27 ESP12E-S1 4.10 2.54 75.80
4911 2019-03-11 21:20:11 ESP12E-S1 4.20 2.52 70.80
4910 2019-03-11 20:51:55 ESP12E-S1 4.30 2.63 70.70
4909 2019-03-11 20:23:40 ESP12E-S1 4.40 2.77 71.80
4908 2019-03-11 19:55:25 ESP12E-S1 4.60 2.88 67.60
4907 2019-03-11 19:27:07 ESP12E-S1 4.70 2.97 66.80
4906 2019-03-11 18:58:53 ESP12E-S1 4.80 3.03 64.80
4905 2019-03-11 18:30:38 ESP12E-S1 4.90 3.16 65.60
4904 2019-03-11 18:02:25 ESP12E-S1 5.40 3.76 67.50
4903 2019-03-11 17:34:12 ESP12E-S1 5.90 4.32 68.00
4902 2019-03-11 17:06:04 ESP12E-S1 7.00 5.59 70.30
4901 2019-03-11 16:38:26 ESP12E-S1 11.40 10.04 55.20
4900 2019-03-11 16:09:25 ESP12E-S1 8.70 7.27 63.00
4899 2019-03-11 15:41:23 ESP12E-S1 13.00 11.60 47.50
4898 2019-03-11 15:13:12 ESP12E-S1 10.80 9.08 43.70
4897 2019-03-11 14:44:34 ESP12E-S1 10.60 8.98 48.40
4896 2019-03-11 14:16:21 ESP12E-S1 11.70 10.12 45.60
4895 2019-03-11 13:47:46 ESP12E-S1 10.00 8.44 53.20
4894 2019-03-11 13:19:45 ESP12E-S1 11.00 9.41 48.20
4893 2019-03-11 12:51:08 ESP12E-S1 10.20 8.82 59.30
4892 2019-03-11 12:23:10 ESP12E-S1 10.50 9.29 64.50
4891 2019-03-11 11:54:15 ESP12E-S1 7.30 6.09 76.80
4890 2019-03-11 11:25:44 ESP12E-S1 5.60 4.45 85.70
4889 2019-03-11 10:57:30 ESP12E-S1 4.80 3.63 87.80
4888 2019-03-11 10:29:00 ESP12E-S1 3.10 1.87 91.90
4887 2019-03-11 10:00:49 ESP12E-S1 4.10 2.68 80.80
4886 2019-03-11 09:32:23 ESP12E-S1 3.50 2.05 82.00
4885 2019-03-11 09:04:01 ESP12E-S1 2.80 1.40 86.80
4884 2019-03-11 08:35:39 ESP12E-S1 2.10 0.74 91.00
4883 2019-03-11 08:07:17 ESP12E-S1 1.40 0.04 93.50
4882 2019-03-11 07:39:01 ESP12E-S1 1.30 -0.07 93.80
4881 2019-03-11 07:10:46 ESP12E-S1 1.40 0.08 95.30
4880 2019-03-11 06:42:30 ESP12E-S1 1.70 0.34 92.30
4879 2019-03-11 06:14:15 ESP12E-S1 2.10 0.80 93.20
4878 2019-03-11 05:46:01 ESP12E-S1 2.50 1.22 92.50
4877 2019-03-11 05:17:44 ESP12E-S1 2.50 1.23 92.80
4876 2019-03-11 04:49:31 ESP12E-S1 2.70 1.42 91.80
4875 2019-03-11 04:21:22 ESP12E-S1 3.50 2.21 88.30
4874 2019-03-11 03:53:04 ESP12E-S1 3.30 1.97 87.60
4873 2019-03-11 03:24:48 ESP12E-S1 3.30 1.93 86.00
4872 2019-03-11 02:56:34 ESP12E-S1 3.40 2.01 85.00
4871 2019-03-11 02:28:16 ESP12E-S1 3.30 1.82 81.90
4870 2019-03-11 01:59:59 ESP12E-S1 3.20 1.80 85.10
4869 2019-03-11 01:31:43 ESP12E-S1 3.20 1.83 86.40
4868 2019-03-11 01:03:28 ESP12E-S1 3.40 2.09 88.00
4867 2019-03-11 00:35:11 ESP12E-S1 3.50 2.26 90.20
4866 2019-03-11 00:06:54 ESP12E-S1 3.50 2.27 90.50
4865 2019-03-10 23:38:37 ESP12E-S1 3.50 2.23 89.10
4864 2019-03-10 23:10:27 ESP12E-S1 4.20 2.83 82.50
4863 2019-03-10 22:42:11 ESP12E-S1 4.80 3.17 70.30
4862 2019-03-10 22:13:56 ESP12E-S1 5.00 3.39 70.30
4861 2019-03-10 21:45:44 ESP12E-S1 5.30 3.70 69.30
4860 2019-03-10 21:17:29 ESP12E-S1 5.80 4.18 67.00
4859 2019-03-10 20:49:21 ESP12E-S1 6.10 4.62 71.20
4858 2019-03-10 20:21:04 ESP12E-S1 6.30 4.91 73.60
4857 2019-03-10 19:52:49 ESP12E-S1 6.40 5.19 80.30
4856 2019-03-10 19:24:35 ESP12E-S1 6.90 5.80 82.70
4855 2019-03-10 18:56:28 ESP12E-S1 8.30 7.09 73.10
4854 2019-03-10 18:28:17 ESP12E-S1 9.50 8.13 62.40
4853 2019-03-10 18:00:05 ESP12E-S1 10.30 8.59 46.00
4852 2019-03-10 17:31:59 ESP12E-S1 10.80 9.06 42.90
4851 2019-03-10 17:03:47 ESP12E-S1 11.90 10.27 43.00
4850 2019-03-10 16:35:49 ESP12E-S1 14.10 12.62 40.30
4849 2019-03-10 16:07:31 ESP12E-S1 16.70 15.47 40.00
4848 2019-03-10 15:39:08 ESP12E-S1 15.50 14.38 48.80
4847 2019-03-10 15:10:46 ESP12E-S1 13.30 12.09 53.80
4846 2019-03-10 14:42:28 ESP12E-S1 13.40 12.57 68.00
4845 2019-03-10 14:14:11 ESP12E-S1 13.00 12.17 69.40
4844 2019-03-10 13:46:05 ESP12E-S1 13.70 13.08 74.80
4843 2019-03-10 13:17:41 ESP12E-S1 13.30 13.10 92.40
4842 2019-03-10 12:49:23 ESP12E-S1 11.90 11.59 93.70
4841 2019-03-10 12:21:04 ESP12E-S1 10.90 10.64 99.50
4840 2019-03-10 11:52:40 ESP12E-S1 10.60 10.32 99.90
4839 2019-03-10 11:24:17 ESP12E-S1 9.60 9.22 99.90
4838 2019-03-10 10:55:59 ESP12E-S1 9.10 8.67 99.90
4837 2019-03-10 10:27:35 ESP12E-S1 8.40 7.90 99.90
4836 2019-03-10 09:59:15 ESP12E-S1 7.90 7.35 99.90
4835 2019-03-10 09:30:56 ESP12E-S1 7.60 7.02 99.90
4834 2019-03-10 09:02:50 ESP12E-S1 7.40 6.80 99.90
4833 2019-03-10 08:34:30 ESP12E-S1 7.20 6.58 99.90
4832 2019-03-10 08:06:13 ESP12E-S1 7.10 6.47 99.90
4831 2019-03-10 07:37:56 ESP12E-S1 7.00 6.36 99.90
4830 2019-03-10 07:09:38 ESP12E-S1 6.90 6.25 99.90
4829 2019-03-10 06:41:21 ESP12E-S1 6.90 6.25 99.70
4828 2019-03-10 06:13:04 ESP12E-S1 6.90 6.23 99.10
4827 2019-03-10 05:44:49 ESP12E-S1 7.00 6.32 98.20
4826 2019-03-10 05:16:33 ESP12E-S1 7.10 6.37 96.00
4825 2019-03-10 04:48:17 ESP12E-S1 7.30 6.47 91.50
4824 2019-03-10 04:20:01 ESP12E-S1 7.30 6.43 89.90
4823 2019-03-10 03:51:44 ESP12E-S1 7.40 6.51 88.80
4822 2019-03-10 03:23:28 ESP12E-S1 7.40 6.47 87.20
4821 2019-03-10 02:55:11 ESP12E-S1 7.40 6.44 85.90
4820 2019-03-10 02:26:52 ESP12E-S1 7.20 6.32 89.80
4819 2019-03-10 01:58:33 ESP12E-S1 7.10 6.23 90.70
4818 2019-03-10 01:30:18 ESP12E-S1 7.20 6.34 90.60
4817 2019-03-10 01:02:00 ESP12E-S1 7.30 6.46 91.10
4816 2019-03-10 00:33:43 ESP12E-S1 7.30 6.50 92.40
4815 2019-03-10 00:05:24 ESP12E-S1 7.20 6.45 94.80
4814 2019-03-09 23:37:06 ESP12E-S1 7.10 6.44 98.60
4813 2019-03-09 23:08:48 ESP12E-S1 7.20 6.54 98.30
4812 2019-03-09 22:40:31 ESP12E-S1 7.20 6.53 97.80
4811 2019-03-09 22:12:14 ESP12E-S1 7.30 6.61 96.80
4810 2019-03-09 21:43:59 ESP12E-S1 7.40 6.70 95.80
4809 2019-03-09 21:15:43 ESP12E-S1 7.50 6.78 94.80
4808 2019-03-09 20:47:28 ESP12E-S1 7.70 6.95 92.90
4807 2019-03-09 20:19:15 ESP12E-S1 7.90 7.14 91.80
4806 2019-03-09 19:51:03 ESP12E-S1 8.50 7.77 90.50
4805 2019-03-09 19:22:54 ESP12E-S1 10.00 8.90 70.70
4804 2019-03-09 18:54:37 ESP12E-S1 10.10 8.82 63.40
4803 2019-03-09 18:26:23 ESP12E-S1 10.20 8.91 62.70
4802 2019-03-09 17:58:15 ESP12E-S1 10.60 9.34 62.30
4801 2019-03-09 17:29:57 ESP12E-S1 10.80 9.62 64.70
4800 2019-03-09 17:01:46 ESP12E-S1 10.40 9.46 75.40
4799 2019-03-09 16:33:25 ESP12E-S1 10.10 9.52 90.10
4798 2019-03-09 16:05:12 ESP12E-S1 10.70 10.11 87.50
4797 2019-03-09 15:37:09 ESP12E-S1 11.00 10.40 86.10
4796 2019-03-09 15:08:55 ESP12E-S1 12.10 11.40 78.10
4795 2019-03-09 14:40:22 ESP12E-S1 11.30 10.67 83.80
4794 2019-03-09 14:11:55 ESP12E-S1 11.10 10.33 79.00
4793 2019-03-09 13:43:33 ESP12E-S1 10.10 9.30 81.80
4792 2019-03-09 13:15:19 ESP12E-S1 10.30 9.47 80.00
4791 2019-03-09 12:47:02 ESP12E-S1 10.50 9.68 79.60
4790 2019-03-09 12:18:42 ESP12E-S1 10.30 9.46 79.40
4789 2019-03-09 11:50:22 ESP12E-S1 9.80 8.93 80.10
4788 2019-03-09 11:22:04 ESP12E-S1 9.60 8.76 82.00
4787 2019-03-09 10:53:45 ESP12E-S1 9.30 8.58 87.80
4786 2019-03-09 10:25:26 ESP12E-S1 8.80 8.14 92.10
4785 2019-03-09 09:57:11 ESP12E-S1 8.90 8.23 91.50
4784 2019-03-09 09:28:58 ESP12E-S1 9.50 8.87 90.70
4783 2019-03-09 09:00:34 ESP12E-S1 8.70 8.08 93.90
4782 2019-03-09 08:32:08 ESP12E-S1 7.30 6.62 97.20
4781 2019-03-09 08:03:46 ESP12E-S1 6.40 5.66 98.20
4780 2019-03-09 07:35:28 ESP12E-S1 6.20 5.44 98.30
4779 2019-03-09 07:07:15 ESP12E-S1 6.10 5.32 98.00
4778 2019-03-09 06:38:58 ESP12E-S1 6.10 5.32 97.70
4777 2019-03-09 06:10:41 ESP12E-S1 6.00 5.18 96.50
4776 2019-03-09 05:42:27 ESP12E-S1 6.20 5.36 95.20
4775 2019-03-09 05:14:10 ESP12E-S1 6.40 5.52 93.00
4774 2019-03-09 04:45:54 ESP12E-S1 6.60 5.67 90.10
4773 2019-03-09 04:17:37 ESP12E-S1 6.80 5.74 84.50
4772 2019-03-09 03:49:20 ESP12E-S1 6.70 5.49 79.00
4771 2019-03-09 03:21:02 ESP12E-S1 6.70 5.43 76.70
4770 2019-03-09 02:52:44 ESP12E-S1 6.60 5.33 77.10
4769 2019-03-09 02:24:26 ESP12E-S1 6.30 5.02 77.90
4768 2019-03-09 01:56:09 ESP12E-S1 6.20 4.95 79.40
4767 2019-03-09 01:27:52 ESP12E-S1 6.10 4.87 80.60
4766 2019-03-09 00:59:35 ESP12E-S1 6.10 4.82 78.80
4765 2019-03-09 00:31:18 ESP12E-S1 6.10 4.85 79.90
4764 2019-03-09 00:03:02 ESP12E-S1 6.30 5.05 79.20
4763 2019-03-08 23:34:46 ESP12E-S1 6.50 5.23 77.70
4762 2019-03-08 23:06:30 ESP12E-S1 6.60 5.32 76.70
4761 2019-03-08 22:38:14 ESP12E-S1 6.90 5.65 76.60
4760 2019-03-08 22:09:58 ESP12E-S1 7.00 5.74 76.00
4759 2019-03-08 21:41:43 ESP12E-S1 7.20 5.91 74.10
4758 2019-03-08 21:13:26 ESP12E-S1 7.40 6.08 72.10
4757 2019-03-08 20:45:10 ESP12E-S1 7.50 6.12 69.60
4756 2019-03-08 20:16:53 ESP12E-S1 7.60 6.24 69.70
4755 2019-03-08 19:48:37 ESP12E-S1 7.60 6.24 70.00
4754 2019-03-08 19:20:22 ESP12E-S1 7.90 6.55 69.30
4753 2019-03-08 18:52:06 ESP12E-S1 8.10 6.76 68.80
4752 2019-03-08 18:23:51 ESP12E-S1 8.40 7.04 66.80
4751 2019-03-08 17:55:36 ESP12E-S1 8.80 7.44 65.40
4750 2019-03-08 17:27:24 ESP12E-S1 9.40 8.04 63.10
4749 2019-03-08 16:59:10 ESP12E-S1 9.90 8.56 61.90
4748 2019-03-08 16:30:44 ESP12E-S1 9.90 8.47 58.20
4747 2019-03-08 16:02:28 ESP12E-S1 10.30 8.81 54.70
4746 2019-03-08 15:34:16 ESP12E-S1 11.10 9.60 51.20
4745 2019-03-08 15:06:02 ESP12E-S1 11.90 10.50 52.00
4744 2019-03-08 14:37:34 ESP12E-S1 12.10 10.78 54.10
4743 2019-03-08 14:09:12 ESP12E-S1 11.80 10.57 58.80
4742 2019-03-08 13:40:47 ESP12E-S1 9.50 8.17 63.60
4741 2019-03-08 13:12:36 ESP12E-S1 10.40 9.23 66.50
4740 2019-03-08 12:44:03 ESP12E-S1 9.90 8.90 74.70
4739 2019-03-08 12:15:39 ESP12E-S1 8.50 7.56 82.50
4738 2019-03-08 11:47:33 ESP12E-S1 9.20 8.46 87.60
4737 2019-03-08 11:19:05 ESP12E-S1 6.80 5.97 93.40
4736 2019-03-08 10:50:43 ESP12E-S1 6.30 5.45 94.50
4735 2019-03-08 10:22:26 ESP12E-S1 6.40 5.56 94.50
4734 2019-03-08 09:54:10 ESP12E-S1 6.60 5.75 93.40
4733 2019-03-08 09:25:56 ESP12E-S1 6.80 5.91 90.80
4732 2019-03-08 08:57:39 ESP12E-S1 6.80 5.78 85.80
4731 2019-03-08 08:29:21 ESP12E-S1 6.40 5.22 81.20
4730 2019-03-08 08:01:01 ESP12E-S1 6.10 4.88 81.10
4729 2019-03-08 07:32:44 ESP12E-S1 5.80 4.57 81.70
4728 2019-03-08 07:04:27 ESP12E-S1 5.60 4.31 80.10
4727 2019-03-08 06:36:12 ESP12E-S1 5.70 4.37 78.20
4726 2019-03-08 06:07:56 ESP12E-S1 5.70 4.32 76.50
4725 2019-03-08 05:39:40 ESP12E-S1 5.90 4.51 75.20
4724 2019-03-08 05:11:23 ESP12E-S1 5.90 4.45 72.90
4723 2019-03-08 04:43:07 ESP12E-S1 6.10 4.62 71.00
4722 2019-03-08 04:14:51 ESP12E-S1 6.30 4.88 72.40
4721 2019-03-08 03:46:35 ESP12E-S1 6.30 4.89 73.10
4720 2019-03-08 03:18:18 ESP12E-S1 6.30 5.01 77.40
4719 2019-03-08 02:50:01 ESP12E-S1 6.20 5.22 89.70
4718 2019-03-08 02:21:44 ESP12E-S1 6.20 5.23 90.10
4717 2019-03-08 01:53:27 ESP12E-S1 6.30 5.31 89.10
4716 2019-03-08 01:25:11 ESP12E-S1 6.40 5.41 88.70
4715 2019-03-08 00:56:54 ESP12E-S1 6.40 5.39 87.80
4714 2019-03-08 00:28:39 ESP12E-S1 6.70 5.66 85.70
4713 2019-03-08 00:00:24 ESP12E-S1 6.80 5.72 83.50
4712 2019-03-07 23:32:07 ESP12E-S1 7.00 5.83 79.60
4711 2019-03-07 23:03:50 ESP12E-S1 7.00 5.85 80.30
4710 2019-03-07 22:35:34 ESP12E-S1 7.20 6.09 80.90
4709 2019-03-07 22:07:17 ESP12E-S1 7.20 6.06 79.90
4708 2019-03-07 21:39:01 ESP12E-S1 7.40 6.15 75.00
4707 2019-03-07 21:10:44 ESP12E-S1 7.50 6.16 71.10
4706 2019-03-07 20:42:29 ESP12E-S1 7.70 6.35 69.70
4705 2019-03-07 20:14:14 ESP12E-S1 8.00 6.64 68.20
4704 2019-03-07 19:45:59 ESP12E-S1 8.50 7.15 66.70
4703 2019-03-07 19:17:44 ESP12E-S1 8.80 7.44 65.30
4702 2019-03-07 18:49:29 ESP12E-S1 9.20 7.79 61.80
4701 2019-03-07 18:21:18 ESP12E-S1 10.00 8.49 55.10
4700 2019-03-07 17:53:07 ESP12E-S1 10.70 9.18 51.80
4699 2019-03-07 17:24:57 ESP12E-S1 12.10 10.73 52.20
4698 2019-03-07 16:57:00 ESP12E-S1 14.60 13.31 45.80
4697 2019-03-07 16:28:59 ESP12E-S1 18.30 17.29 42.40
4696 2019-03-07 16:00:12 ESP12E-S1 16.00 14.86 46.10
4695 2019-03-07 15:32:11 ESP12E-S1 16.60 15.45 43.50
4694 2019-03-07 15:04:01 ESP12E-S1 15.20 14.04 48.40
4693 2019-03-07 14:35:17 ESP12E-S1 12.40 11.17 56.50
4692 2019-03-07 14:06:56 ESP12E-S1 11.80 10.56 58.50
4691 2019-03-07 13:38:40 ESP12E-S1 11.70 10.51 60.80
4690 2019-03-07 13:10:33 ESP12E-S1 12.30 11.15 59.80
4689 2019-03-07 12:42:04 ESP12E-S1 11.40 10.32 66.10
4688 2019-03-07 12:13:41 ESP12E-S1 10.50 9.45 70.50
4687 2019-03-07 11:45:23 ESP12E-S1 10.50 9.52 73.30
4686 2019-03-07 11:17:07 ESP12E-S1 10.60 9.68 75.40
4685 2019-03-07 10:48:56 ESP12E-S1 10.10 9.26 80.20
4684 2019-03-07 10:20:36 ESP12E-S1 10.10 9.26 80.20
4683 2019-03-07 09:52:17 ESP12E-S1 10.00 9.19 81.60
4682 2019-03-07 09:24:03 ESP12E-S1 10.00 9.16 80.60
4681 2019-03-07 08:55:40 ESP12E-S1 9.50 8.78 87.30
4680 2019-03-07 08:27:24 ESP12E-S1 9.60 8.84 85.30
4679 2019-03-07 07:59:07 ESP12E-S1 10.40 9.71 85.00
4678 2019-03-07 07:30:51 ESP12E-S1 9.80 9.01 83.30
4677 2019-03-07 07:02:36 ESP12E-S1 10.00 9.20 82.00
4676 2019-03-07 06:34:19 ESP12E-S1 10.00 9.24 83.80
4675 2019-03-07 06:06:01 ESP12E-S1 9.90 9.22 87.30
4674 2019-03-07 05:37:42 ESP12E-S1 9.70 8.92 84.10
4673 2019-03-07 05:09:20 ESP12E-S1 9.20 8.22 78.20
4672 2019-03-07 04:41:00 ESP12E-S1 8.80 8.05 88.60
4671 2019-03-07 04:12:43 ESP12E-S1 8.80 8.15 92.40
4670 2019-03-07 03:44:24 ESP12E-S1 8.80 8.13 91.80
4669 2019-03-07 03:16:07 ESP12E-S1 8.90 8.29 93.60
4668 2019-03-07 02:47:50 ESP12E-S1 8.90 8.38 96.90
4667 2019-03-07 02:19:33 ESP12E-S1 9.00 8.49 97.00
4666 2019-03-07 01:51:15 ESP12E-S1 9.00 8.48 96.70
4665 2019-03-07 01:22:58 ESP12E-S1 9.10 8.57 95.80
4664 2019-03-07 00:54:41 ESP12E-S1 9.20 8.64 94.30
4663 2019-03-07 00:26:26 ESP12E-S1 9.20 8.58 92.00
4662 2019-03-06 23:58:08 ESP12E-S1 9.30 8.75 94.30
4661 2019-03-06 23:29:52 ESP12E-S1 9.30 8.78 95.60
4660 2019-03-06 23:01:34 ESP12E-S1 9.50 8.97 94.50
4659 2019-03-06 22:33:18 ESP12E-S1 9.50 8.98 94.80
4658 2019-03-06 22:05:01 ESP12E-S1 9.60 9.10 95.10
4657 2019-03-06 21:36:44 ESP12E-S1 9.80 9.31 94.70
4656 2019-03-06 21:08:29 ESP12E-S1 9.90 9.39 93.80
4655 2019-03-06 20:40:13 ESP12E-S1 10.10 9.56 91.80
4654 2019-03-06 20:11:57 ESP12E-S1 10.50 10.04 93.10
4653 2019-03-06 19:43:42 ESP12E-S1 10.90 10.25 84.40
4652 2019-03-06 19:15:28 ESP12E-S1 11.30 10.38 72.70
4651 2019-03-06 18:47:13 ESP12E-S1 11.90 10.88 66.50
4650 2019-03-06 18:18:58 ESP12E-S1 11.20 9.80 54.50
4649 2019-03-06 17:50:42 ESP12E-S1 12.60 11.31 53.30
4648 2019-03-06 17:22:28 ESP12E-S1 13.10 11.83 52.10
4647 2019-03-06 16:54:16 ESP12E-S1 13.60 12.31 49.70
4646 2019-03-06 16:26:08 ESP12E-S1 14.70 13.55 50.90
4645 2019-03-06 15:58:20 ESP12E-S1 17.30 16.27 45.30
4644 2019-03-06 15:29:28 ESP12E-S1 13.90 12.82 56.40
4643 2019-03-06 15:01:15 ESP12E-S1 13.90 12.84 57.10
4642 2019-03-06 14:32:55 ESP12E-S1 12.80 11.65 57.90
4641 2019-03-06 14:04:37 ESP12E-S1 12.80 11.60 56.10
4640 2019-03-06 13:36:24 ESP12E-S1 13.40 12.38 60.60
4639 2019-03-06 13:08:10 ESP12E-S1 13.80 12.81 60.30
4638 2019-03-06 12:40:00 ESP12E-S1 14.60 13.63 58.00
4637 2019-03-06 12:11:52 ESP12E-S1 15.70 14.91 60.80
4636 2019-03-06 11:43:05 ESP12E-S1 11.90 10.97 69.80
4635 2019-03-06 11:14:52 ESP12E-S1 11.80 10.87 70.10
4634 2019-03-06 10:46:19 ESP12E-S1 10.60 9.68 75.40
4633 2019-03-06 10:17:54 ESP12E-S1 9.30 8.49 84.30
4632 2019-03-06 09:49:25 ESP12E-S1 7.90 7.12 91.10
4631 2019-03-06 09:21:02 ESP12E-S1 6.90 6.15 96.10
4630 2019-03-06 08:52:40 ESP12E-S1 6.20 5.43 97.80
4629 2019-03-06 08:24:18 ESP12E-S1 5.50 4.70 99.30
4628 2019-03-06 07:55:59 ESP12E-S1 5.10 4.24 98.70
4627 2019-03-06 07:27:40 ESP12E-S1 4.90 4.04 99.50
4626 2019-03-06 06:59:22 ESP12E-S1 4.90 4.01 98.40
4625 2019-03-06 06:31:06 ESP12E-S1 5.10 4.26 99.20
4624 2019-03-06 06:02:49 ESP12E-S1 5.30 4.49 99.70
4623 2019-03-06 05:34:32 ESP12E-S1 5.40 4.60 99.90
4622 2019-03-06 05:06:14 ESP12E-S1 5.30 4.49 99.90
4621 2019-03-06 04:37:58 ESP12E-S1 5.20 4.38 99.90
4620 2019-03-06 04:09:40 ESP12E-S1 5.20 4.38 99.90
4619 2019-03-06 03:41:21 ESP12E-S1 5.10 4.27 99.90
4618 2019-03-06 03:13:03 ESP12E-S1 5.00 4.16 99.90
4617 2019-03-06 02:44:45 ESP12E-S1 4.90 4.04 99.40
4616 2019-03-06 02:16:26 ESP12E-S1 4.80 3.93 99.50
4615 2019-03-06 01:48:09 ESP12E-S1 4.70 3.81 98.80
4614 2019-03-06 01:19:49 ESP12E-S1 4.60 3.68 98.20
4613 2019-03-06 00:51:32 ESP12E-S1 4.40 3.43 97.00
4612 2019-03-06 00:23:13 ESP12E-S1 4.20 3.20 96.60
4611 2019-03-05 23:54:54 ESP12E-S1 4.00 2.95 95.50
4610 2019-03-05 23:26:36 ESP12E-S1 4.00 2.93 94.90
4609 2019-03-05 22:58:19 ESP12E-S1 3.90 2.79 93.80
4608 2019-03-05 22:30:02 ESP12E-S1 4.00 2.85 91.70
4607 2019-03-05 22:01:45 ESP12E-S1 4.10 2.93 90.70
4606 2019-03-05 21:33:29 ESP12E-S1 4.30 3.15 90.70
4605 2019-03-05 21:05:13 ESP12E-S1 4.70 3.56 89.40
4604 2019-03-05 20:36:56 ESP12E-S1 4.70 3.50 87.20
4603 2019-03-05 20:08:42 ESP12E-S1 5.10 3.90 85.50
4602 2019-03-05 19:40:26 ESP12E-S1 5.50 4.27 82.80
4601 2019-03-05 19:12:13 ESP12E-S1 6.00 4.73 79.50
4600 2019-03-05 18:43:59 ESP12E-S1 6.60 5.27 75.00
4599 2019-03-05 18:15:46 ESP12E-S1 7.20 5.82 70.70
4598 2019-03-05 17:47:33 ESP12E-S1 7.60 6.15 66.60
4597 2019-03-05 17:19:19 ESP12E-S1 8.40 6.96 63.80
4596 2019-03-05 16:51:25 ESP12E-S1 10.70 9.31 56.90
4595 2019-03-05 16:23:35 ESP12E-S1 14.30 13.20 54.10
4594 2019-03-05 15:55:22 ESP12E-S1 13.50 12.45 59.20
4593 2019-03-05 15:26:06 ESP12E-S1 9.30 8.52 85.60
4592 2019-03-05 14:57:39 ESP12E-S1 6.60 5.73 92.60
4591 2019-03-05 14:29:23 ESP12E-S1 6.50 5.65 93.80
4590 2019-03-05 14:00:57 ESP12E-S1 5.70 4.81 95.30
4589 2019-03-05 13:32:39 ESP12E-S1 5.50 4.63 96.80
4588 2019-03-05 13:04:21 ESP12E-S1 5.30 4.42 96.90
4587 2019-03-05 12:36:04 ESP12E-S1 5.10 4.19 96.60
4586 2019-03-05 12:07:46 ESP12E-S1 5.10 4.19 96.50
4585 2019-03-05 11:39:29 ESP12E-S1 5.40 4.47 94.90
4584 2019-03-05 11:11:10 ESP12E-S1 5.50 4.52 92.40
4583 2019-03-05 10:42:53 ESP12E-S1 5.30 4.29 92.10
4582 2019-03-05 10:14:35 ESP12E-S1 5.30 4.25 90.50
4581 2019-03-05 09:46:19 ESP12E-S1 5.40 4.30 88.40
4580 2019-03-05 09:18:00 ESP12E-S1 5.30 4.18 87.80
4579 2019-03-05 08:49:42 ESP12E-S1 5.00 3.88 89.10
4578 2019-03-05 08:21:23 ESP12E-S1 4.80 3.71 91.00
4577 2019-03-05 07:53:06 ESP12E-S1 4.70 3.65 92.70
4576 2019-03-05 07:24:49 ESP12E-S1 4.70 3.65 92.80
4575 2019-03-05 06:56:31 ESP12E-S1 4.70 3.61 91.50
4574 2019-03-05 06:28:14 ESP12E-S1 4.70 3.60 91.10
4573 2019-03-05 05:59:56 ESP12E-S1 4.80 3.76 92.80
4572 2019-03-05 05:31:40 ESP12E-S1 4.80 3.76 92.90
4571 2019-03-05 05:03:22 ESP12E-S1 4.80 3.75 92.60
4570 2019-03-05 04:35:03 ESP12E-S1 4.80 3.76 92.90
4569 2019-03-05 04:06:47 ESP12E-S1 4.80 3.78 93.50
4568 2019-03-05 03:38:29 ESP12E-S1 4.80 3.75 92.50
4567 2019-03-05 03:10:11 ESP12E-S1 4.80 3.73 91.60
4566 2019-03-05 02:41:53 ESP12E-S1 4.70 3.60 90.80
4565 2019-03-05 02:13:35 ESP12E-S1 4.70 3.61 91.50
4564 2019-03-05 01:45:17 ESP12E-S1 6.30 5.41 92.90
4563 2019-03-05 01:17:00 ESP12E-S1 4.80 3.80 94.50
4562 2019-03-05 00:48:41 ESP12E-S1 4.80 3.78 93.50
4561 2019-03-05 00:20:23 ESP12E-S1 4.70 3.75 96.50
4560 2019-03-04 23:52:05 ESP12E-S1 4.50 3.56 97.80
4559 2019-03-04 23:23:48 ESP12E-S1 4.70 3.77 97.30
4558 2019-03-04 22:55:41 ESP12E-S1 4.60 3.62 95.90
4557 2019-03-04 22:27:21 ESP12E-S1 4.50 3.46 93.90
4556 2019-03-04 21:59:04 ESP12E-S1 4.40 3.33 93.20
4555 2019-03-04 21:30:49 ESP12E-S1 4.60 3.52 92.20
4554 2019-03-04 21:02:33 ESP12E-S1 4.80 3.72 91.20
4553 2019-03-04 20:34:23 ESP12E-S1 5.00 3.93 90.80
4552 2019-03-04 20:06:06 ESP12E-S1 4.00 2.80 89.70
4551 2019-03-04 19:37:50 ESP12E-S1 5.20 4.11 89.50
4550 2019-03-04 19:09:34 ESP12E-S1 5.20 4.08 88.30
4549 2019-03-04 18:41:17 ESP12E-S1 5.30 4.12 85.70
4548 2019-03-04 18:13:03 ESP12E-S1 5.70 4.48 82.40
4547 2019-03-04 17:44:48 ESP12E-S1 5.90 4.64 80.10
4546 2019-03-04 17:16:34 ESP12E-S1 6.40 5.35 86.20
4545 2019-03-04 16:48:18 ESP12E-S1 6.70 5.77 89.80
4544 2019-03-04 16:20:03 ESP12E-S1 6.80 5.83 87.80
4543 2019-03-04 15:51:52 ESP12E-S1 7.90 7.18 93.40
4542 2019-03-04 15:23:40 ESP12E-S1 8.60 7.88 90.40
4541 2019-03-04 14:55:22 ESP12E-S1 8.70 7.93 88.40
4540 2019-03-04 14:27:09 ESP12E-S1 9.40 8.41 77.00
4539 2019-03-04 13:59:02 ESP12E-S1 11.10 9.87 61.40
4538 2019-03-04 13:30:58 ESP12E-S1 12.30 11.06 56.40
4537 2019-03-04 13:02:43 ESP12E-S1 12.30 11.16 60.40
4536 2019-03-04 12:34:25 ESP12E-S1 12.50 11.50 65.00
4535 2019-03-04 12:05:59 ESP12E-S1 11.50 10.33 62.10
4534 2019-03-04 11:37:59 ESP12E-S1 13.30 12.08 53.40
4533 2019-03-04 11:09:39 ESP12E-S1 12.50 11.29 56.90
4532 2019-03-04 10:41:05 ESP12E-S1 10.60 9.38 63.80
4531 2019-03-04 10:12:46 ESP12E-S1 10.10 9.15 75.90
4530 2019-03-04 09:44:28 ESP12E-S1 10.30 9.28 72.40
4529 2019-03-04 09:16:11 ESP12E-S1 10.00 9.06 76.70
4528 2019-03-04 08:47:51 ESP12E-S1 9.50 8.70 83.90
4527 2019-03-04 08:19:32 ESP12E-S1 9.10 8.40 89.50
4526 2019-03-04 07:51:14 ESP12E-S1 9.10 8.46 91.80
4525 2019-03-04 07:22:59 ESP12E-S1 9.20 8.54 90.60
4524 2019-03-04 06:54:42 ESP12E-S1 9.20 8.53 90.10
4523 2019-03-04 06:26:26 ESP12E-S1 9.40 8.75 90.30
4522 2019-03-04 05:58:09 ESP12E-S1 9.50 8.88 91.10
4521 2019-03-04 05:29:54 ESP12E-S1 9.60 9.00 91.30
4520 2019-03-04 05:01:38 ESP12E-S1 9.80 9.23 91.70
4519 2019-03-04 04:33:22 ESP12E-S1 10.00 9.38 89.20
4518 2019-03-04 04:05:06 ESP12E-S1 10.10 9.45 87.60
4517 2019-03-04 03:36:49 ESP12E-S1 10.00 9.25 84.00
4516 2019-03-04 03:08:31 ESP12E-S1 9.90 9.14 84.20
4515 2019-03-04 02:40:12 ESP12E-S1 9.60 8.85 85.70
4514 2019-03-04 02:11:56 ESP12E-S1 9.60 8.91 87.90
4513 2019-03-04 01:43:36 ESP12E-S1 9.40 8.75 90.00
4512 2019-03-04 01:15:18 ESP12E-S1 9.40 8.76 90.70
4511 2019-03-04 00:47:02 ESP12E-S1 9.40 8.77 91.00
4510 2019-03-04 00:18:44 ESP12E-S1 9.40 8.79 91.60
4509 2019-03-03 23:50:25 ESP12E-S1 9.30 8.69 92.10
4508 2019-03-03 23:22:08 ESP12E-S1 9.40 8.81 92.50
4507 2019-03-03 22:53:53 ESP12E-S1 10.30 9.79 92.20
4506 2019-03-03 22:25:36 ESP12E-S1 9.50 8.92 92.50
4505 2019-03-03 21:57:18 ESP12E-S1 9.50 8.91 92.20
4504 2019-03-03 21:29:00 ESP12E-S1 9.40 8.80 92.20
4503 2019-03-03 21:00:47 ESP12E-S1 9.40 8.79 91.80
4502 2019-03-03 20:32:28 ESP12E-S1 9.40 8.79 91.80
4501 2019-03-03 20:04:10 ESP12E-S1 9.40 8.80 92.10
4500 2019-03-03 19:35:54 ESP12E-S1 9.40 8.82 92.90
4499 2019-03-03 19:07:43 ESP12E-S1 9.30 8.73 93.60
4498 2019-03-03 18:39:23 ESP12E-S1 9.30 8.73 93.80
4497 2019-03-03 18:11:07 ESP12E-S1 9.20 8.63 94.10
4496 2019-03-03 17:42:49 ESP12E-S1 9.20 8.65 94.90
4495 2019-03-03 17:14:31 ESP12E-S1 9.20 8.66 95.20
4494 2019-03-03 16:46:14 ESP12E-S1 9.20 8.68 95.90
4493 2019-03-03 16:17:58 ESP12E-S1 9.40 8.84 93.50
4492 2019-03-03 15:49:45 ESP12E-S1 9.40 8.83 93.40
4491 2019-03-03 15:21:26 ESP12E-S1 9.40 8.84 93.50
4490 2019-03-03 14:53:09 ESP12E-S1 9.30 8.75 94.40
4489 2019-03-03 14:24:56 ESP12E-S1 9.20 8.67 95.40
4488 2019-03-03 13:56:46 ESP12E-S1 9.10 8.59 96.60
4487 2019-03-03 13:28:31 ESP12E-S1 9.20 8.66 95.00
4486 2019-03-03 13:00:14 ESP12E-S1 9.30 8.73 93.80
4485 2019-03-03 12:31:56 ESP12E-S1 9.30 8.69 92.20
4484 2019-03-03 12:03:38 ESP12E-S1 9.10 8.48 92.30
4483 2019-03-03 11:35:19 ESP12E-S1 9.00 8.37 92.30
4482 2019-03-03 11:07:12 ESP12E-S1 8.80 8.16 92.90
4481 2019-03-03 10:38:49 ESP12E-S1 8.50 7.84 93.30
4480 2019-03-03 10:10:30 ESP12E-S1 8.40 7.74 93.60
4479 2019-03-03 09:42:12 ESP12E-S1 8.20 7.52 93.70
4478 2019-03-03 09:13:55 ESP12E-S1 8.10 7.41 93.70
4477 2019-03-03 08:45:38 ESP12E-S1 8.10 7.41 93.70
4476 2019-03-03 08:17:20 ESP12E-S1 8.00 7.31 94.00
4475 2019-03-03 07:49:02 ESP12E-S1 7.90 7.19 93.70
4474 2019-03-03 07:20:45 ESP12E-S1 7.90 7.19 93.70
4473 2019-03-03 06:52:28 ESP12E-S1 7.90 7.21 94.40
4472 2019-03-03 06:24:11 ESP12E-S1 7.90 7.23 95.20
4471 2019-03-03 05:55:53 ESP12E-S1 7.80 7.12 95.20
4470 2019-03-03 05:27:36 ESP12E-S1 7.80 7.11 94.90
4469 2019-03-03 04:59:19 ESP12E-S1 7.80 7.12 95.10
4468 2019-03-03 04:31:02 ESP12E-S1 7.70 7.00 94.80
4467 2019-03-03 04:02:46 ESP12E-S1 7.70 7.00 94.60
4466 2019-03-03 03:34:31 ESP12E-S1 7.70 7.00 94.80
4465 2019-03-03 03:06:13 ESP12E-S1 7.70 7.00 94.90
4464 2019-03-03 02:37:55 ESP12E-S1 7.70 7.00 94.60
4463 2019-03-03 02:09:38 ESP12E-S1 7.80 7.10 94.40
4462 2019-03-03 01:41:23 ESP12E-S1 7.70 6.99 94.30
4461 2019-03-03 01:13:06 ESP12E-S1 7.90 7.22 94.90
4460 2019-03-03 00:44:50 ESP12E-S1 8.20 7.55 94.60
4459 2019-03-03 00:16:34 ESP12E-S1 8.30 7.67 95.30
4458 2019-03-02 23:48:16 ESP12E-S1 8.30 7.68 95.70
4457 2019-03-02 23:19:59 ESP12E-S1 8.30 7.68 95.50
4456 2019-03-02 22:51:42 ESP12E-S1 8.40 7.77 94.90
4455 2019-03-02 22:23:25 ESP12E-S1 8.40 7.77 94.90
4454 2019-03-02 21:55:08 ESP12E-S1 8.50 7.87 94.40
4453 2019-03-02 21:26:52 ESP12E-S1 8.60 7.95 93.40
4452 2019-03-02 20:58:35 ESP12E-S1 8.60 7.94 92.90
4451 2019-03-02 20:30:18 ESP12E-S1 8.70 8.06 93.40
4450 2019-03-02 20:02:01 ESP12E-S1 8.90 8.21 90.60
4449 2019-03-02 19:33:45 ESP12E-S1 9.10 8.29 85.30
4448 2019-03-02 19:05:29 ESP12E-S1 9.40 8.49 80.30
4447 2019-03-02 18:37:13 ESP12E-S1 9.70 8.70 75.50
4446 2019-03-02 18:08:59 ESP12E-S1 10.00 8.93 71.80
4445 2019-03-02 17:40:46 ESP12E-S1 10.50 9.45 70.80
4444 2019-03-02 17:12:33 ESP12E-S1 11.10 10.12 71.20
4443 2019-03-02 16:44:34 ESP12E-S1 13.00 12.11 67.30
4442 2019-03-02 16:16:03 ESP12E-S1 11.00 10.11 74.80
4441 2019-03-02 15:47:36 ESP12E-S1 9.90 9.05 80.50
4440 2019-03-02 15:19:19 ESP12E-S1 10.00 9.14 79.80
4439 2019-03-02 14:51:14 ESP12E-S1 10.30 9.44 78.70
4438 2019-03-02 14:22:48 ESP12E-S1 9.00 8.19 85.40
4437 2019-03-02 13:54:33 ESP12E-S1 9.20 8.38 84.30
4436 2019-03-02 13:26:19 ESP12E-S1 9.70 8.88 82.40
4435 2019-03-02 12:58:02 ESP12E-S1 9.70 8.88 82.60
4434 2019-03-02 12:29:39 ESP12E-S1 9.20 8.45 87.20
4433 2019-03-02 12:01:16 ESP12E-S1 8.40 7.63 89.50
4432 2019-03-02 11:32:56 ESP12E-S1 7.80 7.01 91.10
4431 2019-03-02 11:04:42 ESP12E-S1 7.50 6.69 91.30
4430 2019-03-02 10:36:20 ESP12E-S1 6.90 6.06 92.30
4429 2019-03-02 10:08:01 ESP12E-S1 6.60 5.74 92.80
4428 2019-03-02 09:39:42 ESP12E-S1 6.10 5.18 92.30
4427 2019-03-02 09:11:24 ESP12E-S1 5.90 4.96 92.30
4426 2019-03-02 08:43:05 ESP12E-S1 5.70 4.72 91.80
4425 2019-03-02 08:14:47 ESP12E-S1 5.40 4.38 91.40
4424 2019-03-02 07:46:29 ESP12E-S1 5.30 4.28 91.60
4423 2019-03-02 07:18:12 ESP12E-S1 5.30 4.29 92.20
4422 2019-03-02 06:49:55 ESP12E-S1 5.20 4.17 91.60
4421 2019-03-02 06:21:40 ESP12E-S1 5.40 4.36 90.40
4420 2019-03-02 05:53:22 ESP12E-S1 5.40 4.35 90.30
4419 2019-03-02 05:25:06 ESP12E-S1 5.40 4.36 90.60
4418 2019-03-02 04:56:50 ESP12E-S1 5.40 4.36 90.70
4417 2019-03-02 04:28:34 ESP12E-S1 5.50 4.46 90.20
4416 2019-03-02 04:00:17 ESP12E-S1 5.50 4.47 90.70
4415 2019-03-02 03:32:01 ESP12E-S1 5.50 4.46 90.10
4414 2019-03-02 03:03:44 ESP12E-S1 5.70 4.68 90.00
4413 2019-03-02 02:35:28 ESP12E-S1 5.70 4.59 86.90
4412 2019-03-02 02:07:12 ESP12E-S1 5.70 4.59 86.90
4411 2019-03-02 01:38:55 ESP12E-S1 5.80 4.69 86.40
4410 2019-03-02 01:10:41 ESP12E-S1 5.80 4.73 87.70
4409 2019-03-02 00:42:24 ESP12E-S1 5.70 4.67 89.90
4408 2019-03-02 00:14:06 ESP12E-S1 5.60 4.57 90.00
4407 2019-03-01 23:45:48 ESP12E-S1 5.70 4.59 86.80
4406 2019-03-01 23:17:31 ESP12E-S1 5.80 4.71 87.10
4405 2019-03-01 22:49:16 ESP12E-S1 6.10 4.98 84.90
4404 2019-03-01 22:21:00 ESP12E-S1 6.50 5.46 86.20
4403 2019-03-01 21:52:42 ESP12E-S1 6.70 5.71 87.40
4402 2019-03-01 21:24:32 ESP12E-S1 6.90 5.97 89.20
4401 2019-03-01 20:56:15 ESP12E-S1 7.30 6.42 89.30
4400 2019-03-01 20:28:01 ESP12E-S1 7.70 6.88 90.00
4399 2019-03-01 19:59:45 ESP12E-S1 8.00 7.23 91.00
4398 2019-03-01 19:31:30 ESP12E-S1 8.30 7.53 89.70
4397 2019-03-01 19:03:15 ESP12E-S1 8.70 7.79 82.90
4396 2019-03-01 18:34:59 ESP12E-S1 8.90 7.93 79.70
4395 2019-03-01 18:06:44 ESP12E-S1 9.40 8.41 77.20
4394 2019-03-01 17:38:32 ESP12E-S1 9.90 8.91 75.20
4393 2019-03-01 17:10:22 ESP12E-S1 10.80 9.79 71.20
4392 2019-03-01 16:42:29 ESP12E-S1 13.70 12.73 61.50
4391 2019-03-01 16:14:22 ESP12E-S1 17.30 16.57 56.90
4390 2019-03-01 15:46:12 ESP12E-S1 16.90 16.17 58.20
4389 2019-03-01 15:17:17 ESP12E-S1 14.60 13.85 66.30
4388 2019-03-01 14:49:08 ESP12E-S1 14.40 13.71 69.40
4387 2019-03-01 14:20:37 ESP12E-S1 11.80 11.17 81.70
4386 2019-03-01 13:52:13 ESP12E-S1 10.70 10.14 88.70
4385 2019-03-01 13:23:55 ESP12E-S1 10.10 9.52 90.00
4384 2019-03-01 12:55:40 ESP12E-S1 10.10 9.51 89.90
4383 2019-03-01 12:27:23 ESP12E-S1 10.20 9.58 88.20
4382 2019-03-01 11:59:03 ESP12E-S1 9.90 9.35 92.10
4381 2019-03-01 11:30:49 ESP12E-S1 10.30 9.74 90.10
4380 2019-03-01 11:02:27 ESP12E-S1 9.70 9.14 92.60
4379 2019-03-01 10:34:09 ESP12E-S1 9.40 8.81 92.30
4378 2019-03-01 10:05:51 ESP12E-S1 9.30 8.72 93.20
4377 2019-03-01 09:37:31 ESP12E-S1 8.80 8.23 95.40
4376 2019-03-01 09:09:13 ESP12E-S1 8.60 8.02 95.90
4375 2019-03-01 08:40:53 ESP12E-S1 8.20 7.60 96.70
4374 2019-03-01 08:12:34 ESP12E-S1 7.90 7.25 95.80
4373 2019-03-01 07:44:14 ESP12E-S1 7.90 7.25 96.00
4372 2019-03-01 07:15:57 ESP12E-S1 7.90 7.24 95.60
4371 2019-03-01 06:47:40 ESP12E-S1 7.90 7.23 95.30
4370 2019-03-01 06:19:23 ESP12E-S1 8.00 7.32 94.30
4369 2019-03-01 05:51:07 ESP12E-S1 8.10 7.43 94.20
4368 2019-03-01 05:22:51 ESP12E-S1 8.20 7.52 93.80
4367 2019-03-01 04:54:34 ESP12E-S1 8.20 7.52 93.50
4366 2019-03-01 04:26:18 ESP12E-S1 8.40 7.71 92.40
4365 2019-03-01 03:58:03 ESP12E-S1 8.50 7.83 92.70
4364 2019-03-01 03:29:45 ESP12E-S1 8.60 7.93 92.40
4363 2019-03-01 03:01:28 ESP12E-S1 8.60 7.92 92.10
4362 2019-03-01 02:33:14 ESP12E-S1 8.90 8.26 92.30
4361 2019-03-01 02:04:56 ESP12E-S1 9.00 8.35 91.80
4360 2019-03-01 01:36:40 ESP12E-S1 9.10 8.45 91.50
4359 2019-03-01 01:08:24 ESP12E-S1 9.30 8.58 87.70
4358 2019-03-01 00:40:08 ESP12E-S1 9.50 8.63 81.40
4357 2019-03-01 00:11:51 ESP12E-S1 9.60 8.67 78.50
4356 2019-02-28 23:43:42 ESP12E-S1 9.80 8.84 76.90
4355 2019-02-28 23:15:34 ESP12E-S1 10.00 9.01 74.80
4354 2019-02-28 22:47:14 ESP12E-S1 10.10 9.10 73.90
4353 2019-02-28 22:18:59 ESP12E-S1 10.50 9.35 66.80
4352 2019-02-28 21:50:58 ESP12E-S1 10.80 9.53 61.20
4351 2019-02-28 21:22:43 ESP12E-S1 11.00 9.67 58.10
4350 2019-02-28 20:54:26 ESP12E-S1 11.30 9.93 55.20
4349 2019-02-28 20:26:11 ESP12E-S1 11.50 10.14 54.80
4348 2019-02-28 19:57:55 ESP12E-S1 11.70 10.33 53.80
4347 2019-02-28 19:29:40 ESP12E-S1 12.10 10.73 52.40
4346 2019-02-28 19:01:26 ESP12E-S1 12.40 11.05 51.80
4345 2019-02-28 18:33:12 ESP12E-S1 13.00 11.67 50.40
4344 2019-02-28 18:05:02 ESP12E-S1 14.30 13.19 53.80
4343 2019-02-28 17:36:58 ESP12E-S1 15.40 14.34 51.60
4342 2019-02-28 17:08:45 ESP12E-S1 16.60 15.56 47.50
4341 2019-02-28 16:40:31 ESP12E-S1 17.10 16.06 45.90
4340 2019-02-28 16:12:30 ESP12E-S1 19.40 18.48 41.50
4339 2019-02-28 15:44:18 ESP12E-S1 20.90 20.09 40.10
4338 2019-02-28 15:15:37 ESP12E-S1 18.40 17.39 42.10
4337 2019-02-28 14:47:20 ESP12E-S1 18.90 17.91 40.90
4336 2019-02-28 14:19:15 ESP12E-S1 19.00 18.05 42.10
4335 2019-02-28 13:50:34 ESP12E-S1 17.20 16.13 44.40
4334 2019-02-28 13:22:08 ESP12E-S1 15.70 14.52 45.70
4333 2019-02-28 12:53:44 ESP12E-S1 13.80 12.48 47.70
4332 2019-02-28 12:25:32 ESP12E-S1 14.40 13.10 46.30
4331 2019-02-28 11:57:32 ESP12E-S1 15.80 14.59 44.10
4330 2019-02-28 11:29:07 ESP12E-S1 14.60 13.31 45.80
4329 2019-02-28 11:00:56 ESP12E-S1 14.20 12.89 46.70
4328 2019-02-28 10:32:35 ESP12E-S1 13.00 11.64 49.30
4327 2019-02-28 10:03:53 ESP12E-S1 10.80 9.31 52.70
4326 2019-02-28 09:35:27 ESP12E-S1 9.20 7.64 56.00
4325 2019-02-28 09:07:00 ESP12E-S1 7.80 6.13 57.40
4324 2019-02-28 08:38:36 ESP12E-S1 6.50 4.70 57.20
4323 2019-02-28 08:10:16 ESP12E-S1 6.10 4.23 56.10
4322 2019-02-28 07:41:57 ESP12E-S1 5.90 3.98 54.90
4321 2019-02-28 07:13:40 ESP12E-S1 5.90 3.95 53.80
4320 2019-02-28 06:45:23 ESP12E-S1 6.00 4.04 53.10
4319 2019-02-28 06:17:08 ESP12E-S1 6.20 4.25 52.50
4318 2019-02-28 05:48:52 ESP12E-S1 6.40 4.42 50.90
4317 2019-02-28 05:20:35 ESP12E-S1 6.60 4.63 50.30
4316 2019-02-28 04:52:22 ESP12E-S1 6.90 4.93 49.30
4315 2019-02-28 04:24:05 ESP12E-S1 7.20 5.23 48.10
4314 2019-02-28 03:55:50 ESP12E-S1 7.30 5.32 47.30
4313 2019-02-28 03:27:34 ESP12E-S1 7.50 5.49 45.50
4312 2019-02-28 02:59:19 ESP12E-S1 7.60 5.57 44.30
4311 2019-02-28 02:31:02 ESP12E-S1 7.70 5.66 43.50
4310 2019-02-28 02:02:47 ESP12E-S1 7.70 5.62 41.80
4309 2019-02-28 01:34:33 ESP12E-S1 8.00 5.90 40.10
4308 2019-02-28 01:06:18 ESP12E-S1 8.20 6.10 39.30
4307 2019-02-28 00:38:03 ESP12E-S1 8.40 6.26 37.00
4306 2019-02-28 00:09:49 ESP12E-S1 8.80 6.70 37.00
4305 2019-02-27 23:41:35 ESP12E-S1 9.10 7.03 36.80
4304 2019-02-27 23:13:19 ESP12E-S1 9.40 7.35 36.70
4303 2019-02-27 22:45:03 ESP12E-S1 9.80 7.78 36.10
4302 2019-02-27 22:16:50 ESP12E-S1 10.10 8.11 36.10
4301 2019-02-27 21:48:35 ESP12E-S1 10.40 8.41 35.10
4300 2019-02-27 21:20:19 ESP12E-S1 10.90 8.98 35.90
4299 2019-02-27 20:52:07 ESP12E-S1 11.40 9.55 36.40
4298 2019-02-27 20:23:53 ESP12E-S1 11.80 9.97 35.90
4297 2019-02-27 19:55:40 ESP12E-S1 12.20 10.39 35.10
4296 2019-02-27 19:27:25 ESP12E-S1 13.00 11.24 34.00
4295 2019-02-27 18:59:14 ESP12E-S1 13.70 12.01 33.70
4294 2019-02-27 18:31:05 ESP12E-S1 15.00 13.43 33.40
4293 2019-02-27 18:02:59 ESP12E-S1 16.70 15.23 30.90
4292 2019-02-27 17:34:59 ESP12E-S1 18.30 16.89 26.80
4291 2019-02-27 17:07:05 ESP12E-S1 20.60 19.39 25.70
4290 2019-02-27 16:39:43 ESP12E-S1 27.80 26.70 23.40
4289 2019-02-27 16:11:24 ESP12E-S1 28.70 27.30 22.20
4288 2019-02-27 15:43:00 ESP12E-S1 27.60 26.57 23.40
4287 2019-02-27 15:13:34 ESP12E-S1 22.40 21.38 26.20
4286 2019-02-27 14:45:03 ESP12E-S1 20.50 19.32 27.50
4285 2019-02-27 14:17:01 ESP12E-S1 20.80 19.69 28.90
4284 2019-02-27 13:48:25 ESP12E-S1 19.50 18.24 28.10
4283 2019-02-27 13:20:07 ESP12E-S1 19.50 18.21 26.90
4282 2019-02-27 12:51:55 ESP12E-S1 20.10 18.88 27.40
4281 2019-02-27 12:24:19 ESP12E-S1 21.50 20.39 26.30
4280 2019-02-27 11:54:56 ESP12E-S1 17.40 15.95 28.80
4279 2019-02-27 11:26:29 ESP12E-S1 15.30 13.69 31.00
4278 2019-02-27 10:58:23 ESP12E-S1 14.80 13.14 31.00
4277 2019-02-27 10:30:01 ESP12E-S1 13.30 11.55 33.30
4276 2019-02-27 10:01:08 ESP12E-S1 10.50 8.50 34.40
4275 2019-02-27 09:32:42 ESP12E-S1 8.70 6.63 38.60
4274 2019-02-27 09:04:18 ESP12E-S1 7.10 4.90 39.80
4273 2019-02-27 08:35:57 ESP12E-S1 6.20 3.90 39.20
4272 2019-02-27 08:07:41 ESP12E-S1 6.10 3.73 36.90
4271 2019-02-27 07:39:25 ESP12E-S1 6.10 3.71 36.20
4270 2019-02-27 07:11:11 ESP12E-S1 6.10 3.68 35.00
4269 2019-02-27 06:42:56 ESP12E-S1 6.20 3.73 32.90
4268 2019-02-27 06:14:43 ESP12E-S1 6.20 3.75 33.50
4267 2019-02-27 05:46:27 ESP12E-S1 6.30 3.83 32.30
4266 2019-02-27 05:18:11 ESP12E-S1 6.30 3.81 31.60
4265 2019-02-27 04:49:56 ESP12E-S1 6.50 4.05 32.30
4264 2019-02-27 04:21:43 ESP12E-S1 6.80 4.39 32.90
4263 2019-02-27 03:53:30 ESP12E-S1 7.00 4.59 31.80
4262 2019-02-27 03:25:16 ESP12E-S1 7.30 4.92 32.10
4261 2019-02-27 02:57:01 ESP12E-S1 7.60 5.30 34.00
4260 2019-02-27 02:28:48 ESP12E-S1 7.80 5.57 35.70
4259 2019-02-27 02:00:33 ESP12E-S1 8.20 5.95 33.50
4258 2019-02-27 01:32:19 ESP12E-S1 8.40 6.12 31.60
4257 2019-02-27 01:04:07 ESP12E-S1 8.80 6.55 31.20
4256 2019-02-27 00:35:52 ESP12E-S1 9.00 6.81 32.70
4255 2019-02-27 00:07:38 ESP12E-S1 9.30 7.12 31.90
4254 2019-02-26 23:39:23 ESP12E-S1 9.60 7.46 32.50
4253 2019-02-26 23:11:10 ESP12E-S1 9.90 7.77 31.60
4252 2019-02-26 22:42:56 ESP12E-S1 10.40 8.33 31.80
4251 2019-02-26 22:14:44 ESP12E-S1 10.60 8.58 33.00
4250 2019-02-26 21:46:30 ESP12E-S1 11.00 9.10 36.10
4249 2019-02-26 21:18:16 ESP12E-S1 11.40 9.60 38.40
4248 2019-02-26 20:50:03 ESP12E-S1 11.70 9.96 39.80
4247 2019-02-26 20:21:49 ESP12E-S1 12.10 10.39 39.20
4246 2019-02-26 19:53:36 ESP12E-S1 12.70 11.12 42.10
4245 2019-02-26 19:25:25 ESP12E-S1 13.30 11.84 44.40
4244 2019-02-26 18:57:19 ESP12E-S1 14.20 12.81 43.50
4243 2019-02-26 18:29:08 ESP12E-S1 15.20 13.89 42.60
4242 2019-02-26 18:01:01 ESP12E-S1 16.80 15.63 41.90
4241 2019-02-26 17:32:54 ESP12E-S1 18.70 17.62 38.10
4240 2019-02-26 17:04:53 ESP12E-S1 20.90 19.97 35.40
4239 2019-02-26 16:37:22 ESP12E-S1 27.10 26.48 30.00
4238 2019-02-26 16:09:08 ESP12E-S1 28.30 27.25 28.60
4237 2019-02-26 15:40:42 ESP12E-S1 27.30 26.66 31.10
4236 2019-02-26 15:11:14 ESP12E-S1 21.40 20.53 35.90
4235 2019-02-26 14:42:49 ESP12E-S1 20.20 19.26 37.90
4234 2019-02-26 14:14:42 ESP12E-S1 20.20 19.25 37.20
4233 2019-02-26 13:46:16 ESP12E-S1 19.40 18.38 37.80
4232 2019-02-26 13:17:59 ESP12E-S1 19.20 18.09 34.90
4231 2019-02-26 12:50:00 ESP12E-S1 20.60 19.65 35.80
4230 2019-02-26 12:21:59 ESP12E-S1 20.40 19.40 34.80
4229 2019-02-26 11:52:43 ESP12E-S1 16.20 15.00 42.90
4228 2019-02-26 11:24:21 ESP12E-S1 15.00 13.78 46.90
4227 2019-02-26 10:56:08 ESP12E-S1 14.20 12.88 46.30
4226 2019-02-26 10:27:48 ESP12E-S1 13.00 11.70 51.50
4225 2019-02-26 09:58:58 ESP12E-S1 10.20 8.68 53.80
4224 2019-02-26 09:30:31 ESP12E-S1 8.40 6.97 64.30
4223 2019-02-26 09:02:05 ESP12E-S1 6.70 5.15 65.90
4222 2019-02-26 08:33:45 ESP12E-S1 6.00 4.30 63.00
4221 2019-02-26 08:05:28 ESP12E-S1 5.80 4.03 60.90
4220 2019-02-26 07:37:12 ESP12E-S1 5.70 3.89 60.00
4219 2019-02-26 07:08:56 ESP12E-S1 5.80 3.98 59.30
4218 2019-02-26 06:40:41 ESP12E-S1 5.80 3.99 59.60
4217 2019-02-26 06:12:26 ESP12E-S1 5.90 4.17 62.10
4216 2019-02-26 05:44:10 ESP12E-S1 5.90 4.14 61.00
4215 2019-02-26 05:15:55 ESP12E-S1 5.90 4.10 59.60
4214 2019-02-26 04:47:39 ESP12E-S1 6.00 4.14 57.00
4213 2019-02-26 04:19:25 ESP12E-S1 6.20 4.34 56.20
4212 2019-02-26 03:51:12 ESP12E-S1 6.40 4.55 55.60
4211 2019-02-26 03:22:56 ESP12E-S1 6.60 4.72 53.80
4210 2019-02-26 02:54:40 ESP12E-S1 6.70 4.80 52.60
4209 2019-02-26 02:26:26 ESP12E-S1 6.90 5.01 52.30
4208 2019-02-26 01:58:12 ESP12E-S1 7.20 5.33 51.70
4207 2019-02-26 01:29:56 ESP12E-S1 7.40 5.52 50.90
4206 2019-02-26 01:01:43 ESP12E-S1 7.50 5.63 50.60
4205 2019-02-26 00:33:27 ESP12E-S1 7.70 5.85 50.90
4204 2019-02-26 00:05:11 ESP12E-S1 7.90 6.07 50.80
4203 2019-02-25 23:36:57 ESP12E-S1 8.20 6.38 49.90
4202 2019-02-25 23:08:43 ESP12E-S1 8.60 6.81 49.40
4201 2019-02-25 22:40:35 ESP12E-S1 9.00 7.22 48.30
4200 2019-02-25 22:12:19 ESP12E-S1 9.40 7.64 47.50
4199 2019-02-25 21:44:04 ESP12E-S1 9.70 7.96 47.20
4198 2019-02-25 21:15:54 ESP12E-S1 10.00 8.25 45.80
4197 2019-02-25 20:47:40 ESP12E-S1 10.50 8.79 45.20
4196 2019-02-25 20:19:26 ESP12E-S1 11.00 9.32 44.50
4195 2019-02-25 19:51:17 ESP12E-S1 11.60 9.96 43.70
4194 2019-02-25 19:23:06 ESP12E-S1 12.40 10.84 43.70
4193 2019-02-25 18:54:55 ESP12E-S1 13.10 11.56 41.90
4192 2019-02-25 18:26:49 ESP12E-S1 14.40 12.92 39.40
4191 2019-02-25 17:58:42 ESP12E-S1 16.00 14.58 35.50
4190 2019-02-25 17:30:37 ESP12E-S1 17.80 16.47 31.90
4189 2019-02-25 17:02:42 ESP12E-S1 20.20 19.05 29.80
4188 2019-02-25 16:35:11 ESP12E-S1 27.40 26.53 26.10
4187 2019-02-25 16:06:58 ESP12E-S1 28.50 27.25 24.90
4186 2019-02-25 15:38:28 ESP12E-S1 26.40 25.80 27.00
4185 2019-02-25 15:08:59 ESP12E-S1 19.60 18.38 29.20
4184 2019-02-25 14:40:37 ESP12E-S1 18.80 17.51 29.70
4183 2019-02-25 14:12:19 ESP12E-S1 18.70 17.37 28.40
4182 2019-02-25 13:44:03 ESP12E-S1 18.20 16.81 28.10
4181 2019-02-25 13:15:47 ESP12E-S1 18.20 16.79 27.50
4180 2019-02-25 12:48:05 ESP12E-S1 20.20 18.98 27.00
4179 2019-02-25 12:19:41 ESP12E-S1 18.60 17.27 28.90
4178 2019-02-25 11:50:37 ESP12E-S1 14.80 13.14 30.80
4177 2019-02-25 11:22:15 ESP12E-S1 13.70 11.91 30.20
4176 2019-02-25 10:54:07 ESP12E-S1 13.20 11.36 30.00
4175 2019-02-25 10:25:42 ESP12E-S1 11.50 9.51 30.80
4174 2019-02-25 09:56:50 ESP12E-S1 8.80 6.57 32.00
4173 2019-02-25 09:28:23 ESP12E-S1 7.00 4.56 31.00
4172 2019-02-25 08:59:56 ESP12E-S1 5.10 2.54 33.40
4171 2019-02-25 08:31:37 ESP12E-S1 4.30 1.73 36.30
4170 2019-02-25 08:03:21 ESP12E-S1 4.10 1.57 38.60
4169 2019-02-25 07:35:05 ESP12E-S1 4.20 1.66 37.80
4168 2019-02-25 07:06:50 ESP12E-S1 4.30 1.72 35.70
4167 2019-02-25 06:38:35 ESP12E-S1 4.40 1.80 34.60
4166 2019-02-25 06:10:19 ESP12E-S1 4.40 1.85 36.50
4165 2019-02-25 05:42:04 ESP12E-S1 4.50 1.97 36.80
4164 2019-02-25 05:13:50 ESP12E-S1 4.60 2.03 35.00
4163 2019-02-25 04:45:36 ESP12E-S1 4.70 2.18 36.50
4162 2019-02-25 04:17:21 ESP12E-S1 4.80 2.27 35.70
4161 2019-02-25 03:49:07 ESP12E-S1 5.00 2.51 36.50
4160 2019-02-25 03:20:54 ESP12E-S1 5.00 2.53 37.40
4159 2019-02-25 02:52:37 ESP12E-S1 5.10 2.66 37.90
4158 2019-02-25 02:24:23 ESP12E-S1 5.20 2.78 38.60
4157 2019-02-25 01:56:07 ESP12E-S1 5.30 2.90 38.70
4156 2019-02-25 01:27:52 ESP12E-S1 5.30 2.89 38.60
4155 2019-02-25 00:59:35 ESP12E-S1 5.40 3.04 40.10
4154 2019-02-25 00:31:21 ESP12E-S1 5.60 3.29 41.20
4153 2019-02-25 00:03:06 ESP12E-S1 5.80 3.50 40.80
4152 2019-02-24 23:34:52 ESP12E-S1 6.10 3.80 39.80
4151 2019-02-24 23:06:40 ESP12E-S1 6.40 4.13 39.60
4150 2019-02-24 22:38:27 ESP12E-S1 7.00 4.72 37.10
4149 2019-02-24 22:10:22 ESP12E-S1 7.40 5.11 35.10
4148 2019-02-24 21:42:07 ESP12E-S1 7.60 5.29 33.40
4147 2019-02-24 21:13:54 ESP12E-S1 7.90 5.61 33.10
4146 2019-02-24 20:45:41 ESP12E-S1 8.50 6.22 31.30
4145 2019-02-24 20:17:28 ESP12E-S1 8.80 6.52 30.10
4144 2019-02-24 19:49:12 ESP12E-S1 8.90 6.60 29.00
4143 2019-02-24 19:20:57 ESP12E-S1 8.90 6.60 28.90
4142 2019-02-24 18:52:45 ESP12E-S1 9.30 7.19 34.50
4141 2019-02-24 18:24:37 ESP12E-S1 10.40 8.33 31.90
4140 2019-02-24 17:56:30 ESP12E-S1 12.10 10.13 29.30
4139 2019-02-24 17:28:24 ESP12E-S1 13.70 11.86 28.20
4138 2019-02-24 17:00:29 ESP12E-S1 16.30 14.66 26.00
4137 2019-02-24 16:33:00 ESP12E-S1 23.40 22.46 25.60
4136 2019-02-24 16:04:52 ESP12E-S1 24.50 23.65 24.70
4135 2019-02-24 15:36:22 ESP12E-S1 22.70 21.68 24.90
4134 2019-02-24 15:06:59 ESP12E-S1 15.70 13.99 25.60
4133 2019-02-24 14:38:43 ESP12E-S1 15.20 13.44 25.50
4132 2019-02-24 14:10:26 ESP12E-S1 15.10 13.32 25.20
4131 2019-02-24 13:42:12 ESP12E-S1 15.00 13.22 25.40
4130 2019-02-24 13:14:08 ESP12E-S1 15.80 14.11 25.70
4129 2019-02-24 12:46:23 ESP12E-S1 16.80 15.26 27.80
4128 2019-02-24 12:17:28 ESP12E-S1 13.60 11.80 30.00
4127 2019-02-24 11:48:45 ESP12E-S1 11.00 8.93 29.70
4126 2019-02-24 11:20:25 ESP12E-S1 10.00 7.85 30.50
4125 2019-02-24 10:52:18 ESP12E-S1 9.40 7.25 32.60
4124 2019-02-24 10:23:51 ESP12E-S1 7.70 5.28 29.00
4123 2019-02-24 09:55:06 ESP12E-S1 5.30 2.87 37.60
4122 2019-02-24 09:26:44 ESP12E-S1 4.00 1.47 38.70
4121 2019-02-24 08:58:21 ESP12E-S1 2.80 0.22 41.40
4120 2019-02-24 08:30:03 ESP12E-S1 2.30 -0.32 42.10
4119 2019-02-24 08:01:46 ESP12E-S1 2.00 -0.65 41.90
4118 2019-02-24 07:33:28 ESP12E-S1 1.70 -0.94 43.50
4117 2019-02-24 07:05:13 ESP12E-S1 1.80 -0.80 44.70
4116 2019-02-24 06:36:59 ESP12E-S1 2.00 -0.59 44.10
4115 2019-02-24 06:08:43 ESP12E-S1 2.10 -0.45 45.20
4114 2019-02-24 05:40:28 ESP12E-S1 2.20 -0.38 44.00
4113 2019-02-24 05:12:13 ESP12E-S1 2.30 -0.21 46.30
4112 2019-02-24 04:44:00 ESP12E-S1 2.50 -0.01 45.40
4111 2019-02-24 04:15:46 ESP12E-S1 2.60 0.07 44.10
4110 2019-02-24 03:47:32 ESP12E-S1 2.80 0.27 43.60
4109 2019-02-24 03:19:16 ESP12E-S1 3.00 0.48 43.10
4108 2019-02-24 02:51:01 ESP12E-S1 3.00 0.50 43.70
4107 2019-02-24 02:22:49 ESP12E-S1 3.20 0.73 44.40
4106 2019-02-24 01:54:34 ESP12E-S1 3.40 0.95 44.20
4105 2019-02-24 01:26:19 ESP12E-S1 3.50 1.08 45.00
4104 2019-02-24 00:58:05 ESP12E-S1 3.70 1.31 45.50
4103 2019-02-24 00:29:50 ESP12E-S1 3.80 1.44 46.00
4102 2019-02-24 00:01:34 ESP12E-S1 3.90 1.55 46.20
4101 2019-02-23 23:33:18 ESP12E-S1 4.00 1.68 46.90
4100 2019-02-23 23:05:04 ESP12E-S1 4.30 2.00 46.50
4099 2019-02-23 22:36:50 ESP12E-S1 4.50 2.22 46.60
4098 2019-02-23 22:08:35 ESP12E-S1 4.60 2.35 47.40
4097 2019-02-23 21:40:20 ESP12E-S1 4.80 2.57 47.10
4096 2019-02-23 21:12:05 ESP12E-S1 5.10 2.93 48.40
4095 2019-02-23 20:43:52 ESP12E-S1 5.40 3.25 48.00
4094 2019-02-23 20:15:39 ESP12E-S1 6.00 3.88 46.90
4093 2019-02-23 19:47:25 ESP12E-S1 6.30 4.20 46.50
4092 2019-02-23 19:19:11 ESP12E-S1 6.70 4.61 45.20
4091 2019-02-23 18:51:06 ESP12E-S1 7.00 4.91 44.30
4090 2019-02-23 18:22:51 ESP12E-S1 7.50 5.46 44.10
4089 2019-02-23 17:54:41 ESP12E-S1 8.10 6.11 43.70
4088 2019-02-23 17:26:31 ESP12E-S1 9.20 7.31 43.50
4087 2019-02-23 16:58:24 ESP12E-S1 10.60 8.81 42.10
4086 2019-02-23 16:30:20 ESP12E-S1 12.50 10.87 40.90
4085 2019-02-23 16:02:16 ESP12E-S1 14.70 13.18 36.60
4084 2019-02-23 15:33:57 ESP12E-S1 14.40 12.98 41.70
4083 2019-02-23 15:05:23 ESP12E-S1 12.20 10.67 45.90
4082 2019-02-23 14:37:07 ESP12E-S1 11.90 10.36 46.50
4081 2019-02-23 14:08:51 ESP12E-S1 11.70 10.15 47.00
4080 2019-02-23 13:40:39 ESP12E-S1 12.00 10.48 46.80
4079 2019-02-23 13:12:40 ESP12E-S1 13.40 11.98 45.30
4078 2019-02-23 12:44:34 ESP12E-S1 13.20 11.82 47.70
4077 2019-02-23 12:15:43 ESP12E-S1 10.10 8.62 55.70
4076 2019-02-23 11:47:13 ESP12E-S1 8.60 7.04 58.50
4075 2019-02-23 11:18:55 ESP12E-S1 7.80 6.20 60.10
4074 2019-02-23 10:50:43 ESP12E-S1 7.30 5.70 62.00
4073 2019-02-23 10:22:21 ESP12E-S1 6.30 4.71 66.20
4072 2019-02-23 09:53:48 ESP12E-S1 4.80 3.17 70.10
4071 2019-02-23 09:25:26 ESP12E-S1 3.90 2.30 74.80
4070 2019-02-23 08:57:06 ESP12E-S1 3.20 1.64 79.20
4069 2019-02-23 08:28:48 ESP12E-S1 2.80 1.29 82.50
4068 2019-02-23 08:00:35 ESP12E-S1 2.80 1.29 82.60
4067 2019-02-23 07:32:20 ESP12E-S1 2.90 1.41 83.00
4066 2019-02-23 07:04:07 ESP12E-S1 3.20 1.70 81.50
4065 2019-02-23 06:35:51 ESP12E-S1 3.50 2.04 81.60
4064 2019-02-23 06:07:36 ESP12E-S1 3.70 2.25 81.40
4063 2019-02-23 05:39:22 ESP12E-S1 3.90 2.51 83.00
4062 2019-02-23 05:11:08 ESP12E-S1 4.00 2.63 83.40
4061 2019-02-23 04:42:53 ESP12E-S1 4.30 2.95 82.90
4060 2019-02-23 04:14:40 ESP12E-S1 4.70 3.40 83.10
4059 2019-02-23 03:46:25 ESP12E-S1 5.00 3.79 85.50
4058 2019-02-23 03:18:09 ESP12E-S1 5.10 3.93 86.70
4057 2019-02-23 02:49:55 ESP12E-S1 5.20 4.09 88.70
4056 2019-02-23 02:21:39 ESP12E-S1 5.30 4.21 89.20
4055 2019-02-23 01:53:25 ESP12E-S1 5.40 4.33 89.50
4054 2019-02-23 01:25:10 ESP12E-S1 5.80 4.79 90.10
4053 2019-02-23 00:56:56 ESP12E-S1 6.00 5.02 90.50
4052 2019-02-23 00:28:42 ESP12E-S1 6.20 5.25 90.80
4051 2019-02-23 00:00:27 ESP12E-S1 6.50 5.57 90.60
4050 2019-02-22 23:32:13 ESP12E-S1 6.80 5.89 90.20
4049 2019-02-22 23:03:59 ESP12E-S1 7.10 6.21 89.60
4048 2019-02-22 22:35:44 ESP12E-S1 7.20 6.26 87.50
4047 2019-02-22 22:07:28 ESP12E-S1 7.40 6.47 87.10
4046 2019-02-22 21:39:13 ESP12E-S1 7.60 6.63 84.80
4045 2019-02-22 21:11:00 ESP12E-S1 7.80 6.76 81.50
4044 2019-02-22 20:42:45 ESP12E-S1 7.90 6.80 78.60
4043 2019-02-22 20:14:31 ESP12E-S1 8.20 7.09 77.20
4042 2019-02-22 19:46:17 ESP12E-S1 8.40 7.29 76.30
4041 2019-02-22 19:18:02 ESP12E-S1 8.70 7.65 77.50
4040 2019-02-22 18:49:49 ESP12E-S1 9.10 8.14 79.30
4039 2019-02-22 18:21:37 ESP12E-S1 9.70 8.85 81.40
4038 2019-02-22 17:53:24 ESP12E-S1 10.10 9.25 79.80
4037 2019-02-22 17:25:10 ESP12E-S1 10.50 9.62 77.00
4036 2019-02-22 16:56:56 ESP12E-S1 10.90 9.99 74.40
4035 2019-02-22 16:28:40 ESP12E-S1 11.10 10.20 73.90
4034 2019-02-22 16:00:27 ESP12E-S1 11.30 10.36 71.70
4033 2019-02-22 15:32:13 ESP12E-S1 11.60 10.69 71.70
4032 2019-02-22 15:03:57 ESP12E-S1 11.70 10.78 71.10
4031 2019-02-22 14:35:38 ESP12E-S1 11.40 10.45 71.20
4030 2019-02-22 14:07:22 ESP12E-S1 11.30 10.36 71.60
4029 2019-02-22 13:39:14 ESP12E-S1 11.50 10.60 72.50
4028 2019-02-22 13:10:58 ESP12E-S1 11.90 11.03 72.20
4027 2019-02-22 12:42:46 ESP12E-S1 12.50 11.63 69.70
4026 2019-02-22 12:14:20 ESP12E-S1 12.10 11.23 71.40
4025 2019-02-22 11:46:05 ESP12E-S1 12.50 11.65 70.80
4024 2019-02-22 11:17:42 ESP12E-S1 11.40 10.59 76.40
4023 2019-02-22 10:49:25 ESP12E-S1 11.10 10.38 81.10
4022 2019-02-22 10:21:00 ESP12E-S1 10.00 9.36 88.10
4021 2019-02-22 09:52:44 ESP12E-S1 9.50 8.93 93.00
4020 2019-02-22 09:24:24 ESP12E-S1 9.10 8.51 93.70
4019 2019-02-22 08:56:05 ESP12E-S1 8.80 8.23 95.70
4018 2019-02-22 08:27:49 ESP12E-S1 8.40 7.82 96.80
4017 2019-02-22 07:59:31 ESP12E-S1 8.30 7.72 97.20
4016 2019-02-22 07:31:15 ESP12E-S1 8.20 7.61 97.00
4015 2019-02-22 07:02:58 ESP12E-S1 8.30 7.71 96.70
4014 2019-02-22 06:34:42 ESP12E-S1 8.30 7.73 97.30
4013 2019-02-22 06:06:27 ESP12E-S1 8.30 7.72 96.90
4012 2019-02-22 05:38:10 ESP12E-S1 8.30 7.75 98.30
4011 2019-02-22 05:09:53 ESP12E-S1 8.30 7.79 99.90
4010 2019-02-22 04:41:39 ESP12E-S1 8.30 7.79 99.90
4009 2019-02-22 04:13:23 ESP12E-S1 8.30 7.77 98.90
4008 2019-02-22 03:45:08 ESP12E-S1 8.30 7.79 99.90
4007 2019-02-22 03:16:52 ESP12E-S1 8.20 7.67 99.30
4006 2019-02-22 02:48:36 ESP12E-S1 8.20 7.67 99.40
4005 2019-02-22 02:20:19 ESP12E-S1 8.00 7.43 98.50
4004 2019-02-22 01:52:03 ESP12E-S1 8.00 7.40 97.50
4003 2019-02-22 01:23:47 ESP12E-S1 8.00 7.40 97.30
4002 2019-02-22 00:55:32 ESP12E-S1 8.10 7.49 96.70
4001 2019-02-22 00:27:16 ESP12E-S1 8.10 7.47 95.80
4000 2019-02-21 23:59:03 ESP12E-S1 8.30 7.67 95.30
3999 2019-02-21 23:30:47 ESP12E-S1 8.40 7.73 93.20
3998 2019-02-21 23:02:36 ESP12E-S1 8.50 7.83 92.80
3997 2019-02-21 22:34:19 ESP12E-S1 8.30 7.59 92.20
3996 2019-02-21 22:06:03 ESP12E-S1 8.10 7.34 90.90
3995 2019-02-21 21:37:47 ESP12E-S1 8.10 7.34 90.80
3994 2019-02-21 21:09:33 ESP12E-S1 8.20 7.44 90.60
3993 2019-02-21 20:41:19 ESP12E-S1 8.50 7.77 90.60
3992 2019-02-21 20:13:05 ESP12E-S1 8.80 8.09 90.20
3991 2019-02-21 19:44:50 ESP12E-S1 9.10 8.42 90.30
3990 2019-02-21 19:16:36 ESP12E-S1 9.40 8.71 88.80
3989 2019-02-21 18:48:21 ESP12E-S1 9.90 9.22 87.10
3988 2019-02-21 18:20:07 ESP12E-S1 10.20 9.43 82.50
3987 2019-02-21 17:51:54 ESP12E-S1 10.60 9.76 78.40
3986 2019-02-21 17:23:42 ESP12E-S1 11.10 10.17 73.00
3985 2019-02-21 16:55:30 ESP12E-S1 11.70 10.77 70.60
3984 2019-02-21 16:27:20 ESP12E-S1 12.70 11.79 67.60
3983 2019-02-21 15:59:27 ESP12E-S1 15.70 14.92 61.20
3982 2019-02-21 15:30:47 ESP12E-S1 13.50 12.64 66.50
3981 2019-02-21 15:02:27 ESP12E-S1 13.00 12.13 68.00
3980 2019-02-21 14:34:08 ESP12E-S1 12.30 11.44 70.90
3979 2019-02-21 14:05:48 ESP12E-S1 11.20 10.27 72.70
3978 2019-02-21 13:37:37 ESP12E-S1 12.00 11.08 70.00
3977 2019-02-21 13:09:31 ESP12E-S1 12.40 11.50 69.30
3976 2019-02-21 12:40:58 ESP12E-S1 10.50 9.64 78.10
3975 2019-02-21 12:12:35 ESP12E-S1 9.10 8.22 82.40
3974 2019-02-21 11:44:17 ESP12E-S1 8.60 7.70 83.80
3973 2019-02-21 11:15:54 ESP12E-S1 7.70 6.85 89.20
3972 2019-02-21 10:47:38 ESP12E-S1 7.20 6.36 91.50
3971 2019-02-21 10:19:18 ESP12E-S1 6.70 5.82 91.70
3970 2019-02-21 09:50:57 ESP12E-S1 5.40 4.41 92.60
3969 2019-02-21 09:22:37 ESP12E-S1 5.30 4.36 94.90
3968 2019-02-21 08:54:20 ESP12E-S1 5.00 4.01 94.10
3967 2019-02-21 08:26:00 ESP12E-S1 4.00 2.87 92.50
3966 2019-02-21 07:57:42 ESP12E-S1 3.40 2.17 91.00
3965 2019-02-21 07:29:26 ESP12E-S1 3.40 2.17 90.90
3964 2019-02-21 07:01:11 ESP12E-S1 3.50 2.27 90.60
3963 2019-02-21 06:32:56 ESP12E-S1 3.70 2.49 90.60
3962 2019-02-21 06:04:40 ESP12E-S1 3.80 2.59 90.10
3961 2019-02-21 05:36:25 ESP12E-S1 3.80 2.57 89.50
3960 2019-02-21 05:08:10 ESP12E-S1 3.90 2.67 89.10
3959 2019-02-21 04:39:55 ESP12E-S1 4.00 2.79 89.40
3958 2019-02-21 04:11:40 ESP12E-S1 4.10 2.88 88.60
3957 2019-02-21 03:43:24 ESP12E-S1 4.30 3.06 87.00
3956 2019-02-21 03:15:09 ESP12E-S1 4.50 3.29 87.50
3955 2019-02-21 02:47:00 ESP12E-S1 4.60 3.37 86.20
3954 2019-02-21 02:18:42 ESP12E-S1 4.80 3.58 86.10
3953 2019-02-21 01:50:28 ESP12E-S1 4.90 3.66 84.90
3952 2019-02-21 01:22:15 ESP12E-S1 5.20 3.95 83.20
3951 2019-02-21 00:54:02 ESP12E-S1 5.50 4.28 83.20
3950 2019-02-21 00:25:48 ESP12E-S1 5.70 4.51 83.70
3949 2019-02-20 23:57:31 ESP12E-S1 5.60 4.35 81.90
3948 2019-02-20 23:29:15 ESP12E-S1 5.60 4.34 81.30
3947 2019-02-20 23:01:00 ESP12E-S1 5.70 4.41 79.80
3946 2019-02-20 22:32:47 ESP12E-S1 5.70 4.39 78.90
3945 2019-02-20 22:04:34 ESP12E-S1 6.20 4.89 77.00
3944 2019-02-20 21:36:19 ESP12E-S1 6.40 5.11 77.10
3943 2019-02-20 21:08:06 ESP12E-S1 6.90 5.61 75.20
3942 2019-02-20 20:39:52 ESP12E-S1 7.30 6.04 74.70
3941 2019-02-20 20:11:40 ESP12E-S1 7.70 6.46 74.10
3940 2019-02-20 19:43:32 ESP12E-S1 8.30 7.10 73.30
3939 2019-02-20 19:15:16 ESP12E-S1 8.60 7.38 71.50
3938 2019-02-20 18:47:06 ESP12E-S1 9.10 7.83 67.70
3937 2019-02-20 18:18:51 ESP12E-S1 9.50 8.22 65.50
3936 2019-02-20 17:50:38 ESP12E-S1 10.00 8.67 61.70
3935 2019-02-20 17:22:24 ESP12E-S1 10.40 9.09 60.90
3934 2019-02-20 16:54:10 ESP12E-S1 10.90 9.60 59.70
3933 2019-02-20 16:25:57 ESP12E-S1 11.40 10.15 59.50
3932 2019-02-20 15:58:02 ESP12E-S1 13.00 11.83 56.40
3931 2019-02-20 15:29:38 ESP12E-S1 12.60 11.39 56.50
3930 2019-02-20 15:01:26 ESP12E-S1 13.50 12.34 54.80
3929 2019-02-20 14:33:11 ESP12E-S1 13.40 12.24 55.50
3928 2019-02-20 14:04:54 ESP12E-S1 13.20 12.02 55.50
3927 2019-02-20 13:36:51 ESP12E-S1 14.00 12.89 55.00
3926 2019-02-20 13:08:38 ESP12E-S1 13.90 12.90 59.40
3925 2019-02-20 12:39:57 ESP12E-S1 11.80 10.69 63.30
3924 2019-02-20 12:11:30 ESP12E-S1 11.50 10.40 65.00
3923 2019-02-20 11:43:06 ESP12E-S1 10.30 9.14 67.30
3922 2019-02-20 11:14:42 ESP12E-S1 8.80 7.67 73.90
3921 2019-02-20 10:46:35 ESP12E-S1 8.60 7.46 74.40
3920 2019-02-20 10:18:09 ESP12E-S1 7.20 6.10 81.20
3919 2019-02-20 09:49:37 ESP12E-S1 5.20 4.08 88.40
3918 2019-02-20 09:21:18 ESP12E-S1 4.30 3.19 92.00
3917 2019-02-20 08:52:59 ESP12E-S1 3.60 2.35 89.50
3916 2019-02-20 08:24:42 ESP12E-S1 4.10 2.91 89.60
3915 2019-02-20 07:56:25 ESP12E-S1 2.90 1.54 87.80
3914 2019-02-20 07:28:09 ESP12E-S1 2.70 1.29 86.60
3913 2019-02-20 06:59:53 ESP12E-S1 2.70 1.32 87.90
3912 2019-02-20 06:31:39 ESP12E-S1 2.60 1.20 87.40
3911 2019-02-20 06:03:23 ESP12E-S1 2.50 1.04 85.50
3910 2019-02-20 05:35:07 ESP12E-S1 2.50 1.00 84.00
3909 2019-02-20 05:06:51 ESP12E-S1 2.60 1.12 84.30
3908 2019-02-20 04:38:36 ESP12E-S1 2.70 1.25 85.10
3907 2019-02-20 04:10:23 ESP12E-S1 2.80 1.34 84.30
3906 2019-02-20 03:42:10 ESP12E-S1 3.20 1.71 81.80
3905 2019-02-20 03:13:56 ESP12E-S1 3.50 2.02 81.00
3904 2019-02-20 02:45:40 ESP12E-S1 3.70 2.22 80.30
3903 2019-02-20 02:17:24 ESP12E-S1 3.60 2.14 81.50
3902 2019-02-20 01:49:10 ESP12E-S1 3.70 2.22 80.10
3901 2019-02-20 01:20:55 ESP12E-S1 3.90 2.42 79.30
3900 2019-02-20 00:52:40 ESP12E-S1 4.10 2.64 79.60
3899 2019-02-20 00:24:25 ESP12E-S1 4.30 2.84 78.60
3898 2019-02-19 23:56:11 ESP12E-S1 4.50 3.03 77.60
3897 2019-02-19 23:27:56 ESP12E-S1 4.60 3.14 77.50
3896 2019-02-19 22:59:42 ESP12E-S1 4.80 3.32 76.10
3895 2019-02-19 22:31:28 ESP12E-S1 5.00 3.55 76.40
3894 2019-02-19 22:03:13 ESP12E-S1 5.50 4.03 73.60
3893 2019-02-19 21:35:00 ESP12E-S1 5.80 4.34 73.00
3892 2019-02-19 21:06:46 ESP12E-S1 6.20 4.75 71.70
3891 2019-02-19 20:38:33 ESP12E-S1 6.60 5.10 68.50
3890 2019-02-19 20:10:18 ESP12E-S1 6.90 5.39 66.80
3889 2019-02-19 19:42:04 ESP12E-S1 7.20 5.69 65.50
3888 2019-02-19 19:13:50 ESP12E-S1 7.50 5.97 63.60
3887 2019-02-19 18:45:38 ESP12E-S1 7.90 6.36 62.00
3886 2019-02-19 18:17:29 ESP12E-S1 8.90 7.38 58.70
3885 2019-02-19 17:49:21 ESP12E-S1 9.90 8.38 54.80
3884 2019-02-19 17:21:14 ESP12E-S1 11.00 9.49 51.20
3883 2019-02-19 16:53:16 ESP12E-S1 13.40 12.03 47.40
3882 2019-02-19 16:25:03 ESP12E-S1 16.00 14.83 44.90
3881 2019-02-19 15:56:57 ESP12E-S1 17.80 16.88 47.60
3880 2019-02-19 15:28:39 ESP12E-S1 14.70 13.68 55.60
3879 2019-02-19 15:00:13 ESP12E-S1 12.70 11.64 62.00
3878 2019-02-19 14:31:49 ESP12E-S1 11.80 10.75 65.80
3877 2019-02-19 14:03:36 ESP12E-S1 11.40 10.30 65.30
3876 2019-02-19 13:36:02 ESP12E-S1 13.80 12.92 64.70
3875 2019-02-19 13:07:19 ESP12E-S1 10.40 9.55 78.80
3874 2019-02-19 12:38:50 ESP12E-S1 9.60 8.91 87.90
3873 2019-02-19 12:10:26 ESP12E-S1 7.70 6.90 91.10
3872 2019-02-19 11:42:04 ESP12E-S1 6.70 5.86 93.10
3871 2019-02-19 11:13:43 ESP12E-S1 6.00 5.06 92.20
3870 2019-02-19 10:45:37 ESP12E-S1 5.70 4.73 92.20
3869 2019-02-19 10:17:18 ESP12E-S1 5.40 4.37 90.90
3868 2019-02-19 09:49:02 ESP12E-S1 5.10 4.04 90.80
3867 2019-02-19 09:20:48 ESP12E-S1 5.00 3.83 87.20
3866 2019-02-19 08:52:33 ESP12E-S1 5.00 3.64 80.00
3865 2019-02-19 08:24:16 ESP12E-S1 4.90 3.41 75.40
3864 2019-02-19 07:56:01 ESP12E-S1 4.80 3.27 74.10
3863 2019-02-19 07:27:46 ESP12E-S1 4.60 3.05 74.20
3862 2019-02-19 06:59:31 ESP12E-S1 4.80 3.24 73.00
3861 2019-02-19 06:31:15 ESP12E-S1 4.60 3.02 72.90
3860 2019-02-19 06:02:58 ESP12E-S1 4.40 2.79 72.50
3859 2019-02-19 05:34:43 ESP12E-S1 4.50 2.85 70.70
3858 2019-02-19 05:06:29 ESP12E-S1 4.60 2.95 70.10
3857 2019-02-19 04:38:12 ESP12E-S1 4.50 2.82 69.60
3856 2019-02-19 04:09:56 ESP12E-S1 4.30 2.60 69.30
3855 2019-02-19 03:41:41 ESP12E-S1 4.20 2.47 68.70
3854 2019-02-19 03:13:28 ESP12E-S1 4.30 2.57 68.50
3853 2019-02-19 02:45:13 ESP12E-S1 4.50 2.78 68.00
3852 2019-02-19 02:17:00 ESP12E-S1 4.70 2.97 67.00
3851 2019-02-19 01:48:47 ESP12E-S1 4.90 3.14 65.00
3850 2019-02-19 01:20:33 ESP12E-S1 5.10 3.31 63.10
3849 2019-02-19 00:52:20 ESP12E-S1 5.30 3.50 61.80
3848 2019-02-19 00:24:07 ESP12E-S1 5.60 3.80 60.50
3847 2019-02-18 23:55:54 ESP12E-S1 5.90 4.10 59.50
3846 2019-02-18 23:27:40 ESP12E-S1 6.30 4.50 57.90
3845 2019-02-18 22:59:25 ESP12E-S1 6.60 4.80 57.00
3844 2019-02-18 22:31:10 ESP12E-S1 6.80 5.02 56.70
3843 2019-02-18 22:02:54 ESP12E-S1 6.90 5.15 57.60
3842 2019-02-18 21:34:40 ESP12E-S1 7.30 5.58 57.30
3841 2019-02-18 21:06:26 ESP12E-S1 7.60 5.91 57.30
3840 2019-02-18 20:38:12 ESP12E-S1 7.90 6.22 56.30
3839 2019-02-18 20:10:00 ESP12E-S1 8.40 6.75 55.60
3838 2019-02-18 19:41:48 ESP12E-S1 8.90 7.27 54.50
3837 2019-02-18 19:13:45 ESP12E-S1 9.30 7.70 54.00
3836 2019-02-18 18:45:31 ESP12E-S1 10.10 8.52 51.80
3835 2019-02-18 18:17:21 ESP12E-S1 10.80 9.26 50.60
3834 2019-02-18 17:49:14 ESP12E-S1 12.00 10.51 48.20
3833 2019-02-18 17:21:12 ESP12E-S1 13.80 12.44 46.00
3832 2019-02-18 16:53:15 ESP12E-S1 16.20 14.95 41.10
3831 2019-02-18 16:25:42 ESP12E-S1 21.90 21.07 35.50
3830 2019-02-18 15:57:28 ESP12E-S1 23.20 22.53 36.60
3829 2019-02-18 15:28:42 ESP12E-S1 19.80 18.82 37.70
3828 2019-02-18 15:00:09 ESP12E-S1 15.90 14.60 40.50
3827 2019-02-18 14:31:54 ESP12E-S1 15.70 14.42 41.90
3826 2019-02-18 14:04:00 ESP12E-S1 16.90 15.73 41.40
3825 2019-02-18 13:36:26 ESP12E-S1 17.90 16.80 40.40
3824 2019-02-18 13:07:35 ESP12E-S1 15.10 13.93 48.60
3823 2019-02-18 12:38:51 ESP12E-S1 12.90 11.51 48.50
3822 2019-02-18 12:10:33 ESP12E-S1 12.40 11.01 50.20
3821 2019-02-18 11:42:14 ESP12E-S1 11.60 10.15 51.20
3820 2019-02-18 11:13:57 ESP12E-S1 11.00 9.51 52.00
3819 2019-02-18 10:45:45 ESP12E-S1 10.20 8.66 53.20
3818 2019-02-18 10:17:16 ESP12E-S1 8.10 6.59 62.20
3817 2019-02-18 09:48:44 ESP12E-S1 5.90 4.29 66.80
3816 2019-02-18 09:20:22 ESP12E-S1 4.30 2.71 73.60
3815 2019-02-18 08:52:03 ESP12E-S1 3.40 1.64 70.80
3814 2019-02-18 08:23:47 ESP12E-S1 3.40 1.61 69.50
3813 2019-02-18 07:55:30 ESP12E-S1 3.30 1.48 68.90
3812 2019-02-18 07:27:15 ESP12E-S1 3.30 1.50 69.30
3811 2019-02-18 06:59:01 ESP12E-S1 3.50 1.66 67.20
3810 2019-02-18 06:30:46 ESP12E-S1 3.70 1.85 65.90
3809 2019-02-18 06:02:32 ESP12E-S1 3.90 2.02 64.00
3808 2019-02-18 05:34:17 ESP12E-S1 4.00 2.09 62.50
3807 2019-02-18 05:06:03 ESP12E-S1 4.20 2.26 60.60
3806 2019-02-18 04:37:48 ESP12E-S1 4.40 2.46 59.80
3805 2019-02-18 04:09:34 ESP12E-S1 4.60 2.66 59.20
3804 2019-02-18 03:41:20 ESP12E-S1 4.70 2.75 58.50
3803 2019-02-18 03:13:06 ESP12E-S1 4.90 2.97 58.30
3802 2019-02-18 02:44:53 ESP12E-S1 5.10 3.18 58.10
3801 2019-02-18 02:16:40 ESP12E-S1 5.30 3.39 57.60
3800 2019-02-18 01:48:26 ESP12E-S1 5.50 3.60 57.20
3799 2019-02-18 01:20:15 ESP12E-S1 5.80 3.93 57.10
3798 2019-02-18 00:52:01 ESP12E-S1 6.10 4.26 57.20
3797 2019-02-18 00:23:47 ESP12E-S1 6.30 4.48 57.10
3796 2019-02-17 23:55:34 ESP12E-S1 6.50 4.69 56.80
3795 2019-02-17 23:27:19 ESP12E-S1 6.60 4.80 56.70
3794 2019-02-17 22:59:05 ESP12E-S1 6.80 5.01 56.60
3793 2019-02-17 22:30:50 ESP12E-S1 7.00 5.21 55.60
3792 2019-02-17 22:02:48 ESP12E-S1 7.20 5.44 56.10
3791 2019-02-17 21:34:32 ESP12E-S1 7.60 5.86 55.30
3790 2019-02-17 21:06:19 ESP12E-S1 7.90 6.17 54.40
3789 2019-02-17 20:38:05 ESP12E-S1 8.30 6.59 53.70
3788 2019-02-17 20:09:54 ESP12E-S1 8.80 7.11 52.60
3787 2019-02-17 19:41:42 ESP12E-S1 9.30 7.64 51.80
3786 2019-02-17 19:13:29 ESP12E-S1 9.80 8.16 50.90
3785 2019-02-17 18:45:17 ESP12E-S1 10.40 8.79 49.40
3784 2019-02-17 18:17:06 ESP12E-S1 11.30 9.73 47.50
3783 2019-02-17 17:48:58 ESP12E-S1 12.60 11.14 46.80
3782 2019-02-17 17:20:52 ESP12E-S1 14.20 12.80 43.10
3781 2019-02-17 16:52:56 ESP12E-S1 16.70 15.49 40.90
3780 2019-02-17 16:25:05 ESP12E-S1 21.80 20.99 36.60
3779 2019-02-17 15:56:39 ESP12E-S1 21.20 20.36 37.70
3778 2019-02-17 15:27:59 ESP12E-S1 19.50 18.53 39.40
3777 2019-02-17 14:59:29 ESP12E-S1 15.40 14.13 43.50
3776 2019-02-17 14:31:10 ESP12E-S1 14.60 13.29 44.80
3775 2019-02-17 14:03:07 ESP12E-S1 15.30 14.07 45.30
3774 2019-02-17 13:35:09 ESP12E-S1 15.40 14.25 47.90
3773 2019-02-17 13:06:27 ESP12E-S1 13.10 11.80 51.20
3772 2019-02-17 12:38:04 ESP12E-S1 12.30 10.97 53.20
3771 2019-02-17 12:09:44 ESP12E-S1 11.60 10.21 53.50
3770 2019-02-17 11:41:23 ESP12E-S1 10.80 9.43 57.30
3769 2019-02-17 11:13:08 ESP12E-S1 10.30 8.92 58.70
3768 2019-02-17 10:44:54 ESP12E-S1 9.80 8.54 65.30
3767 2019-02-17 10:16:20 ESP12E-S1 7.70 6.41 72.20
3766 2019-02-17 09:47:53 ESP12E-S1 5.90 4.59 78.20
3765 2019-02-17 09:20:07 ESP12E-S1 4.70 3.39 82.80
3764 2019-02-17 08:51:31 ESP12E-S1 4.00 2.55 80.20
3763 2019-02-17 08:23:14 ESP12E-S1 3.70 2.22 80.10
3762 2019-02-17 07:54:56 ESP12E-S1 3.50 1.96 78.70
3761 2019-02-17 07:26:41 ESP12E-S1 3.50 1.96 78.70
3760 2019-02-17 06:58:25 ESP12E-S1 3.60 2.06 78.20
3759 2019-02-17 06:30:10 ESP12E-S1 3.70 2.17 78.30
3758 2019-02-17 06:01:55 ESP12E-S1 3.80 2.26 77.50
3757 2019-02-17 05:33:40 ESP12E-S1 3.90 2.38 77.80
3756 2019-02-17 05:05:24 ESP12E-S1 4.00 2.49 78.00
3755 2019-02-17 04:37:07 ESP12E-S1 4.10 2.59 77.50
3754 2019-02-17 04:08:51 ESP12E-S1 4.40 2.90 76.60
3753 2019-02-17 03:40:36 ESP12E-S1 4.60 3.08 75.20
3752 2019-02-17 03:12:21 ESP12E-S1 4.80 3.22 72.30
3751 2019-02-17 02:44:07 ESP12E-S1 5.00 3.45 72.60
3750 2019-02-17 02:15:59 ESP12E-S1 5.20 3.69 73.30
3749 2019-02-17 01:47:40 ESP12E-S1 5.30 3.80 73.20
3748 2019-02-17 01:19:26 ESP12E-S1 5.50 4.00 72.40
3747 2019-02-17 00:51:10 ESP12E-S1 5.60 4.09 71.60
3746 2019-02-17 00:22:55 ESP12E-S1 5.80 4.28 70.70
3745 2019-02-16 23:54:39 ESP12E-S1 5.90 4.38 70.20
3744 2019-02-16 23:26:26 ESP12E-S1 6.10 4.58 69.30
3743 2019-02-16 22:58:12 ESP12E-S1 6.40 4.84 66.90
3742 2019-02-16 22:29:58 ESP12E-S1 6.60 5.03 65.70
3741 2019-02-16 22:01:44 ESP12E-S1 6.80 5.23 64.80
3740 2019-02-16 21:33:31 ESP12E-S1 7.10 5.52 63.50
3739 2019-02-16 21:05:17 ESP12E-S1 7.40 5.83 62.50
3738 2019-02-16 20:37:03 ESP12E-S1 7.70 6.13 61.30
3737 2019-02-16 20:08:51 ESP12E-S1 8.10 6.53 59.90
3736 2019-02-16 19:40:37 ESP12E-S1 8.50 6.96 59.40
3735 2019-02-16 19:12:24 ESP12E-S1 9.00 7.49 58.70
3734 2019-02-16 18:44:13 ESP12E-S1 9.60 8.13 58.10
3733 2019-02-16 18:16:02 ESP12E-S1 10.40 8.98 56.70
3732 2019-02-16 17:47:55 ESP12E-S1 11.90 10.54 53.40
3731 2019-02-16 17:19:50 ESP12E-S1 13.50 12.19 49.20
3730 2019-02-16 16:52:00 ESP12E-S1 16.30 15.17 45.50
3729 2019-02-16 16:24:11 ESP12E-S1 21.90 21.17 39.10
3728 2019-02-16 15:55:55 ESP12E-S1 22.90 22.27 39.10
3727 2019-02-16 15:26:53 ESP12E-S1 18.50 17.55 43.90
3726 2019-02-16 14:58:29 ESP12E-S1 15.40 14.18 45.50
3725 2019-02-16 14:30:16 ESP12E-S1 15.30 14.12 47.10
3724 2019-02-16 14:02:29 ESP12E-S1 16.30 15.21 47.00
3723 2019-02-16 13:34:35 ESP12E-S1 16.00 14.83 44.80
3722 2019-02-16 13:05:40 ESP12E-S1 13.00 11.71 51.80
3721 2019-02-16 12:37:14 ESP12E-S1 12.00 10.69 55.10
3720 2019-02-16 12:08:57 ESP12E-S1 11.40 10.06 56.00
3719 2019-02-16 11:40:36 ESP12E-S1 10.70 9.33 57.60
3718 2019-02-16 11:12:20 ESP12E-S1 10.10 8.69 58.40
3717 2019-02-16 10:44:07 ESP12E-S1 9.30 7.88 60.90
3716 2019-02-16 10:15:32 ESP12E-S1 7.50 6.09 68.40
3715 2019-02-16 09:47:02 ESP12E-S1 5.60 4.05 70.10
3714 2019-02-16 09:18:36 ESP12E-S1 3.80 2.18 74.40
3713 2019-02-16 08:50:18 ESP12E-S1 3.20 1.50 73.70
3712 2019-02-16 08:22:02 ESP12E-S1 3.10 1.34 71.70
3711 2019-02-16 07:53:45 ESP12E-S1 3.10 1.30 70.20
3710 2019-02-16 07:25:31 ESP12E-S1 3.20 1.38 69.20
3709 2019-02-16 06:57:15 ESP12E-S1 3.40 1.58 68.40
3708 2019-02-16 06:29:01 ESP12E-S1 3.50 1.70 68.70
3707 2019-02-16 06:00:46 ESP12E-S1 3.90 2.11 67.60
3706 2019-02-16 05:32:32 ESP12E-S1 4.00 2.23 67.90
3705 2019-02-16 05:04:19 ESP12E-S1 4.40 2.64 66.70
3704 2019-02-16 04:36:05 ESP12E-S1 4.60 2.82 65.20
3703 2019-02-16 04:07:51 ESP12E-S1 5.00 3.22 63.80
3702 2019-02-16 03:39:44 ESP12E-S1 5.10 3.33 63.70
3701 2019-02-16 03:11:27 ESP12E-S1 5.20 3.45 64.10
3700 2019-02-16 02:43:14 ESP12E-S1 5.50 3.76 63.20
3699 2019-02-16 02:15:01 ESP12E-S1 5.90 4.16 61.70
3698 2019-02-16 01:46:49 ESP12E-S1 6.30 4.57 60.70
3697 2019-02-16 01:18:36 ESP12E-S1 6.60 4.88 59.90
3696 2019-02-16 00:50:24 ESP12E-S1 7.10 5.42 59.40
3695 2019-02-16 00:22:10 ESP12E-S1 7.50 5.83 58.40
3694 2019-02-15 23:53:54 ESP12E-S1 7.70 6.07 59.10
3693 2019-02-15 23:25:39 ESP12E-S1 7.80 6.18 59.00
3692 2019-02-15 22:57:24 ESP12E-S1 8.00 6.36 57.80
3691 2019-02-15 22:29:09 ESP12E-S1 8.10 6.49 58.30
3690 2019-02-15 22:00:53 ESP12E-S1 8.30 6.68 57.40
3689 2019-02-15 21:32:39 ESP12E-S1 8.60 6.99 56.40
3688 2019-02-15 21:04:25 ESP12E-S1 9.00 7.39 54.90
3687 2019-02-15 20:36:10 ESP12E-S1 9.20 7.57 53.30
3686 2019-02-15 20:07:57 ESP12E-S1 9.50 7.87 52.30
3685 2019-02-15 19:39:43 ESP12E-S1 10.00 8.36 49.80
3684 2019-02-15 19:11:29 ESP12E-S1 10.40 8.77 48.80
3683 2019-02-15 18:43:21 ESP12E-S1 11.10 9.52 48.00
3682 2019-02-15 18:15:08 ESP12E-S1 11.90 10.38 47.10
3681 2019-02-15 17:47:02 ESP12E-S1 13.00 11.56 46.30
3680 2019-02-15 17:18:58 ESP12E-S1 14.60 13.29 45.00
3679 2019-02-15 16:51:06 ESP12E-S1 17.60 16.53 42.60
3678 2019-02-15 16:23:22 ESP12E-S1 23.30 22.74 40.30
3677 2019-02-15 15:55:03 ESP12E-S1 24.30 23.81 39.10
3676 2019-02-15 15:25:49 ESP12E-S1 19.50 18.67 44.70
3675 2019-02-15 14:57:27 ESP12E-S1 16.80 15.83 49.40
3674 2019-02-15 14:29:14 ESP12E-S1 16.90 15.94 49.50
3673 2019-02-15 14:01:23 ESP12E-S1 17.70 16.78 48.00
3672 2019-02-15 13:33:14 ESP12E-S1 16.70 15.77 51.40
3671 2019-02-15 13:04:30 ESP12E-S1 14.60 13.37 48.20
3670 2019-02-15 12:36:06 ESP12E-S1 13.60 12.31 49.70
3669 2019-02-15 12:07:46 ESP12E-S1 12.80 11.35 46.40
3668 2019-02-15 11:39:25 ESP12E-S1 11.90 10.43 49.10
3667 2019-02-15 11:11:10 ESP12E-S1 11.10 9.53 48.40
3666 2019-02-15 10:42:57 ESP12E-S1 10.20 8.62 51.50
3665 2019-02-15 10:14:17 ESP12E-S1 8.10 6.54 60.40
3664 2019-02-15 09:45:51 ESP12E-S1 6.30 4.69 65.20
3663 2019-02-15 09:17:28 ESP12E-S1 4.70 3.01 68.40
3662 2019-02-15 08:49:09 ESP12E-S1 4.00 2.28 69.90
3661 2019-02-15 08:20:53 ESP12E-S1 3.80 2.09 71.10
3660 2019-02-15 07:52:39 ESP12E-S1 3.70 1.99 71.40
3659 2019-02-15 07:24:37 ESP12E-S1 3.60 1.89 71.80
3658 2019-02-15 06:56:18 ESP12E-S1 3.40 1.67 71.60
3657 2019-02-15 06:28:01 ESP12E-S1 3.20 1.48 73.00
3656 2019-02-15 05:59:43 ESP12E-S1 2.80 1.09 74.70
3655 2019-02-15 05:31:28 ESP12E-S1 2.50 0.81 76.70
3654 2019-02-15 05:03:15 ESP12E-S1 2.70 1.02 76.30
3653 2019-02-15 04:35:00 ESP12E-S1 2.80 1.08 74.30
3652 2019-02-15 04:06:46 ESP12E-S1 3.00 1.27 73.20
3651 2019-02-15 03:38:31 ESP12E-S1 3.20 1.43 71.10
3650 2019-02-15 03:10:16 ESP12E-S1 3.30 1.48 68.70
3649 2019-02-15 02:42:02 ESP12E-S1 3.40 1.55 67.10
3648 2019-02-15 02:13:48 ESP12E-S1 3.50 1.63 65.90
3647 2019-02-15 01:45:33 ESP12E-S1 3.60 1.64 62.20
3646 2019-02-15 01:17:20 ESP12E-S1 4.00 2.07 61.80
3645 2019-02-15 00:49:06 ESP12E-S1 4.10 2.08 58.10
3644 2019-02-15 00:20:52 ESP12E-S1 4.30 2.32 58.80
3643 2019-02-14 23:52:37 ESP12E-S1 4.30 2.34 59.70
3642 2019-02-14 23:24:23 ESP12E-S1 4.40 2.65 67.20
3641 2019-02-14 22:56:06 ESP12E-S1 4.30 2.60 69.50
3640 2019-02-14 22:27:51 ESP12E-S1 4.20 2.34 63.70
3639 2019-02-14 21:59:37 ESP12E-S1 4.40 2.43 58.90
3638 2019-02-14 21:31:22 ESP12E-S1 4.50 2.55 59.00
3637 2019-02-14 21:03:08 ESP12E-S1 4.70 2.81 60.50
3636 2019-02-14 20:34:55 ESP12E-S1 5.10 3.38 65.60
3635 2019-02-14 20:06:41 ESP12E-S1 5.30 3.74 70.90
3634 2019-02-14 19:38:27 ESP12E-S1 5.50 4.06 74.70
3633 2019-02-14 19:10:15 ESP12E-S1 6.20 4.84 75.20
3632 2019-02-14 18:42:04 ESP12E-S1 6.70 5.36 74.00
3631 2019-02-14 18:13:55 ESP12E-S1 7.60 6.26 70.50
3630 2019-02-14 17:45:47 ESP12E-S1 8.80 7.50 67.40
3629 2019-02-14 17:17:39 ESP12E-S1 10.00 8.69 62.70
3628 2019-02-14 16:49:39 ESP12E-S1 11.90 10.63 56.90
3627 2019-02-14 16:21:51 ESP12E-S1 16.30 15.22 47.40
3626 2019-02-14 15:53:52 ESP12E-S1 17.90 16.87 42.90
3625 2019-02-14 15:24:46 ESP12E-S1 14.30 13.29 57.70
3624 2019-02-14 14:56:23 ESP12E-S1 11.30 10.19 65.40
3623 2019-02-14 14:28:01 ESP12E-S1 9.90 8.73 68.30
3622 2019-02-14 13:59:53 ESP12E-S1 10.30 9.07 64.40
3621 2019-02-14 13:31:36 ESP12E-S1 10.20 8.85 60.30
3620 2019-02-14 13:03:15 ESP12E-S1 10.20 8.99 65.50
3619 2019-02-14 12:34:53 ESP12E-S1 9.40 8.23 70.20
3618 2019-02-14 12:06:35 ESP12E-S1 8.90 7.65 69.30
3617 2019-02-14 11:38:18 ESP12E-S1 8.60 7.34 69.90
3616 2019-02-14 11:09:54 ESP12E-S1 6.80 5.39 71.00
3615 2019-02-14 10:41:37 ESP12E-S1 5.80 4.40 75.30
3614 2019-02-14 10:12:52 ESP12E-S1 3.00 1.65 87.70
3613 2019-02-14 09:44:30 ESP12E-S1 1.70 0.36 93.30
3612 2019-02-14 09:16:13 ESP12E-S1 1.00 -0.43 92.60
3611 2019-02-14 08:47:56 ESP12E-S1 0.80 -0.66 92.20
3610 2019-02-14 08:19:40 ESP12E-S1 0.60 -0.89 91.70
3609 2019-02-14 07:51:23 ESP12E-S1 0.50 -1.00 91.70
3608 2019-02-14 07:23:08 ESP12E-S1 0.60 -0.88 92.00
3607 2019-02-14 06:54:55 ESP12E-S1 0.70 -0.77 91.90
3606 2019-02-14 06:26:46 ESP12E-S1 0.90 -0.54 92.40
3605 2019-02-14 05:58:30 ESP12E-S1 1.10 -0.33 92.20
3604 2019-02-14 05:30:14 ESP12E-S1 1.10 -0.33 92.00
3603 2019-02-14 05:01:59 ESP12E-S1 1.20 -0.23 91.80
3602 2019-02-14 04:33:45 ESP12E-S1 1.20 -0.24 91.50
3601 2019-02-14 04:05:30 ESP12E-S1 1.30 -0.13 91.30
3600 2019-02-14 03:37:15 ESP12E-S1 1.30 -0.14 91.00
3599 2019-02-14 03:08:59 ESP12E-S1 1.30 -0.13 91.20
3598 2019-02-14 02:40:43 ESP12E-S1 1.30 -0.14 90.90
3597 2019-02-14 02:12:29 ESP12E-S1 1.40 -0.03 91.10
3596 2019-02-14 01:44:13 ESP12E-S1 1.40 -0.02 91.30
3595 2019-02-14 00:47:53 ESP12E-S1 1.60 0.19 90.90
3594 2019-02-13 23:51:33 ESP12E-S1 2.00 0.62 90.60
3593 2019-02-13 23:23:20 ESP12E-S1 2.20 0.84 90.50
3592 2019-02-13 22:55:07 ESP12E-S1 2.50 1.17 90.50
3591 2019-02-13 22:26:53 ESP12E-S1 2.80 1.50 90.50
3590 2019-02-13 21:58:37 ESP12E-S1 2.90 1.61 90.40
3589 2019-02-13 21:30:22 ESP12E-S1 3.00 1.70 89.80
3588 2019-02-13 21:02:09 ESP12E-S1 3.20 1.89 88.70
3587 2019-02-13 20:33:53 ESP12E-S1 3.40 2.10 88.10
3586 2019-02-13 20:05:40 ESP12E-S1 3.50 2.18 87.00
3585 2019-02-13 19:37:25 ESP12E-S1 3.70 2.39 86.80
3584 2019-02-13 19:09:12 ESP12E-S1 4.00 2.71 86.40
3583 2019-02-13 18:41:01 ESP12E-S1 4.60 3.35 85.40
3582 2019-02-13 18:12:49 ESP12E-S1 5.30 4.06 83.30
3581 2019-02-13 17:44:38 ESP12E-S1 6.10 4.89 81.20
3580 2019-02-13 17:16:27 ESP12E-S1 7.00 5.71 74.70
3579 2019-02-13 16:48:18 ESP12E-S1 7.80 6.45 69.50
3578 2019-02-13 16:20:07 ESP12E-S1 9.60 8.36 66.70
3577 2019-02-13 15:51:52 ESP12E-S1 9.50 8.22 65.80
3576 2019-02-13 15:23:29 ESP12E-S1 9.00 7.77 69.60
3575 2019-02-13 14:55:11 ESP12E-S1 8.30 7.01 70.00
3574 2019-02-13 14:26:55 ESP12E-S1 8.20 6.90 69.80
3573 2019-02-13 13:58:41 ESP12E-S1 8.40 6.99 65.00
3572 2019-02-13 13:30:29 ESP12E-S1 8.80 7.59 71.10
3571 2019-02-13 13:02:08 ESP12E-S1 8.30 7.22 78.00
3570 2019-02-13 12:33:49 ESP12E-S1 7.70 6.53 76.80
3569 2019-02-13 12:05:32 ESP12E-S1 6.90 5.73 79.70
3568 2019-02-13 11:37:11 ESP12E-S1 6.30 5.22 85.70
3567 2019-02-13 11:08:53 ESP12E-S1 5.30 4.08 84.20
3566 2019-02-13 10:40:37 ESP12E-S1 4.50 3.35 89.60
3565 2019-02-13 10:11:56 ESP12E-S1 2.70 1.47 93.50
3564 2019-02-13 09:43:34 ESP12E-S1 1.30 0.02 97.10
3563 2019-02-13 09:15:11 ESP12E-S1 0.10 -1.30 97.10
3562 2019-02-13 08:46:55 ESP12E-S1 -0.30 -1.76 96.40
3561 2019-02-13 08:18:40 ESP12E-S1 -0.50 -1.99 96.10
3560 2019-02-13 07:50:25 ESP12E-S1 -0.50 -1.99 96.00
3559 2019-02-13 07:22:13 ESP12E-S1 -0.50 -2.00 95.50
3558 2019-02-13 06:53:59 ESP12E-S1 -0.40 -1.91 94.70
3557 2019-02-13 06:25:46 ESP12E-S1 -0.30 -1.80 94.60
3556 2019-02-13 05:57:33 ESP12E-S1 -0.20 -1.70 94.40
3555 2019-02-13 05:29:19 ESP12E-S1 -0.20 -1.72 93.70
3554 2019-02-13 05:01:05 ESP12E-S1 -0.10 -1.61 93.80
3553 2019-02-13 04:32:51 ESP12E-S1 -0.10 -1.62 93.30
3552 2019-02-13 04:04:38 ESP12E-S1 0.20 -1.30 92.90
3551 2019-02-13 03:36:23 ESP12E-S1 0.30 -1.21 92.10
3550 2019-02-13 03:08:10 ESP12E-S1 0.40 -1.12 91.50
3549 2019-02-13 02:39:55 ESP12E-S1 0.40 -1.13 90.90
3548 2019-02-13 02:11:40 ESP12E-S1 0.50 -1.03 90.70
3547 2019-02-13 01:43:26 ESP12E-S1 0.50 -0.98 92.30
3546 2019-02-13 01:15:12 ESP12E-S1 0.60 -0.83 93.90
3545 2019-02-13 00:46:58 ESP12E-S1 0.70 -0.71 94.40
3544 2019-02-13 00:18:44 ESP12E-S1 0.70 -0.72 94.10
3543 2019-02-12 23:50:31 ESP12E-S1 0.90 -0.49 94.20
3542 2019-02-12 23:22:17 ESP12E-S1 1.10 -0.28 94.10
3541 2019-02-12 22:54:05 ESP12E-S1 1.40 0.04 93.70
3540 2019-02-12 22:25:53 ESP12E-S1 1.70 0.37 93.60
3539 2019-02-12 21:57:40 ESP12E-S1 2.00 0.70 93.50
3538 2019-02-12 21:29:28 ESP12E-S1 2.20 0.93 94.00
3537 2019-02-12 21:01:15 ESP12E-S1 2.50 1.28 94.80
3536 2019-02-12 20:33:01 ESP12E-S1 2.70 1.49 94.50
3535 2019-02-12 20:04:46 ESP12E-S1 3.00 1.83 94.90
3534 2019-02-12 19:36:32 ESP12E-S1 3.10 1.94 94.60
3533 2019-02-12 19:08:19 ESP12E-S1 3.30 2.13 93.70
3532 2019-02-12 18:40:06 ESP12E-S1 3.70 2.54 92.50
3531 2019-02-12 18:11:54 ESP12E-S1 4.20 3.05 90.80
3530 2019-02-12 17:43:41 ESP12E-S1 4.60 3.36 86.10
3529 2019-02-12 17:15:27 ESP12E-S1 4.80 3.54 84.60
3528 2019-02-12 16:47:15 ESP12E-S1 5.20 3.93 82.40
3527 2019-02-12 16:19:06 ESP12E-S1 6.00 4.84 83.60
3526 2019-02-12 15:50:53 ESP12E-S1 5.40 4.29 88.00
3525 2019-02-12 15:22:32 ESP12E-S1 5.10 4.02 90.10
3524 2019-02-12 14:54:16 ESP12E-S1 5.10 4.03 90.40
3523 2019-02-12 14:26:01 ESP12E-S1 5.10 4.05 91.30
3522 2019-02-12 13:57:45 ESP12E-S1 5.20 4.13 90.20
3521 2019-02-12 13:29:28 ESP12E-S1 4.80 3.72 91.40
3520 2019-02-12 13:01:10 ESP12E-S1 4.50 3.46 93.90
3519 2019-02-12 12:32:50 ESP12E-S1 3.80 2.70 94.50
3518 2019-02-12 12:04:33 ESP12E-S1 3.40 2.32 96.50
3517 2019-02-12 11:36:16 ESP12E-S1 3.00 1.90 97.60
3516 2019-02-12 11:08:00 ESP12E-S1 2.90 1.80 97.90
3515 2019-02-12 10:39:44 ESP12E-S1 2.70 1.59 98.40
3514 2019-02-12 10:11:27 ESP12E-S1 2.50 1.39 98.90
3513 2019-02-12 09:43:11 ESP12E-S1 2.40 1.27 98.60
3512 2019-02-12 09:15:06 ESP12E-S1 2.20 1.06 98.90
3511 2019-02-12 08:46:48 ESP12E-S1 2.10 0.96 99.30
3510 2019-02-12 08:18:36 ESP12E-S1 2.10 0.93 98.30
3509 2019-02-12 07:50:23 ESP12E-S1 2.10 0.95 99.00
3508 2019-02-12 07:22:08 ESP12E-S1 2.10 0.96 99.20
3507 2019-02-12 06:53:56 ESP12E-S1 2.10 0.93 98.30
3506 2019-02-12 06:25:41 ESP12E-S1 2.10 0.95 98.80
3505 2019-02-12 05:57:27 ESP12E-S1 2.10 0.95 99.10
3504 2019-02-12 05:29:13 ESP12E-S1 2.10 0.94 98.50
3503 2019-02-12 05:00:57 ESP12E-S1 2.10 0.93 98.10
3502 2019-02-12 04:32:44 ESP12E-S1 2.10 0.94 98.50
3501 2019-02-12 04:04:30 ESP12E-S1 2.00 0.81 97.80
3500 2019-02-12 03:36:16 ESP12E-S1 2.10 0.92 98.00
3499 2019-02-12 03:08:03 ESP12E-S1 2.10 0.94 98.50
3498 2019-02-12 02:39:49 ESP12E-S1 2.20 1.05 98.60
3497 2019-02-12 02:11:41 ESP12E-S1 2.30 1.16 98.60
3496 2019-02-12 01:43:25 ESP12E-S1 2.20 1.04 98.10
3495 2019-02-12 01:15:11 ESP12E-S1 2.30 1.14 97.90
3494 2019-02-12 00:46:56 ESP12E-S1 2.50 1.36 98.00
3493 2019-02-12 00:18:42 ESP12E-S1 2.60 1.51 99.30
3492 2019-02-11 23:50:28 ESP12E-S1 2.70 1.62 99.30
3491 2019-02-11 23:22:14 ESP12E-S1 2.80 1.74 99.70
3490 2019-02-11 22:53:58 ESP12E-S1 2.70 1.63 99.80
3489 2019-02-11 22:25:43 ESP12E-S1 2.80 1.73 99.30
3488 2019-02-11 21:57:29 ESP12E-S1 3.00 1.94 98.90
3487 2019-02-11 21:29:18 ESP12E-S1 3.30 2.27 98.80
3486 2019-02-11 21:01:04 ESP12E-S1 3.50 2.50 99.30
3485 2019-02-11 20:32:50 ESP12E-S1 3.50 2.50 99.40
3484 2019-02-11 20:04:35 ESP12E-S1 3.60 2.61 99.30
3483 2019-02-11 19:36:19 ESP12E-S1 3.60 2.61 99.20
3482 2019-02-11 19:08:04 ESP12E-S1 3.60 2.57 98.00
3481 2019-02-11 18:39:50 ESP12E-S1 3.60 2.62 99.90
3480 2019-02-11 18:11:36 ESP12E-S1 3.70 2.72 99.40
3479 2019-02-11 17:43:23 ESP12E-S1 4.00 3.05 99.40
3478 2019-02-11 17:15:11 ESP12E-S1 4.20 3.26 99.00
3477 2019-02-11 16:46:59 ESP12E-S1 4.40 3.46 98.10
3476 2019-02-11 16:18:48 ESP12E-S1 4.90 3.93 95.30
3475 2019-02-11 15:50:37 ESP12E-S1 5.10 4.07 91.90
3474 2019-02-11 15:22:34 ESP12E-S1 5.80 4.58 82.10
3473 2019-02-11 14:54:17 ESP12E-S1 5.80 4.68 85.80
3472 2019-02-11 14:26:01 ESP12E-S1 5.60 4.37 82.50
3471 2019-02-11 13:57:47 ESP12E-S1 5.90 4.77 85.20
3470 2019-02-11 13:29:27 ESP12E-S1 4.50 3.36 90.30
3469 2019-02-11 13:01:18 ESP12E-S1 4.20 3.07 91.70
3468 2019-02-11 12:33:03 ESP12E-S1 4.30 3.22 93.20
3467 2019-02-11 12:04:48 ESP12E-S1 4.40 3.37 94.60
3466 2019-02-11 11:36:36 ESP12E-S1 4.80 3.86 96.80
3465 2019-02-11 11:08:18 ESP12E-S1 4.00 3.06 99.90
3464 2019-02-11 10:40:01 ESP12E-S1 3.60 2.60 99.10
3463 2019-02-11 10:11:43 ESP12E-S1 3.30 2.29 99.70
3462 2019-02-11 09:43:27 ESP12E-S1 3.00 1.96 99.90
3461 2019-02-11 09:15:11 ESP12E-S1 2.80 1.74 99.90
3460 2019-02-11 08:46:57 ESP12E-S1 2.70 1.63 99.90
3459 2019-02-11 08:18:41 ESP12E-S1 2.60 1.52 99.90
3458 2019-02-11 07:50:26 ESP12E-S1 2.50 1.41 99.90
3457 2019-02-11 07:22:11 ESP12E-S1 2.50 1.41 99.90
3456 2019-02-11 06:53:55 ESP12E-S1 2.40 1.30 99.90
3455 2019-02-11 06:25:41 ESP12E-S1 2.40 1.30 99.90
3454 2019-02-11 05:57:25 ESP12E-S1 2.30 1.19 99.90
3453 2019-02-11 05:29:11 ESP12E-S1 2.30 1.19 99.90
3452 2019-02-11 05:00:56 ESP12E-S1 2.40 1.30 99.90
3451 2019-02-11 04:32:42 ESP12E-S1 2.40 1.30 99.90
3450 2019-02-11 04:04:27 ESP12E-S1 2.60 1.52 99.90
3449 2019-02-11 03:36:13 ESP12E-S1 2.80 1.74 99.90
3448 2019-02-11 03:07:59 ESP12E-S1 2.90 1.85 99.90
3447 2019-02-11 02:39:45 ESP12E-S1 3.00 1.96 99.90
3446 2019-02-11 02:11:32 ESP12E-S1 3.20 2.18 99.90
3445 2019-02-11 01:45:40 ESP12E-S1 3.70 2.73 99.90
3444 2019-02-10 23:37:30 ESP12E-S1 4.40 3.39 95.50
3443 2019-02-10 23:09:37 ESP12E-S1 4.60 3.60 95.30
3442 2019-02-10 22:41:59 ESP12E-S1 4.60 3.66 97.60
3441 2019-02-10 22:13:34 ESP12E-S1 4.60 3.72 99.90
3440 2019-02-10 21:45:24 ESP12E-S1 4.60 3.72 99.90
3439 2019-02-10 21:16:56 ESP12E-S1 4.80 3.94 99.90
3438 2019-02-10 20:48:27 ESP12E-S1 4.90 4.05 99.90
3437 2019-02-10 20:20:35 ESP12E-S1 5.10 4.27 99.90
3436 2019-02-10 19:47:44 ESP12E-S1 5.10 4.27 99.90
3435 2019-02-10 19:18:55 ESP12E-S1 5.10 4.27 99.90
3434 2019-02-10 18:50:42 ESP12E-S1 5.30 4.49 99.90
3433 2019-02-10 18:22:29 ESP12E-S1 5.60 4.82 99.90
3432 2019-02-10 17:54:19 ESP12E-S1 5.80 5.04 99.90
3431 2019-02-10 17:26:08 ESP12E-S1 6.10 5.37 99.90
3430 2019-02-10 16:57:55 ESP12E-S1 6.50 5.81 99.90
3429 2019-02-10 16:29:43 ESP12E-S1 6.80 6.14 99.90
3428 2019-02-10 16:01:29 ESP12E-S1 6.90 6.25 99.90
3427 2019-02-10 15:33:16 ESP12E-S1 7.10 6.47 99.90
3426 2019-02-10 15:05:11 ESP12E-S1 7.40 6.80 99.90
3425 2019-02-10 14:36:55 ESP12E-S1 7.60 7.02 99.90
3424 2019-02-10 14:08:40 ESP12E-S1 7.50 6.91 99.90
3423 2019-02-10 13:40:25 ESP12E-S1 7.60 7.02 99.90
3422 2019-02-10 13:12:08 ESP12E-S1 7.40 6.80 99.90
3421 2019-02-10 12:43:51 ESP12E-S1 7.00 6.36 99.90
3420 2019-02-10 12:15:33 ESP12E-S1 6.50 5.81 99.90
3419 2019-02-10 11:47:17 ESP12E-S1 6.30 5.59 99.90
3418 2019-02-10 11:19:00 ESP12E-S1 6.20 5.48 99.90
3417 2019-02-10 10:50:44 ESP12E-S1 6.00 5.26 99.90
3416 2019-02-10 10:22:28 ESP12E-S1 5.90 5.15 99.90
3415 2019-02-10 09:54:12 ESP12E-S1 5.80 5.04 99.90
3414 2019-02-10 09:25:55 ESP12E-S1 5.60 4.82 99.90
3413 2019-02-10 08:57:39 ESP12E-S1 5.30 4.49 99.90
3412 2019-02-10 08:29:22 ESP12E-S1 5.10 4.27 99.90
3411 2019-02-10 08:01:07 ESP12E-S1 5.00 4.16 99.90
3410 2019-02-10 07:32:51 ESP12E-S1 4.80 3.94 99.90
3409 2019-02-10 07:04:36 ESP12E-S1 4.70 3.83 99.90
3408 2019-02-10 06:36:19 ESP12E-S1 4.70 3.83 99.90
3407 2019-02-10 06:08:03 ESP12E-S1 4.70 3.83 99.90
3406 2019-02-10 05:39:48 ESP12E-S1 4.70 3.83 99.90
3405 2019-02-10 05:11:32 ESP12E-S1 4.70 3.83 99.90
3404 2019-02-10 04:43:22 ESP12E-S1 4.80 3.94 99.90
3403 2019-02-10 04:15:06 ESP12E-S1 4.80 3.93 99.30
3402 2019-02-10 03:46:51 ESP12E-S1 4.80 3.94 99.90
3401 2019-02-10 03:18:37 ESP12E-S1 4.80 3.94 99.90
3400 2019-02-10 02:50:23 ESP12E-S1 4.90 4.05 99.90
3399 2019-02-10 02:22:08 ESP12E-S1 4.90 4.05 99.90
3398 2019-02-10 01:53:53 ESP12E-S1 4.90 4.05 99.90
3397 2019-02-10 01:25:38 ESP12E-S1 5.00 4.16 99.90
3396 2019-02-10 00:57:22 ESP12E-S1 5.00 4.16 99.90
3395 2019-02-10 00:29:07 ESP12E-S1 5.00 4.16 99.90
3394 2019-02-10 00:00:53 ESP12E-S1 5.10 4.27 99.90
3393 2019-02-09 23:32:38 ESP12E-S1 5.20 4.37 99.30
3392 2019-02-09 23:04:25 ESP12E-S1 5.30 4.46 98.60
3391 2019-02-09 22:36:09 ESP12E-S1 5.40 4.56 98.10
3390 2019-02-09 22:07:54 ESP12E-S1 5.50 4.66 97.70
3389 2019-02-09 21:39:41 ESP12E-S1 5.70 4.88 98.00
3388 2019-02-09 21:11:26 ESP12E-S1 5.90 5.10 97.80
3387 2019-02-09 20:43:12 ESP12E-S1 6.00 5.20 97.30
3386 2019-02-09 20:14:58 ESP12E-S1 6.10 5.28 96.20
3385 2019-02-09 19:46:43 ESP12E-S1 6.30 5.48 95.50
3384 2019-02-09 19:18:33 ESP12E-S1 6.50 5.66 94.00
3383 2019-02-09 18:50:19 ESP12E-S1 6.80 5.98 93.80
3382 2019-02-09 18:22:04 ESP12E-S1 6.80 6.01 94.70
3381 2019-02-09 17:53:50 ESP12E-S1 6.90 6.14 95.60
3380 2019-02-09 17:25:35 ESP12E-S1 7.10 6.30 93.20
3379 2019-02-09 16:57:23 ESP12E-S1 7.50 6.68 90.80
3378 2019-02-09 16:29:08 ESP12E-S1 7.80 7.02 91.30
3377 2019-02-09 16:01:02 ESP12E-S1 8.20 7.23 82.70
3376 2019-02-09 15:32:50 ESP12E-S1 8.30 7.36 83.10
3375 2019-02-09 15:04:36 ESP12E-S1 8.60 7.73 84.90
3374 2019-02-09 14:36:19 ESP12E-S1 8.20 7.37 87.90
3373 2019-02-09 14:08:02 ESP12E-S1 8.20 7.39 88.80
3372 2019-02-09 13:39:44 ESP12E-S1 7.80 6.97 89.30
3371 2019-02-09 13:11:30 ESP12E-S1 7.70 6.83 88.10
3370 2019-02-09 12:43:22 ESP12E-S1 7.40 6.62 92.90
3369 2019-02-09 12:15:03 ESP12E-S1 7.20 6.42 93.50
3368 2019-02-09 11:46:49 ESP12E-S1 7.20 6.47 95.50
3367 2019-02-09 11:18:29 ESP12E-S1 6.60 5.92 99.90
3366 2019-02-09 10:50:13 ESP12E-S1 6.00 5.26 99.90
3365 2019-02-09 10:21:58 ESP12E-S1 5.70 4.93 99.90
3364 2019-02-09 09:53:40 ESP12E-S1 5.40 4.60 99.90
3363 2019-02-09 09:25:23 ESP12E-S1 5.00 4.16 99.90
3362 2019-02-09 08:57:07 ESP12E-S1 4.90 4.05 99.90
3361 2019-02-09 08:28:51 ESP12E-S1 4.80 3.94 99.90
3360 2019-02-09 08:00:37 ESP12E-S1 4.80 3.94 99.90
3359 2019-02-09 07:32:23 ESP12E-S1 4.90 4.05 99.90
3358 2019-02-09 07:04:09 ESP12E-S1 4.90 4.05 99.90
3357 2019-02-09 06:35:54 ESP12E-S1 4.90 4.05 99.90
3356 2019-02-09 06:07:38 ESP12E-S1 4.80 3.94 99.90
3355 2019-02-09 05:39:33 ESP12E-S1 4.80 3.94 99.90
3354 2019-02-09 05:11:14 ESP12E-S1 4.70 3.83 99.90
3353 2019-02-09 04:42:57 ESP12E-S1 4.50 3.61 99.90
3352 2019-02-09 04:14:42 ESP12E-S1 4.40 3.50 99.90
3351 2019-02-09 03:46:28 ESP12E-S1 4.40 3.50 99.90
3350 2019-02-09 03:18:22 ESP12E-S1 4.50 3.61 99.90
3349 2019-02-09 02:50:14 ESP12E-S1 4.60 3.72 99.90
3348 2019-02-09 02:21:57 ESP12E-S1 4.70 3.81 99.00
3347 2019-02-09 01:53:52 ESP12E-S1 4.90 3.99 97.30
3346 2019-02-09 01:25:35 ESP12E-S1 5.00 4.07 96.20
3345 2019-02-09 00:57:20 ESP12E-S1 5.10 4.18 96.40
3344 2019-02-09 00:29:05 ESP12E-S1 5.20 4.29 96.40
3343 2019-02-09 00:00:49 ESP12E-S1 5.30 4.42 97.10
3342 2019-02-08 23:32:36 ESP12E-S1 5.40 4.53 97.20
3341 2019-02-08 23:04:21 ESP12E-S1 5.40 4.54 97.60
3340 2019-02-08 22:36:05 ESP12E-S1 5.50 4.67 98.10
3339 2019-02-08 22:07:50 ESP12E-S1 5.60 4.78 98.40
3338 2019-02-08 21:39:36 ESP12E-S1 5.60 4.78 98.10
3337 2019-02-08 21:11:20 ESP12E-S1 5.60 4.78 98.10
3336 2019-02-08 20:43:06 ESP12E-S1 5.70 4.89 98.40
3335 2019-02-08 20:14:51 ESP12E-S1 5.60 4.81 99.20
3334 2019-02-08 19:46:37 ESP12E-S1 5.70 4.92 99.20
3333 2019-02-08 19:18:22 ESP12E-S1 5.80 5.02 98.80
3332 2019-02-08 18:50:07 ESP12E-S1 5.80 5.02 99.10
3331 2019-02-08 18:21:51 ESP12E-S1 5.80 5.04 99.90
3330 2019-02-08 17:53:37 ESP12E-S1 5.90 5.15 99.90
3329 2019-02-08 17:25:22 ESP12E-S1 6.00 5.26 99.90
3328 2019-02-08 16:57:08 ESP12E-S1 5.90 5.15 99.90
3327 2019-02-08 16:28:59 ESP12E-S1 5.80 5.04 99.90
3326 2019-02-08 16:00:43 ESP12E-S1 5.70 4.93 99.90
3325 2019-02-08 15:32:28 ESP12E-S1 5.60 4.82 99.90
3324 2019-02-08 15:04:16 ESP12E-S1 5.60 4.82 99.90
3323 2019-02-08 14:35:58 ESP12E-S1 5.40 4.60 99.90
3322 2019-02-08 14:07:40 ESP12E-S1 4.90 4.05 99.90
3321 2019-02-08 13:39:23 ESP12E-S1 4.70 3.83 99.90
3320 2019-02-08 13:11:07 ESP12E-S1 4.50 3.61 99.90
3319 2019-02-08 12:42:50 ESP12E-S1 4.30 3.39 99.90
3318 2019-02-08 12:14:33 ESP12E-S1 4.10 3.17 99.90
3317 2019-02-08 11:46:16 ESP12E-S1 3.80 2.84 99.90
3316 2019-02-08 11:18:01 ESP12E-S1 3.70 2.73 99.90
3315 2019-02-08 10:49:46 ESP12E-S1 3.60 2.62 99.90
3314 2019-02-08 10:21:32 ESP12E-S1 3.50 2.51 99.90
3313 2019-02-08 09:53:34 ESP12E-S1 3.40 2.40 99.90
3312 2019-02-08 09:25:11 ESP12E-S1 3.30 2.29 99.90
3311 2019-02-08 08:56:56 ESP12E-S1 3.10 2.07 99.90
3310 2019-02-08 08:28:40 ESP12E-S1 3.00 1.96 99.90
3309 2019-02-08 08:00:26 ESP12E-S1 2.90 1.85 99.90
3308 2019-02-08 07:32:10 ESP12E-S1 2.80 1.74 99.90
3307 2019-02-08 07:03:55 ESP12E-S1 2.80 1.74 99.90
3306 2019-02-08 06:35:40 ESP12E-S1 2.70 1.63 99.90
3305 2019-02-08 06:07:24 ESP12E-S1 2.70 1.63 99.90
3304 2019-02-08 05:39:08 ESP12E-S1 2.70 1.63 99.90
3303 2019-02-08 05:11:01 ESP12E-S1 2.70 1.63 99.90
3302 2019-02-08 04:42:42 ESP12E-S1 2.70 1.63 99.90
3301 2019-02-08 04:14:27 ESP12E-S1 2.70 1.63 99.90
3300 2019-02-08 03:46:13 ESP12E-S1 2.70 1.63 99.90
3299 2019-02-08 03:17:58 ESP12E-S1 2.60 1.52 99.90
3298 2019-02-08 02:49:43 ESP12E-S1 2.60 1.52 99.90
3297 2019-02-08 02:21:28 ESP12E-S1 2.60 1.52 99.90
3296 2019-02-08 01:53:11 ESP12E-S1 2.50 1.41 99.90
3295 2019-02-08 01:24:55 ESP12E-S1 2.50 1.41 99.90
3294 2019-02-08 00:56:39 ESP12E-S1 2.50 1.41 99.90
3293 2019-02-08 00:28:24 ESP12E-S1 2.50 1.41 99.90
3292 2019-02-08 00:00:08 ESP12E-S1 2.50 1.41 99.90
3291 2019-02-07 23:31:56 ESP12E-S1 2.60 1.52 99.90
3290 2019-02-07 23:03:42 ESP12E-S1 2.70 1.63 99.90
3289 2019-02-07 22:35:26 ESP12E-S1 2.60 1.52 99.90
3288 2019-02-07 22:07:11 ESP12E-S1 2.50 1.41 99.90
3287 2019-02-07 21:38:55 ESP12E-S1 2.50 1.41 99.90
3286 2019-02-07 21:10:40 ESP12E-S1 2.50 1.41 99.90
3285 2019-02-07 20:42:24 ESP12E-S1 2.40 1.30 99.90
3284 2019-02-07 20:14:10 ESP12E-S1 2.50 1.41 99.90
3283 2019-02-07 19:45:57 ESP12E-S1 2.50 1.41 99.90
3282 2019-02-07 19:17:43 ESP12E-S1 2.70 1.63 99.90
3281 2019-02-07 18:49:30 ESP12E-S1 2.90 1.85 99.90
3280 2019-02-07 18:21:15 ESP12E-S1 3.10 2.07 99.90
3279 2019-02-07 17:53:00 ESP12E-S1 3.00 1.96 99.90
3278 2019-02-07 17:24:44 ESP12E-S1 2.90 1.85 99.90
3277 2019-02-07 16:56:28 ESP12E-S1 2.70 1.63 99.90
3276 2019-02-07 16:28:11 ESP12E-S1 2.60 1.52 99.90
3275 2019-02-07 15:59:55 ESP12E-S1 2.50 1.41 99.90
3274 2019-02-07 15:31:40 ESP12E-S1 2.40 1.30 99.90
3273 2019-02-07 15:03:23 ESP12E-S1 2.00 0.86 99.90
3272 2019-02-07 14:35:06 ESP12E-S1 1.70 0.53 99.90
3271 2019-02-07 14:06:56 ESP12E-S1 1.50 0.31 99.90
3270 2019-02-07 13:38:39 ESP12E-S1 1.30 0.09 99.90
3269 2019-02-07 13:10:30 ESP12E-S1 1.10 -0.13 99.90
3268 2019-02-07 11:17:35 ESP12E-S1 1.90 0.75 99.90
3267 2019-02-07 10:49:21 ESP12E-S1 0.80 -0.48 98.90
3266 2019-02-07 10:21:06 ESP12E-S1 0.70 -0.63 97.50
3265 2019-02-07 09:52:50 ESP12E-S1 0.60 -0.76 96.80
3264 2019-02-07 09:24:36 ESP12E-S1 0.60 -0.80 95.20
3263 2019-02-07 08:56:29 ESP12E-S1 0.60 -0.81 94.70
3262 2019-02-07 08:28:11 ESP12E-S1 0.60 -0.81 94.80
3261 2019-02-07 07:59:55 ESP12E-S1 0.50 -0.95 93.60
3260 2019-02-07 07:31:43 ESP12E-S1 0.60 -0.86 93.00
3259 2019-02-07 07:03:28 ESP12E-S1 0.70 -0.75 92.80
3258 2019-02-07 06:35:13 ESP12E-S1 0.70 -0.77 92.00
3257 2019-02-07 06:06:59 ESP12E-S1 0.90 -0.56 91.70
3256 2019-02-07 05:38:44 ESP12E-S1 1.00 -0.44 92.10
3255 2019-02-07 05:10:31 ESP12E-S1 1.00 -0.46 91.50
3254 2019-02-07 04:42:16 ESP12E-S1 1.10 -0.35 91.30
3253 2019-02-07 04:14:01 ESP12E-S1 1.10 -0.35 91.30
3252 2019-02-07 03:45:46 ESP12E-S1 1.10 -0.35 91.30
3251 2019-02-07 03:17:30 ESP12E-S1 1.00 -0.46 91.50
3250 2019-02-07 02:49:14 ESP12E-S1 0.90 -0.54 92.40
3249 2019-02-07 02:20:59 ESP12E-S1 0.80 -0.64 92.80
3248 2019-02-07 01:52:43 ESP12E-S1 0.70 -0.75 92.90
3247 2019-02-07 01:24:28 ESP12E-S1 0.60 -0.87 92.50
3246 2019-02-07 00:56:13 ESP12E-S1 0.60 -0.87 92.60
3245 2019-02-07 00:28:00 ESP12E-S1 0.50 -0.99 92.00
3244 2019-02-06 23:59:45 ESP12E-S1 0.60 -0.90 91.50
3243 2019-02-06 23:31:31 ESP12E-S1 0.80 -0.69 91.10
3242 2019-02-06 23:03:16 ESP12E-S1 0.80 -0.70 90.60
3241 2019-02-06 22:35:02 ESP12E-S1 1.00 -0.50 89.80
3240 2019-02-06 22:06:49 ESP12E-S1 1.20 -0.32 88.20
3239 2019-02-06 21:38:35 ESP12E-S1 1.40 -0.14 86.70
3238 2019-02-06 21:10:22 ESP12E-S1 1.60 0.04 85.20
3237 2019-02-06 20:42:10 ESP12E-S1 1.90 0.32 83.40
3236 2019-02-06 20:13:57 ESP12E-S1 2.10 0.51 82.00
3235 2019-02-06 19:45:43 ESP12E-S1 2.30 0.71 81.20
3234 2019-02-06 18:49:28 ESP12E-S1 2.90 1.39 82.00
3233 2019-02-06 18:21:16 ESP12E-S1 3.20 1.74 82.90
3232 2019-02-06 17:53:05 ESP12E-S1 4.00 2.60 82.30
3231 2019-02-06 17:24:55 ESP12E-S1 5.00 3.64 80.00
3230 2019-02-06 16:56:45 ESP12E-S1 5.80 4.39 75.00
3229 2019-02-06 16:28:37 ESP12E-S1 6.80 5.38 70.60
3228 2019-02-06 16:00:22 ESP12E-S1 7.50 6.15 70.60
3227 2019-02-06 15:32:04 ESP12E-S1 7.30 5.94 71.20
3226 2019-02-06 15:03:48 ESP12E-S1 6.70 5.31 72.20
3225 2019-02-06 14:35:31 ESP12E-S1 6.70 5.28 71.00
3224 2019-02-06 14:07:11 ESP12E-S1 5.80 4.40 75.10
3223 2019-02-06 13:38:56 ESP12E-S1 5.60 4.15 73.90
3222 2019-02-06 13:10:38 ESP12E-S1 5.60 4.20 76.10
3221 2019-02-06 12:42:20 ESP12E-S1 4.90 3.51 78.90
3220 2019-02-06 12:14:01 ESP12E-S1 4.20 2.83 82.70
3219 2019-02-06 11:45:44 ESP12E-S1 3.70 2.30 83.30
3218 2019-02-06 11:17:30 ESP12E-S1 2.90 1.54 87.70
3217 2019-02-06 10:49:13 ESP12E-S1 1.90 0.55 92.00
3216 2019-02-06 10:20:51 ESP12E-S1 0.80 -0.63 93.20
3215 2019-02-06 09:52:32 ESP12E-S1 0.50 -0.94 94.00
3214 2019-02-06 09:24:15 ESP12E-S1 0.20 -1.26 94.40
3213 2019-02-06 08:56:00 ESP12E-S1 -0.10 -1.60 93.90
3212 2019-02-06 08:27:45 ESP12E-S1 -0.30 -1.82 94.10
3211 2019-02-06 07:59:31 ESP12E-S1 -0.30 -1.82 93.90
3210 2019-02-06 07:31:16 ESP12E-S1 -0.40 -1.94 93.80
3209 2019-02-06 07:03:01 ESP12E-S1 -0.30 -1.83 93.50
3208 2019-02-06 06:34:47 ESP12E-S1 -0.30 -1.84 93.30
3207 2019-02-06 06:06:34 ESP12E-S1 -0.20 -1.73 93.20
3206 2019-02-06 05:38:20 ESP12E-S1 -0.10 -1.62 93.20
3205 2019-02-06 05:10:06 ESP12E-S1 0.00 -1.50 93.50
3204 2019-02-06 04:41:53 ESP12E-S1 0.10 -1.39 93.60
3203 2019-02-06 04:13:39 ESP12E-S1 0.20 -1.27 94.00
3202 2019-02-06 03:45:25 ESP12E-S1 0.40 -1.04 94.20
3201 2019-02-06 03:17:12 ESP12E-S1 0.50 -0.93 94.20
3200 2019-02-06 02:48:58 ESP12E-S1 0.70 -0.71 94.30
3199 2019-02-06 02:20:45 ESP12E-S1 0.80 -0.60 94.50
3198 2019-02-06 01:52:31 ESP12E-S1 1.00 -0.38 94.30
3197 2019-02-06 01:24:19 ESP12E-S1 1.30 -0.05 94.30
3196 2019-02-06 00:56:13 ESP12E-S1 1.50 0.17 94.20
3195 2019-02-06 00:27:56 ESP12E-S1 1.80 0.50 94.30
3194 2019-02-05 23:59:45 ESP12E-S1 2.30 1.05 94.20
3193 2019-02-05 23:31:32 ESP12E-S1 2.70 1.50 94.80
3192 2019-02-05 23:03:26 ESP12E-S1 2.80 1.61 94.60
3191 2019-02-05 22:35:15 ESP12E-S1 2.80 1.60 94.40
3190 2019-02-05 22:07:02 ESP12E-S1 2.80 1.60 94.30
3189 2019-02-05 21:38:58 ESP12E-S1 2.80 1.58 93.80
3188 2019-02-05 21:10:39 ESP12E-S1 2.80 1.56 92.80
3187 2019-02-05 20:42:26 ESP12E-S1 3.00 1.76 91.90
3186 2019-02-05 20:14:21 ESP12E-S1 3.10 1.87 91.90
3185 2019-02-05 19:46:09 ESP12E-S1 3.20 1.94 90.70
3184 2019-02-05 19:18:02 ESP12E-S1 3.20 1.95 91.10
3183 2019-02-05 18:49:45 ESP12E-S1 3.30 2.05 90.40
3182 2019-02-05 18:21:31 ESP12E-S1 3.40 2.12 89.20
3181 2019-02-05 17:53:18 ESP12E-S1 3.50 2.20 87.90
3180 2019-02-05 17:25:03 ESP12E-S1 3.60 2.28 86.70
3179 2019-02-05 16:56:50 ESP12E-S1 3.80 2.47 85.70
3178 2019-02-05 16:28:37 ESP12E-S1 4.00 2.70 86.10
3177 2019-02-05 16:00:25 ESP12E-S1 4.20 2.95 87.20
3176 2019-02-05 15:32:09 ESP12E-S1 4.20 2.98 88.20
3175 2019-02-05 15:03:57 ESP12E-S1 4.30 2.96 83.40
3174 2019-02-05 14:35:44 ESP12E-S1 4.70 3.33 80.70
3173 2019-02-05 14:07:29 ESP12E-S1 4.90 3.60 82.50
3172 2019-02-05 13:39:15 ESP12E-S1 5.00 3.68 81.40
3171 2019-02-05 13:11:02 ESP12E-S1 5.10 3.74 79.50
3170 2019-02-05 12:42:44 ESP12E-S1 4.70 3.38 82.60
3169 2019-02-05 12:14:26 ESP12E-S1 4.00 2.60 82.10
3168 2019-02-05 11:46:10 ESP12E-S1 3.20 1.78 84.30
3167 2019-02-05 11:17:57 ESP12E-S1 2.80 1.38 86.00
3166 2019-02-05 10:49:39 ESP12E-S1 2.40 0.95 86.20
3165 2019-02-05 10:21:26 ESP12E-S1 2.00 0.59 89.40
3164 2019-02-05 09:53:07 ESP12E-S1 1.70 0.29 90.60
3163 2019-02-05 09:24:52 ESP12E-S1 1.40 -0.02 91.50
3162 2019-02-05 08:56:37 ESP12E-S1 1.20 -0.19 93.10
3161 2019-02-05 08:28:23 ESP12E-S1 1.00 -0.38 94.30
3160 2019-02-05 08:00:18 ESP12E-S1 0.90 -0.50 93.90
3159 2019-02-05 07:32:02 ESP12E-S1 1.00 -0.41 93.30
3158 2019-02-05 07:03:48 ESP12E-S1 1.10 -0.31 92.70
3157 2019-02-05 06:35:33 ESP12E-S1 1.10 -0.31 92.80
3156 2019-02-05 06:07:19 ESP12E-S1 1.10 -0.32 92.30
3155 2019-02-05 05:39:04 ESP12E-S1 1.00 -0.41 93.30
3154 2019-02-05 05:10:50 ESP12E-S1 1.00 -0.43 92.30
3153 2019-02-05 04:42:35 ESP12E-S1 1.00 -0.44 92.00
3152 2019-02-05 04:14:20 ESP12E-S1 1.00 -0.43 92.30
3151 2019-02-05 03:46:05 ESP12E-S1 1.00 -0.44 91.90
3150 2019-02-05 03:17:52 ESP12E-S1 1.00 -0.45 91.60
3149 2019-02-05 02:49:38 ESP12E-S1 1.10 -0.35 91.30
3148 2019-02-05 02:21:25 ESP12E-S1 1.10 -0.36 90.80
3147 2019-02-05 01:53:11 ESP12E-S1 1.20 -0.22 91.90
3146 2019-02-05 01:25:00 ESP12E-S1 1.20 -0.25 91.10
3145 2019-02-05 00:56:46 ESP12E-S1 1.40 -0.10 88.30
3144 2019-02-05 00:28:31 ESP12E-S1 1.40 -0.09 88.80
3143 2019-02-05 00:00:18 ESP12E-S1 1.50 0.01 88.20
3142 2019-02-04 23:32:02 ESP12E-S1 1.40 -0.14 86.90
3141 2019-02-04 23:03:48 ESP12E-S1 1.30 -0.21 88.40
3140 2019-02-04 22:35:33 ESP12E-S1 1.10 -0.41 89.00
3139 2019-02-04 22:07:19 ESP12E-S1 1.00 -0.44 92.10
3138 2019-02-04 21:39:04 ESP12E-S1 0.90 -0.55 92.00
3137 2019-02-04 21:10:50 ESP12E-S1 0.90 -0.55 92.10
3136 2019-02-04 20:42:38 ESP12E-S1 1.10 -0.35 91.20
3135 2019-02-04 20:14:26 ESP12E-S1 1.30 -0.17 89.90
3134 2019-02-04 19:46:13 ESP12E-S1 1.50 0.03 89.10
3133 2019-02-04 19:18:13 ESP12E-S1 1.90 0.46 88.60
3132 2019-02-04 18:49:57 ESP12E-S1 2.20 0.71 85.50
3131 2019-02-04 18:21:44 ESP12E-S1 2.40 0.95 86.40
3130 2019-02-04 17:53:39 ESP12E-S1 2.70 1.14 81.00
3129 2019-02-04 17:25:25 ESP12E-S1 3.00 1.40 78.20
3128 2019-02-04 16:57:11 ESP12E-S1 3.30 1.76 79.50
3127 2019-02-04 16:29:11 ESP12E-S1 3.60 2.06 78.20
3126 2019-02-04 16:01:04 ESP12E-S1 4.10 2.52 75.00
3125 2019-02-04 15:32:48 ESP12E-S1 4.50 3.00 76.20
3124 2019-02-04 15:04:37 ESP12E-S1 5.10 3.61 74.30
3123 2019-02-04 14:36:22 ESP12E